Provisional Data: Chiques Creek near Route 283


Please select a monitoring station.
Please select start date.
Please select start date.

Toggle Unit: C/F Toggle Unit: C/F
Sample Time Temperature (C) Temperature (F) Specific Conductivity (mS/cm) pH   Turbidity (NTU+) DO (mg/L)
3/7/2021 12:00:00 AM 4.76 40.568 0.432 7.84 58.17 12.43
3/7/2021 12:15:00 AM 4.74 40.532 0.431 7.84 55.62 12.43
3/7/2021 12:30:00 AM 4.73 40.514 0.431 7.84 56.73 12.42
3/7/2021 12:45:00 AM 4.71 40.478 0.43 7.84 56.27 12.42
3/7/2021 1:00:00 AM 4.71 40.478 0.43 7.83 55.73 12.41
3/7/2021 1:15:00 AM 4.69 40.442 0.431 7.83 56.88 12.42
3/7/2021 1:30:00 AM 4.68 40.424 0.431 7.83 55.49 12.42
3/7/2021 1:45:00 AM 4.66 40.388 0.432 7.83 56.69 12.43
3/7/2021 2:00:00 AM 4.65 40.37 0.432 7.83 55.94 12.42
3/7/2021 2:15:00 AM 4.64 40.352 0.433 7.83 57.57 12.42
3/7/2021 2:30:00 AM 4.62 40.316 0.433 7.83 57.36 12.43
3/7/2021 2:45:00 AM 4.61 40.298 0.433 7.83 56.77 12.42
3/7/2021 3:00:00 AM 4.59 40.262 0.433 7.82 55.95 12.43
3/7/2021 3:15:00 AM 4.59 40.262 0.433 7.83 56.47 12.43
3/7/2021 3:30:00 AM 4.57 40.226 0.434 7.82 55.33 12.43
3/7/2021 3:45:00 AM 4.55 40.19 0.434 7.82 54.25 12.44
3/7/2021 4:00:00 AM 4.53 40.154 0.436 7.82 55.36 12.44
3/7/2021 4:15:00 AM 4.52 40.136 0.437 7.82 56.81 12.45
3/7/2021 4:30:00 AM 4.49 40.082 0.437 7.82 56.22 12.45
3/7/2021 4:45:00 AM 4.47 40.046 0.437 7.82 56.48 12.45
3/7/2021 5:00:00 AM 4.45 40.01 0.437 7.82 59.26 12.46
3/7/2021 5:15:00 AM 4.43 39.974 0.437 7.82 57.06 12.47
3/7/2021 5:30:00 AM 4.41 39.938 0.437 7.82 57.52 12.47
3/7/2021 5:45:00 AM 4.38 39.884 0.436 7.82 56.97 12.48
3/7/2021 6:00:00 AM 4.36 39.848 0.435 7.82 55.21 12.49
3/7/2021 6:15:00 AM 4.33 39.794 0.435 7.82 56.05 12.49
3/7/2021 6:30:00 AM 4.3 39.74 0.435 7.82 56.27 12.49
3/7/2021 6:45:00 AM 4.28 39.704 0.436 7.82 55.2 12.51
3/7/2021 7:00:00 AM 4.25 39.65 0.436 7.81 55.51 12.52
3/7/2021 7:15:00 AM 4.22 39.596 0.436 7.82 56.14 12.53
3/7/2021 7:30:00 AM 4.2 39.56 0.436 7.82 55.07 12.55
3/7/2021 7:45:00 AM 4.18 39.524 0.436 7.82 57.23 12.57
3/7/2021 8:00:00 AM 4.16 39.488 0.435 7.82 57.06 12.59
3/7/2021 8:15:00 AM 4.13 39.434 0.434 7.82 57.15 12.62
3/7/2021 8:30:00 AM 4.13 39.434 0.433 7.82 57.52 12.64
3/7/2021 8:45:00 AM 4.13 39.434 0.433 7.83 56.71 12.66
3/7/2021 9:00:00 AM 4.14 39.452 0.433 7.83 56.95 12.68
3/7/2021 9:15:00 AM 4.14 39.452 0.432 7.83 57.98 12.7
3/7/2021 9:30:00 AM 4.15 39.47 0.433 7.83 57.71 12.71
3/7/2021 9:45:00 AM 4.18 39.524 0.434 7.83 56.24 12.73
3/7/2021 10:00:00 AM 4.22 39.596 0.435 7.84 56.29 12.75
3/7/2021 10:15:00 AM 4.26 39.668 0.435 7.84 55.39 12.76
3/7/2021 10:30:00 AM 4.31 39.758 0.436 7.84 56.8 12.78
3/7/2021 10:45:00 AM 4.37 39.866 0.436 7.85 56.13 12.8
3/7/2021 11:00:00 AM 4.45 40.01 0.436 7.85 56.11 12.81
3/7/2021 11:15:00 AM 4.52 40.136 0.436 7.86 56.28 12.82
3/7/2021 11:30:00 AM 4.62 40.316 0.435 7.86 56.29 12.83
3/7/2021 11:45:00 AM 4.72 40.496 0.434 7.87 55.64 12.83
3/7/2021 12:00:00 PM 4.82 40.676 0.434 7.87 55.53 12.83
3/7/2021 12:15:00 PM 4.94 40.892 0.434 7.88 54.94 12.83
3/7/2021 12:30:00 PM 5.05 41.09 0.434 7.88 56.62 12.83
3/7/2021 12:45:00 PM 5.17 41.306 0.434 7.89 55.09 12.83
3/7/2021 1:00:00 PM 5.29 41.522 0.433 7.89 56.19 12.81
3/7/2021 1:15:00 PM 5.42 41.756 0.432 7.9 55.94 12.8
3/7/2021 1:30:00 PM 5.54 41.972 0.432 7.9 55.98 12.79
3/7/2021 1:45:00 PM 5.65 42.17 0.431 7.91 55.68 12.77
3/7/2021 2:00:00 PM 5.77 42.386 0.43 7.91 55.47 12.75
3/7/2021 2:15:00 PM 5.86 42.548 0.43 7.92 56.57 12.67
3/7/2021 2:30:00 PM 5.96 42.728 0.43 7.92 55.03 12.72
3/7/2021 2:45:00 PM 6.05 42.89 0.43 7.93 56.53 12.71
3/7/2021 3:00:00 PM 6.13 43.034 0.431 7.93 57.06 12.69
3/7/2021 3:15:00 PM 6.19 43.142 0.431 7.94 57.13 12.68
3/7/2021 3:30:00 PM 6.25 43.25 0.432 7.94 56.82 12.64
3/7/2021 3:45:00 PM 6.31 43.358 0.433 7.95 56.65 12.66
3/7/2021 4:00:00 PM 6.35 43.43 0.433 7.95 57.37 12.57
3/7/2021 4:15:00 PM 6.37 43.466 0.433 7.95 57.23 12.52
3/7/2021 4:30:00 PM 6.4 43.52 0.433 7.95 56.44 12.59
3/7/2021 4:45:00 PM 6.41 43.538 0.433 7.95 55.93 12.46
3/7/2021 5:00:00 PM 6.42 43.556 0.432 7.96 55.71 12.52
3/7/2021 5:15:00 PM 6.43 43.574 0.432 7.96 56.75 12.52
3/7/2021 5:30:00 PM 6.44 43.592 0.432 7.96 56.75 12.51
3/7/2021 5:45:00 PM 6.43 43.574 0.432 7.95 57.56 12.49
3/7/2021 6:00:00 PM 6.43 43.574 0.432 7.95 58.41 12.46
3/7/2021 6:15:00 PM 6.44 43.592 0.432 7.95 58.4 12.43
3/7/2021 6:30:00 PM 6.44 43.592 0.433 7.95 60.39 12.4
3/7/2021 6:45:00 PM 6.43 43.574 0.433 7.94 57.57 12.39
3/7/2021 7:00:00 PM 6.42 43.556 0.432 7.94 58.7 12.37
3/7/2021 7:15:00 PM 6.41 43.538 0.433 7.94 58.31 12.35
3/7/2021 7:30:00 PM 6.39 43.502 0.433 7.94 58.32 12.34
3/7/2021 7:45:00 PM 6.37 43.466 0.433 7.93 58.8 12.33
3/7/2021 8:00:00 PM 6.34 43.412 0.434 7.93 59.02 12.31
3/7/2021 8:15:00 PM 6.31 43.358 0.434 7.92 58.71 12.28
3/7/2021 8:30:00 PM 6.28 43.304 0.435 7.92 59.29 12.27
3/7/2021 8:45:00 PM 6.25 43.25 0.435 7.92 58.57 12.26
3/7/2021 9:00:00 PM 6.21 43.178 0.436 7.92 59.19 12.24
3/7/2021 9:15:00 PM 6.17 43.106 0.436 7.91 60.74 12.23
3/7/2021 9:30:00 PM 6.14 43.052 0.436 7.91 60.93 12.22
3/7/2021 9:45:00 PM 6.1 42.98 0.436 7.9 58.42 12.22
3/7/2021 10:00:00 PM 6.07 42.926 0.436 7.9 51.81 12.19
3/7/2021 10:15:00 PM 6.03 42.854 0.435 7.89 49.05 12.2
3/7/2021 10:30:00 PM 5.98 42.764 0.435 7.89 49.05 12.19
3/7/2021 10:45:00 PM 5.94 42.692 0.435 7.89 47.71 12.18
3/7/2021 11:00:00 PM 5.91 42.638 0.435 7.88 50.39 12.18
3/7/2021 11:15:00 PM 5.87 42.566 0.437 7.88 49.18 12.19
3/7/2021 11:30:00 PM 5.83 42.494 0.437 7.88 51.78 12.2
3/7/2021 11:45:00 PM 5.79 42.422 0.438 7.87 51.83 12.19
3/8/2021 12:00:00 AM 5.75 42.35 0.438 7.87 51.97 12.19
3/8/2021 12:15:00 AM 5.72 42.296 0.438 7.87 51.56 12.18
3/8/2021 12:30:00 AM 5.68 42.224 0.438 7.86 52.88 12.19
3/8/2021 12:45:00 AM 5.65 42.17 0.438 7.86 52.4 12.19
3/8/2021 1:00:00 AM 5.62 42.116 0.438 7.86 52.67 12.19
3/8/2021 1:15:00 AM 5.59 42.062 0.439 7.86 50.75 12.2
3/8/2021 1:30:00 AM 5.56 42.008 0.438 7.86 52.48 12.2
3/8/2021 1:45:00 AM 5.53 41.954 0.439 7.85 52.75 12.19
3/8/2021 2:00:00 AM 5.5 41.9 0.437 7.85 53.05 12.19
3/8/2021 2:15:00 AM 5.47 41.846 0.441 7.85 52.65 12.19
3/8/2021 2:30:00 AM 5.45 41.81 0.44 7.85 52.79 12.16
3/8/2021 2:45:00 AM 5.41 41.738 0.443 7.85 52.49 12.19
3/8/2021 3:00:00 AM 5.39 41.702 0.443 7.85 53.36 12.2
3/8/2021 3:15:00 AM 5.35 41.63 0.443 7.84 52.18 12.2
3/8/2021 3:30:00 AM 5.32 41.576 0.443 7.84 52.84 12.21
3/8/2021 3:45:00 AM 5.28 41.504 0.444 7.84 54.43 12.22
3/8/2021 4:00:00 AM 5.25 41.45 0.443 7.84 54.62 12.23
3/8/2021 4:15:00 AM 5.21 41.378 0.443 7.84 55.84 12.24
3/8/2021 4:30:00 AM 5.17 41.306 0.443 7.84 55.59 12.26
3/8/2021 4:45:00 AM 5.13 41.234 0.446 7.84 53.55 12.27
3/8/2021 5:00:00 AM 5.08 41.144 0.445 7.84 55.07 12.27
3/8/2021 5:15:00 AM 5.04 41.072 0.445 7.84 54.31 12.29
3/8/2021 5:30:00 AM 4.99 40.982 0.445 7.84 44.51 12.3
3/8/2021 5:45:00 AM 4.94 40.892 0.448 7.83 44.62 12.31
3/8/2021 6:00:00 AM 4.89 40.802 0.448 7.83 44.58 12.32
3/8/2021 6:15:00 AM 4.84 40.712 0.446 7.83 45.34 12.34
3/8/2021 6:30:00 AM 4.79 40.622 0.446 7.83 45.76 12.37
3/8/2021 6:45:00 AM 4.73 40.514 0.445 7.83 44.29 12.39
3/8/2021 7:00:00 AM 4.68 40.424 0.444 7.83 46.01 12.41
3/8/2021 7:15:00 AM 4.63 40.334 0.444 7.83 47.98 12.44
3/8/2021 7:30:00 AM 4.58 40.244 0.444 7.83 44.17 12.47
3/8/2021 7:45:00 AM 4.54 40.172 0.446 7.84 42.9 12.49
3/8/2021 8:00:00 AM 4.51 40.118 0.447 7.84 44.12 12.53
3/8/2021 8:15:00 AM 4.48 40.064 0.449 7.84 44.94 12.56
3/8/2021 8:30:00 AM 4.46 40.028 0.448 7.84 44.89 12.59
3/8/2021 8:45:00 AM 4.44 39.992 0.448 7.85 44.79 12.61
3/8/2021 9:00:00 AM 4.42 39.956 0.448 7.85 44.8 12.64
3/8/2021 9:15:00 AM 4.41 39.938 0.448 7.85 44.99 12.65
3/8/2021 9:30:00 AM 4.43 39.974 0.447 7.86 44.28 12.68
3/8/2021 9:45:00 AM 4.44 39.992 0.446 7.86 44.13 12.7
3/8/2021 10:00:00 AM 4.46 40.028 0.445 7.86 44.71 12.73
3/8/2021 10:15:00 AM 4.5 40.1 0.445 7.87 44 12.76
3/8/2021 10:30:00 AM 4.53 40.154 0.445 7.87 44.51 12.77
3/8/2021 10:45:00 AM 4.59 40.262 0.445 7.87 45.61 12.79
3/8/2021 11:00:00 AM 4.66 40.388 0.445 7.88 44.74 12.81
3/8/2021 11:15:00 AM 4.72 40.496 0.444 7.88 46.04 12.83
3/8/2021 11:30:00 AM 4.8 40.64 0.444 7.89 45.5 12.83
3/8/2021 11:45:00 AM 4.89 40.802 0.444 7.89 45.79 12.85
3/8/2021 12:00:00 PM 4.99 40.982 0.444 7.9 45.18 12.86
3/8/2021 12:15:00 PM 5.1 41.18 0.444 7.91 46.27 12.87
3/8/2021 12:30:00 PM 5.2 41.36 0.443 7.91 46.51 12.88
3/8/2021 12:45:00 PM 5.32 41.576 0.443 7.92 45.05 12.86
3/8/2021 1:00:00 PM 5.44 41.792 0.444 7.92 46.28 12.87
3/8/2021 1:15:00 PM 5.56 42.008 0.444 7.93 46.52 12.87
3/8/2021 1:30:00 PM 5.67 42.206 0.444 7.94 45.02 12.87
3/8/2021 1:45:00 PM 5.79 42.422 0.444 7.94 45.22 12.86
3/8/2021 2:00:00 PM 5.91 42.638 0.446 7.95 45.92 12.84
3/8/2021 2:15:00 PM 6.03 42.854 0.445 7.96 45.96 12.83
3/8/2021 2:30:00 PM 6.12 43.016 0.445 7.96 46.18 12.82
3/8/2021 2:45:00 PM 6.21 43.178 0.444 7.97 45.87 12.79
3/8/2021 3:00:00 PM 6.29 43.322 0.443 7.96 43.42 12.78
3/8/2021 3:15:00 PM 6.36 43.448 0.442 7.97 45.93 12.76
3/8/2021 3:30:00 PM 6.42 43.556 0.441 7.98 44.19 12.74
3/8/2021 3:45:00 PM 6.47 43.646 0.44 7.98 45.11 12.72
3/8/2021 4:00:00 PM 6.52 43.736 0.44 7.99 42.05 12.7
3/8/2021 4:15:00 PM 6.56 43.808 0.44 7.99 44.11 12.68
3/8/2021 4:30:00 PM 6.59 43.862 0.44 7.99 44.62 12.66
3/8/2021 4:45:00 PM 6.6 43.88 0.44 7.99 45.81 12.63
3/8/2021 5:00:00 PM 6.63 43.934 0.44 7.99 42.98 12.59
3/8/2021 5:15:00 PM 6.64 43.952 0.44 7.99 42.16 12.58
3/8/2021 5:30:00 PM 6.66 43.988 0.44 7.99 42.69 12.56
3/8/2021 5:45:00 PM 6.68 44.024 0.439 7.99 41.89 12.5
3/8/2021 6:00:00 PM 6.69 44.042 0.439 7.99 42.15 12.48
3/8/2021 6:15:00 PM 6.69 44.042 0.438 7.99 43.17 12.48
3/8/2021 6:30:00 PM 6.69 44.042 0.438 7.99 42.2 12.47
3/8/2021 6:45:00 PM 6.69 44.042 0.438 7.98 41.86 12.45
3/8/2021 7:00:00 PM 6.69 44.042 0.438 7.98 41.24 12.42
3/8/2021 7:15:00 PM 6.68 44.024 0.438 7.98 41.98 12.4
3/8/2021 7:30:00 PM 6.67 44.006 0.438 7.97 46.27 12.39
3/8/2021 7:45:00 PM 6.66 43.988 0.438 7.97 47.84 12.37
3/8/2021 8:00:00 PM 6.64 43.952 0.438 7.96 43.91 12.34
3/8/2021 8:15:00 PM 6.61 43.898 0.439 7.96 47.27 12.33
3/8/2021 8:30:00 PM 6.59 43.862 0.439 7.95 45.79 12.29
3/8/2021 8:45:00 PM 6.57 43.826 0.44 7.94 46.39 12.26
3/8/2021 9:00:00 PM 6.54 43.772 0.44 7.94 46.88 12.25
3/8/2021 9:15:00 PM 6.51 43.718 0.441 7.93 49.1 12.24
3/8/2021 9:30:00 PM 6.48 43.664 0.441 7.93 49.96 12.21
3/8/2021 9:45:00 PM 6.45 43.61 0.442 7.92 47.32 12.19
3/8/2021 10:00:00 PM 6.42 43.556 0.442 7.91 49.86 12.18
3/8/2021 10:15:00 PM 6.38 43.484 0.442 7.91 47.08 12.18
3/8/2021 10:30:00 PM 6.35 43.43 0.442 7.9 50.55 12.16
3/8/2021 10:45:00 PM 6.32 43.376 0.442 7.9 48.59 12.15
3/8/2021 11:00:00 PM 6.28 43.304 0.441 7.9 48.05 12.15
3/8/2021 11:15:00 PM 6.25 43.25 0.441 7.89 47.72 12.15
3/8/2021 11:30:00 PM 6.21 43.178 0.441 7.89 44.52 12.14
3/8/2021 11:45:00 PM 6.18 43.124 0.441 7.89 49.7 12.15
3/9/2021 12:00:00 AM 6.15 43.07 0.443 7.88 50.61 12.14
3/9/2021 12:15:00 AM 6.13 43.034 0.444 7.88 48.91 12.13
3/9/2021 12:30:00 AM 6.1 42.98 0.446 7.88 47.53 12.13
3/9/2021 12:45:00 AM 6.08 42.944 0.448 7.87 47.2 12.13
3/9/2021 1:00:00 AM 6.06 42.908 0.45 7.87 48.08 12.11
3/9/2021 1:15:00 AM 6.05 42.89 0.451 7.87 48.11 12.11
3/9/2021 1:30:00 AM 6.03 42.854 0.452 7.87 47.46 12.1
3/9/2021 1:45:00 AM 6.01 42.818 0.452 7.86 47.68 12.1
3/9/2021 2:00:00 AM 6 42.8 0.452 7.86 47.71 12.09
3/9/2021 2:15:00 AM 5.99 42.782 0.451 7.86 46.96 12.09
3/9/2021 2:30:00 AM 5.97 42.746 0.451 7.86 47.31 12.09
3/9/2021 2:45:00 AM 5.96 42.728 0.451 7.86 46.68 12.09
3/9/2021 3:00:00 AM 5.94 42.692 0.45 7.85 47.44 12.08
3/9/2021 3:15:00 AM 5.93 42.674 0.45 7.85 45.75 12.08
3/9/2021 3:30:00 AM 5.91 42.638 0.45 7.85 47.59 12.09
3/9/2021 3:45:00 AM 5.9 42.62 0.449 7.85 47.55 12.08
3/9/2021 4:00:00 AM 5.89 42.602 0.449 7.85 47.47 12.08
3/9/2021 4:15:00 AM 5.87 42.566 0.448 7.85 46.79 12.1
3/9/2021 4:30:00 AM 5.86 42.548 0.448 7.85 47.87 12.09
3/9/2021 4:45:00 AM 5.84 42.512 0.447 7.84 45.64 12.1
3/9/2021 5:00:00 AM 5.83 42.494 0.447 7.84 42.54 12.11
3/9/2021 5:15:00 AM 5.81 42.458 0.447 7.84 49.23 12.11
3/9/2021 5:30:00 AM 5.79 42.422 0.447 7.84 47.86 12.13
3/9/2021 5:45:00 AM 5.77 42.386 0.448 7.84 46.85 12.12
3/9/2021 6:00:00 AM 5.76 42.368 0.448 7.84 46.43 12.13
3/9/2021 6:15:00 AM 5.74 42.332 0.449 7.84 47.24 12.14
3/9/2021 6:30:00 AM 5.71 42.278 0.449 7.84 45.98 12.14
3/9/2021 6:45:00 AM 5.69 42.242 0.449 7.84 46.72 12.18
3/9/2021 7:00:00 AM 5.67 42.206 0.45 7.84 44.42 12.19
3/9/2021 7:15:00 AM 5.65 42.17 0.448 7.84 47.35 12.21
3/9/2021 7:30:00 AM 5.64 42.152 0.448 7.83 46.64 12.23
3/9/2021 7:45:00 AM 5.63 42.134 0.447 7.84 47.16 12.27
3/9/2021 8:00:00 AM 5.63 42.134 0.446 7.84 46.7 12.3
3/9/2021 8:15:00 AM 5.63 42.134 0.445 7.84 47.44 12.34
3/9/2021 8:30:00 AM 5.64 42.152 0.445 7.84 46 12.36
3/9/2021 8:45:00 AM 5.65 42.17 0.446 7.84 48.04 12.43
3/9/2021 9:00:00 AM 5.68 42.224 0.446 7.85 48.53 12.5
3/9/2021 9:15:00 AM 5.7 42.26 0.447 7.85 47.96 12.53
3/9/2021 9:30:00 AM 5.74 42.332 0.448 7.85 48.84 12.57
3/9/2021 9:45:00 AM 5.77 42.386 0.447 7.86 46.56 12.6
3/9/2021 10:00:00 AM 5.82 42.476 0.447 7.86 45.62 12.63
3/9/2021 10:15:00 AM 5.86 42.548 0.447 7.87 44.3 12.66
3/9/2021 10:30:00 AM 5.93 42.674 0.447 7.87 46.29 12.69
3/9/2021 10:45:00 AM 6 42.8 0.447 7.88 48.37 12.73
3/9/2021 11:00:00 AM 6.08 42.944 0.447 7.88 48.2 12.75
3/9/2021 11:15:00 AM 6.17 43.106 0.448 7.89 47.72 12.77
3/9/2021 11:30:00 AM 6.27 43.286 0.448 7.9 48.23 12.8
3/9/2021 11:45:00 AM 6.38 43.484 0.448 7.9 45.6 12.81
3/9/2021 12:00:00 PM 6.49 43.682 0.448 7.91 46.84 12.82
3/9/2021 12:15:00 PM 6.6 43.88 0.448 7.92 48.62 12.84
3/9/2021 12:30:00 PM 6.73 44.114 0.448 7.93 47.45 12.84
3/9/2021 12:45:00 PM 6.87 44.366 0.447 7.93 47.28 12.85
3/9/2021 1:00:00 PM 7 44.6 0.446 7.94 48.5 12.86
3/9/2021 1:15:00 PM 7.12 44.816 0.446 7.95 48.25 12.85
3/9/2021 1:30:00 PM 7.24 45.032 0.445 7.96 46.08 12.84
3/9/2021 1:45:00 PM 7.36 45.248 0.445 7.97 48 12.84
3/9/2021 2:00:00 PM 7.46 45.428 0.446 7.97 46.85 12.83
3/9/2021 2:15:00 PM 7.57 45.626 0.446 7.98 47.67 12.83
3/9/2021 2:30:00 PM 7.67 45.806 0.446 7.99 46.92 12.83
3/9/2021 2:45:00 PM 7.76 45.968 0.449 7.99 49.92 12.82
3/9/2021 3:00:00 PM 7.86 46.148 0.447 8 48 12.8
3/9/2021 3:15:00 PM 7.95 46.31 0.447 8.01 48.19 12.8
3/9/2021 3:30:00 PM 8.04 46.472 0.446 8.01 47.19 12.78
3/9/2021 3:45:00 PM 8.13 46.634 0.445 8.02 46.12 12.77
3/9/2021 4:00:00 PM 8.2 46.76 0.444 8.02 48.27 12.74
3/9/2021 4:15:00 PM 8.27 46.886 0.443 8.03 46.02 12.72
3/9/2021 4:30:00 PM 8.34 47.012 0.443 8.03 46.45 12.69
3/9/2021 4:45:00 PM 8.39 47.102 0.443 8.03 45.52 12.65
3/9/2021 5:00:00 PM 8.43 47.174 0.443 8.03 45.95 12.63
3/9/2021 5:15:00 PM 8.47 47.246 0.443 8.03 45.48 12.59
3/9/2021 5:30:00 PM 8.5 47.3 0.443 8.03 47.07 12.56
3/9/2021 5:45:00 PM 8.52 47.336 0.443 8.03 46.37 12.52
3/9/2021 6:00:00 PM 8.54 47.372 0.443 8.03 45.7 12.49
3/9/2021 6:15:00 PM 8.55 47.39 0.442 8.02 46.88 12.46
3/9/2021 6:30:00 PM 8.56 47.408 0.442 8.02 46.66 12.43
3/9/2021 6:45:00 PM 8.57 47.426 0.441 8.02 46.24 12.4
3/9/2021 7:00:00 PM 8.58 47.444 0.441 8.01 45.88 12.38
3/9/2021 7:15:00 PM 8.58 47.444 0.441 8.01 46.08 12.35
3/9/2021 7:30:00 PM 8.58 47.444 0.441 8 46.42 12.33
3/9/2021 7:45:00 PM 8.57 47.426 0.441 8 46.14 12.3
3/9/2021 8:00:00 PM 8.56 47.408 0.441 7.99 45.72 12.28
3/9/2021 8:15:00 PM 8.54 47.372 0.44 7.99 45.79 12.25
3/9/2021 8:30:00 PM 8.51 47.318 0.44 7.98 46.6 12.22
3/9/2021 8:45:00 PM 8.49 47.282 0.439 7.97 45.68 12.19
3/9/2021 9:00:00 PM 8.45 47.21 0.438 7.97 46.95 12.17
3/9/2021 9:15:00 PM 8.41 47.138 0.438 7.96 46.13 12.15
3/9/2021 9:30:00 PM 8.38 47.084 0.438 7.95 46.75 12.12
3/9/2021 9:45:00 PM 8.34 47.012 0.438 7.94 45.97 12.11
3/9/2021 10:00:00 PM 8.3 46.94 0.439 7.94 47.4 12.09
3/9/2021 10:15:00 PM 8.27 46.886 0.44 7.93 48.31 12.07
3/9/2021 10:30:00 PM 8.23 46.814 0.44 7.92 48.66 12.06
3/9/2021 10:45:00 PM 8.2 46.76 0.441 7.92 48.53 12.04
3/9/2021 11:00:00 PM 8.17 46.706 0.442 7.91 48.55 12.03
3/9/2021 11:15:00 PM 8.13 46.634 0.443 7.91 47.28 12.02
3/9/2021 11:30:00 PM 8.1 46.58 0.443 7.91 47.75 12.02
3/9/2021 11:45:00 PM 8.06 46.508 0.443 7.9 47.8 12.01
3/10/2021 12:00:00 AM 8.02 46.436 0.444 7.9 47.8 12.02
3/10/2021 12:15:00 AM 7.99 46.382 0.445 7.89 48.4 12.02
3/10/2021 12:30:00 AM 7.95 46.31 0.446 7.89 47.28 12.01
3/10/2021 12:45:00 AM 7.92 46.256 0.447 7.89 47.59 12.01
3/10/2021 1:00:00 AM 7.89 46.202 0.449 7.88 47.56 12
3/10/2021 1:15:00 AM 7.86 46.148 0.45 7.88 48.14 11.99
3/10/2021 1:30:00 AM 7.82 46.076 0.452 7.88 49.27 12
3/10/2021 1:45:00 AM 7.8 46.04 0.453 7.87 47.88 11.99
3/10/2021 2:00:00 AM 7.77 45.986 0.454 7.87 46.72 11.99
3/10/2021 2:15:00 AM 7.74 45.932 0.455 7.87 49.04 12
3/10/2021 2:30:00 AM 7.71 45.878 0.455 7.87 48.9 12
3/10/2021 2:45:00 AM 7.69 45.842 0.455 7.86 47.75 11.98
3/10/2021 3:00:00 AM 7.66 45.788 0.455 7.86 48.75 12.01
3/10/2021 3:15:00 AM 7.63 45.734 0.455 7.86 48.5 12.01
3/10/2021 3:30:00 AM 7.61 45.698 0.455 7.86 47.5 12
3/10/2021 3:45:00 AM 7.58 45.644 0.455 7.86 48.58 12.01
3/10/2021 4:00:00 AM 7.55 45.59 0.455 7.86 46.87 12.02
3/10/2021 4:15:00 AM 7.52 45.536 0.455 7.85 49.81 12.03
3/10/2021 4:30:00 AM 7.49 45.482 0.454 7.85 49.48 12.03
3/10/2021 4:45:00 AM 7.46 45.428 0.454 7.85 47.23 12.04
3/10/2021 5:00:00 AM 7.43 45.374 0.453 7.85 48.8 12.03
3/10/2021 5:15:00 AM 7.4 45.32 0.452 7.85 48.79 12.04
3/10/2021 5:30:00 AM 7.36 45.248 0.45 7.84 48.58 12.05
3/10/2021 5:45:00 AM 7.33 45.194 0.449 7.84 51.02 12.06
3/10/2021 6:00:00 AM 7.29 45.122 0.449 7.84 48.74 12.06
3/10/2021 6:15:00 AM 7.25 45.05 0.448 7.84 49.39 12.07
3/10/2021 6:30:00 AM 7.21 44.978 0.449 7.84 48.04 12.08
3/10/2021 6:45:00 AM 7.18 44.924 0.449 7.84 49.28 12.1
3/10/2021 7:00:00 AM 7.15 44.87 0.45 7.84 49.39 12.11
3/10/2021 7:15:00 AM 7.12 44.816 0.45 7.84 49.75 12.15
3/10/2021 7:30:00 AM 7.09 44.762 0.45 7.84 47.88 12.16
3/10/2021 7:45:00 AM 7.06 44.708 0.45 7.84 46.79 12.19
3/10/2021 8:00:00 AM 7.04 44.672 0.449 7.84 47.57 12.22
3/10/2021 8:15:00 AM 7.03 44.654 0.449 7.84 52.1 12.25
3/10/2021 8:30:00 AM 7.02 44.636 0.449 7.85 49.29 12.29
3/10/2021 8:45:00 AM 7.02 44.636 0.449 7.85 49.69 12.32
3/10/2021 9:00:00 AM 7.03 44.654 0.449 7.86 49.35 12.35
3/10/2021 9:15:00 AM 7.03 44.654 0.45 7.86 47.48 12.37
3/10/2021 9:30:00 AM 7.05 44.69 0.45 7.86 48.27 12.4
3/10/2021 9:45:00 AM 7.07 44.726 0.45 7.87 49.15 12.42
3/10/2021 10:00:00 AM 7.1 44.78 0.449 7.87 49.91 12.45
3/10/2021 10:15:00 AM 7.14 44.852 0.449 7.88 49.41 12.48
3/10/2021 10:30:00 AM 7.19 44.942 0.448 7.88 46.5 12.5
3/10/2021 10:45:00 AM 7.24 45.032 0.448 7.89 50.53 12.53
3/10/2021 11:00:00 AM 7.31 45.158 0.447 7.89 48.88 12.56
3/10/2021 11:15:00 AM 7.39 45.302 0.447 7.9 48.14 12.58
3/10/2021 11:30:00 AM 7.48 45.464 0.447 7.91 45.9 12.6
3/10/2021 11:45:00 AM 7.59 45.662 0.448 7.91 49.43 12.62
3/10/2021 12:00:00 PM 7.7 45.86 0.448 7.92 48.1 12.64
3/10/2021 12:15:00 PM 7.81 46.058 0.448 7.93 48.77 12.65
3/10/2021 12:30:00 PM 7.93 46.274 0.448 7.94 51.32 12.66
3/10/2021 12:45:00 PM 8.06 46.508 0.447 7.95 51.18 12.68
3/10/2021 1:00:00 PM 8.2 46.76 0.447 7.96 47.74 12.68
3/10/2021 1:15:00 PM 8.34 47.012 0.446 7.97 62.01 12.69
3/10/2021 1:30:00 PM 8.47 47.246 0.445 7.98 48.94 12.68
3/10/2021 1:45:00 PM 8.61 47.498 0.444 7.99 50.95 12.68
3/10/2021 2:00:00 PM 8.74 47.732 0.443 8 50.67 12.68
3/10/2021 2:15:00 PM 8.86 47.948 0.443 8.01 50.35 12.66
3/10/2021 2:30:00 PM 8.99 48.182 0.443 8.01 47.88 12.63
3/10/2021 2:45:00 PM 9.11 48.398 0.443 8.02 48.11 12.64
3/10/2021 3:00:00 PM 9.22 48.596 0.443 8.03 54.68 12.61
3/10/2021 3:15:00 PM 9.31 48.758 0.442 8.04 53.02 12.63
3/10/2021 3:30:00 PM 9.4 48.92 0.442 8.05 49.58 12.61
3/10/2021 3:45:00 PM 9.48 49.064 0.442 8.05 48.08 12.58
3/10/2021 4:00:00 PM 9.55 49.19 0.441 8.06 50.33 12.56
3/10/2021 4:15:00 PM 9.61 49.298 0.441 8.06 43.72 12.52
3/10/2021 4:30:00 PM 9.66 49.388 0.441 8.06 53.55 12.49
3/10/2021 4:45:00 PM 9.69 49.442 0.44 8.07 40.68 12.46
3/10/2021 5:00:00 PM 9.72 49.496 0.44 8.07 43.32 12.42
3/10/2021 5:15:00 PM 9.73 49.514 0.44 8.07 44.59 12.39
3/10/2021 5:30:00 PM 9.76 49.568 0.44 8.06 36.9 12.35
3/10/2021 5:45:00 PM 9.78 49.604 0.439 8.06 52.86 12.32
3/10/2021 6:00:00 PM 9.8 49.64 0.438 8.06 54.66 12.28
3/10/2021 6:15:00 PM 9.82 49.676 0.437 8.06 55.07 12.25
3/10/2021 6:30:00 PM 9.83 49.694 0.436 8.05 36.98 12.22
3/10/2021 6:45:00 PM 9.84 49.712 0.435 8.05 42.86 12.19
3/10/2021 7:00:00 PM 9.85 49.73 0.434 8.04 30.2 12.14
3/10/2021 7:15:00 PM 9.85 49.73 0.432 8.04 46.02 12.13
3/10/2021 7:30:00 PM 9.85 49.73 0.432 8.03 33.45 12.09
3/10/2021 7:45:00 PM 9.84 49.712 0.432 8.03 33.56 12.07
3/10/2021 8:00:00 PM 9.83 49.694 0.433 8.02 36.54 12.04
3/10/2021 8:15:00 PM 9.81 49.658 0.433 8.01 34.33 12
3/10/2021 8:30:00 PM 9.79 49.622 0.433 8 33.74 11.97
3/10/2021 8:45:00 PM 9.77 49.586 0.434 8 38.99 11.94
3/10/2021 9:00:00 PM 9.74 49.532 0.434 7.99 36.23 11.91
3/10/2021 9:15:00 PM 9.71 49.478 0.434 7.98 35.08 11.87
3/10/2021 9:30:00 PM 9.68 49.424 0.434 7.97 38 11.84
3/10/2021 9:45:00 PM 9.65 49.37 0.434 7.97 35.54 11.82
3/10/2021 10:00:00 PM 9.62 49.316 0.434 7.96 37.21 11.79
3/10/2021 10:15:00 PM 9.59 49.262 0.435 7.95 37.99 11.77
3/10/2021 10:30:00 PM 9.56 49.208 0.435 7.95 32.49 11.75
3/10/2021 10:45:00 PM 9.53 49.154 0.436 7.94 38.86 11.73
3/10/2021 11:00:00 PM 9.5 49.1 0.435 7.93 38.64 11.71
3/10/2021 11:15:00 PM 9.47 49.046 0.436 7.93 38.55 11.71
3/10/2021 11:30:00 PM 9.43 48.974 0.436 7.92 37.51 11.69
3/10/2021 11:45:00 PM 9.4 48.92 0.436 7.92 38.54 11.68
3/11/2021 12:00:00 AM 9.37 48.866 0.436 7.91 40.03 11.67
3/11/2021 12:15:00 AM 9.34 48.812 0.436 7.91 36.94 11.67
3/11/2021 12:30:00 AM 9.31 48.758 0.436 7.91 39.75 11.66
3/11/2021 12:45:00 AM 9.28 48.704 0.437 7.9 31.43 11.65
3/11/2021 1:00:00 AM 9.25 48.65 0.439 7.9 37.33 11.64
3/11/2021 1:15:00 AM 9.22 48.596 0.439 7.9 28.31 11.64
3/11/2021 1:30:00 AM 9.19 48.542 0.44 7.89 45.22 11.62
3/11/2021 1:45:00 AM 9.16 48.488 0.442 7.89 38.89 11.6
3/11/2021 2:00:00 AM 9.13 48.434 0.444 7.88 39.1 11.6
3/11/2021 2:15:00 AM 9.11 48.398 0.444 7.88 18.19 11.59
3/11/2021 2:30:00 AM 9.08 48.344 0.445 7.88 18.22 11.55
3/11/2021 2:45:00 AM 9.05 48.29 0.445 7.87 18.37 11.58
3/11/2021 3:00:00 AM 9.03 48.254 0.446 7.87 16.99 11.59
3/11/2021 3:15:00 AM 9 48.2 0.446 7.87 16.22 11.6
3/11/2021 3:30:00 AM 8.97 48.146 0.444 7.87 16.44 11.57
3/11/2021 3:45:00 AM 8.95 48.11 0.444 7.87 18.27 11.6
3/11/2021 4:00:00 AM 8.92 48.056 0.444 7.86 21.43 11.61
3/11/2021 4:15:00 AM 8.89 48.002 0.445 7.86 22.43 11.59
3/11/2021 4:30:00 AM 8.87 47.966 0.445 7.86 23.49 11.58
3/11/2021 4:45:00 AM 8.84 47.912 0.446 7.85 23.52 11.6
3/11/2021 5:00:00 AM 8.81 47.858 0.446 7.85 23.1 11.61
3/11/2021 5:15:00 AM 8.78 47.804 0.446 7.85 23.49 11.6
3/11/2021 5:30:00 AM 8.75 47.75 0.446 7.85 22.97 11.6
3/11/2021 5:45:00 AM 8.72 47.696 0.446 7.85 23.24 11.62
3/11/2021 6:00:00 AM 8.68 47.624 0.445 7.85 22.46 11.62
3/11/2021 6:15:00 AM 8.65 47.57 0.445 7.85 23.53 11.63
3/11/2021 6:30:00 AM 8.62 47.516 0.443 7.85 23.1 11.6
3/11/2021 6:45:00 AM 8.6 47.48 0.445 7.85 23.54 11.64
3/11/2021 7:00:00 AM 8.57 47.426 0.446 7.85 26.33 11.66
3/11/2021 7:15:00 AM 8.55 47.39 0.412 7.85 23.11 11.64
3/11/2021 7:30:00 AM 8.53 47.354 0.438 7.85 21.83 11.67
3/11/2021 7:45:00 AM 8.49 47.282 0.447 7.85 16.07 11.68
3/11/2021 8:00:00 AM 8.48 47.264 0.447 7.85 42.16 11.7
3/11/2021 8:15:00 AM 8.48 47.264 0.447 7.85 22.11 11.7
3/11/2021 8:30:00 AM 8.47 47.246 0.447 7.86 29.85 11.81
3/11/2021 8:45:00 AM 8.47 47.246 0.446 7.85 43.07 11.79
3/11/2021 9:00:00 AM 8.46 47.228 0.442 7.84 33.69 11.73
3/11/2021 9:15:00 AM 8.48 47.264 0.446 7.84 31.21 11.85
3/11/2021 9:30:00 AM 8.51 47.318 0.446 7.84 29.35 11.83
3/11/2021 9:45:00 AM 8.55 47.39 0.447 7.83 40.83 11.86
3/11/2021 10:00:00 AM 8.58 47.444 0.447 7.83 28.41 11.95
3/11/2021 10:15:00 AM 8.62 47.516 0.448 7.84 31.53 12.01
3/11/2021 10:30:00 AM 8.67 47.606 0.448 7.84 31.66 12.04
3/11/2021 10:45:00 AM 8.72 47.696 0.448 7.84 28.2 12.06
3/11/2021 11:00:00 AM 8.77 47.786 0.447 7.85 42.2 12.1
3/11/2021 11:15:00 AM 8.84 47.912 0.446 7.86 36.82 12.11
3/11/2021 11:30:00 AM 8.93 48.074 0.445 7.87 13.29 12.13
3/11/2021 11:45:00 AM 9.03 48.254 0.444 7.86 13.15 12.09
3/11/2021 12:00:00 PM 9.14 48.452 0.443 7.86 12.67 12.11
3/11/2021 12:15:00 PM 9.26 48.668 0.444 7.87 7.89 12.21
3/11/2021 12:30:00 PM 9.38 48.884 0.443 7.87 8.77 12.22
3/11/2021 12:45:00 PM 9.5 49.1 0.443 7.87 8.19 12.27
3/11/2021 1:00:00 PM 9.63 49.334 0.443 7.9 7.94 12.3
3/11/2021 1:15:00 PM 9.74 49.532 0.444 7.88 7.31 12.29
3/11/2021 1:30:00 PM 9.9 49.82 0.444 7.91 121.15 12.32
3/11/2021 1:45:00 PM 10.04 50.072 0.444 7.95 9.23 12.32
3/11/2021 2:00:00 PM 10.19 50.342 0.444 7.96 6.69 12.32
3/11/2021 2:15:00 PM 10.31 50.558 0.444 7.99 6.75 12.29
3/11/2021 2:30:00 PM 10.45 50.81 0.444 7.99 9.51 12.32
3/11/2021 2:45:00 PM 10.58 51.044 0.444 8.01 5.61 12.31
3/11/2021 3:00:00 PM 10.71 51.278 0.444 8.01 5.94 12.29
3/11/2021 3:15:00 PM 10.8 51.44 0.444 8.02 6.18 12.25
3/11/2021 3:30:00 PM 10.89 51.602 0.444 8.02 6.46 12.26
3/11/2021 3:45:00 PM 10.98 51.764 0.444 8.03 5.82 12.23
3/11/2021 4:00:00 PM 11.07 51.926 0.443 8.04 6.48 12.22
3/11/2021 4:15:00 PM 11.13 52.034 0.442 8.03 6.81 12.17
3/11/2021 4:30:00 PM 11.17 52.106 0.441 8.03 6.44 12.17
3/11/2021 4:45:00 PM 11.21 52.178 0.44 8.03 6.05 12.09
3/11/2021 5:00:00 PM 11.26 52.268 0.439 8.04 5.87 11.99
3/11/2021 5:15:00 PM 11.3 52.34 0.438 8.03 6.14 12
3/11/2021 5:30:00 PM 11.33 52.394 0.438 8.02 5.84 11.99
3/11/2021 5:45:00 PM 11.36 52.448 0.438 8.01 5.82 11.94
3/11/2021 6:00:00 PM 11.39 52.502 0.437 8.02 6.02 11.92
3/11/2021 6:15:00 PM 11.43 52.574 0.438 8.03 5.9 11.9
3/11/2021 6:30:00 PM 11.46 52.628 0.438 8.03 5.84 11.86
3/11/2021 6:45:00 PM 11.49 52.682 0.439 8.03 5.74 11.81
3/11/2021 7:00:00 PM 11.51 52.718 0.438 7.98 6.19 11.8
3/11/2021 7:15:00 PM 11.52 52.736 0.437 8.02 5.94 11.75
3/11/2021 7:30:00 PM 11.53 52.754 0.437 8.01 5.99 11.66
3/11/2021 7:45:00 PM 11.53 52.754 0.436 8.01 6.37 11.63
3/11/2021 8:00:00 PM 11.52 52.736 0.436 8 6.12 11.62
3/11/2021 8:15:00 PM 11.5 52.7 0.435 8 6.41 11.59
3/11/2021 8:30:00 PM 11.48 52.664 0.435 7.97 6.14 11.52
3/11/2021 8:45:00 PM 11.46 52.628 0.434 7.97 8.24 11.47
3/11/2021 9:00:00 PM 11.44 52.592 0.434 7.96 6.3 11.38
3/11/2021 9:15:00 PM 11.4 52.52 0.434 7.94 6.67 11.38
3/11/2021 9:30:00 PM 11.37 52.466 0.433 7.93 6.75 11.4
3/11/2021 9:45:00 PM 11.34 52.412 0.433 7.92 6.76 11.3
3/11/2021 10:00:00 PM 11.31 52.358 0.433 7.92 6.54 11.26
3/11/2021 10:15:00 PM 11.28 52.304 0.432 7.92 7 11.32
3/11/2021 10:30:00 PM 11.25 52.25 0.432 7.92 6.65 11.31
3/11/2021 10:45:00 PM 11.22 52.196 0.432 7.92 6.5 11.3
3/11/2021 11:00:00 PM 11.18 52.124 0.433 7.91 6.3 11.26
3/11/2021 11:15:00 PM 11.15 52.07 0.433 7.9 6.71 11.22
3/11/2021 11:30:00 PM 11.11 51.998 0.433 7.89 6.49 11.23
3/11/2021 11:45:00 PM 11.07 51.926 0.433 7.89 7.1 11.24
3/12/2021 12:00:00 AM 11.03 51.854 0.433 7.88 12.62 11.21
3/12/2021 12:15:00 AM 10.99 51.782 0.434 7.85 6.44 11.21
3/12/2021 12:30:00 AM 10.95 51.71 0.434 7.85 6.31 11.19
3/12/2021 12:45:00 AM 10.92 51.656 0.435 7.85 8.61 11.17
3/12/2021 1:00:00 AM 10.89 51.602 0.436 7.86 6.42 11.19
3/12/2021 1:15:00 AM 10.87 51.566 0.437 7.86 6.22 11.14
3/12/2021 1:30:00 AM 10.84 51.512 0.439 7.86 6.04 11.18
3/12/2021 1:45:00 AM 10.83 51.494 0.44 7.89 6.65 11.16
3/12/2021 2:00:00 AM 10.81 51.458 0.442 7.89 240.58 11.14
3/12/2021 2:15:00 AM 10.79 51.422 0.444 7.89 6.57 11.17
3/12/2021 2:30:00 AM 10.77 51.386 0.445 7.88 6.18 11.14
3/12/2021 2:45:00 AM 10.76 51.368 0.446 7.88 6.61 11.15
3/12/2021 3:00:00 AM 10.74 51.332 0.446 7.88 6.92 11.14
3/12/2021 3:15:00 AM 10.73 51.314 0.446 7.88 6.92 11.14
3/12/2021 3:30:00 AM 10.71 51.278 0.447 7.87 7.51 11.1
3/12/2021 3:45:00 AM 10.7 51.26 0.447 7.87 237.99 11.13
3/12/2021 4:00:00 AM 10.69 51.242 0.447 7.87 6.65 11.14
3/12/2021 4:15:00 AM 10.68 51.224 0.446 7.86 7.08 11.12
3/12/2021 4:30:00 AM 10.68 51.224 0.446 7.86 6.59 11.12
3/12/2021 4:45:00 AM 10.68 51.224 0.447 7.86 6.58 11.13
3/12/2021 5:00:00 AM 10.68 51.224 0.447 7.86 7.06 10.93
3/12/2021 5:15:00 AM 10.69 51.242 0.447 7.85 8.81 11.08
3/12/2021 5:30:00 AM 10.7 51.26 0.448 7.85 8.81 11.06
3/12/2021 5:45:00 AM 10.7 51.26 0.448 7.85 8.31 11.05
3/12/2021 6:00:00 AM 10.71 51.278 0.449 7.85 6.13 11.1
3/12/2021 6:15:00 AM 10.71 51.278 0.449 7.85 7.06 11.09
3/12/2021 6:30:00 AM 10.72 51.296 0.45 7.85 6.39 11.05
3/12/2021 6:45:00 AM 10.73 51.314 0.45 7.85 6.81 11.09
3/12/2021 7:00:00 AM 10.72 51.296 0.45 7.85 6.22 11.09
3/12/2021 7:15:00 AM 10.73 51.314 0.451 7.85 6.25 11.1
3/12/2021 7:30:00 AM 10.73 51.314 0.451 7.85 6.73 11.13
3/12/2021 7:45:00 AM 10.75 51.35 0.451 7.85 6.11 11.18
3/12/2021 8:00:00 AM 10.74 51.332 0.451 7.85 6.34 11.12
3/12/2021 8:15:00 AM 10.74 51.332 0.452 7.86 6.1 11.1
3/12/2021 8:30:00 AM 10.75 51.35 0.452 7.85 58.96 11.16
3/12/2021 8:45:00 AM 10.75 51.35 0.452 7.86 5.97 11.13
3/12/2021 9:00:00 AM 10.77 51.386 0.451 7.86 6.71 11.2
3/12/2021 9:15:00 AM 10.77 51.386 0.45 7.86 6.37 11.2
3/12/2021 9:30:00 AM 10.79 51.422 0.45 7.86 90.66 11.27
3/12/2021 9:45:00 AM 10.81 51.458 0.45 7.87 53.38 11.31
3/12/2021 10:00:00 AM 10.82 51.476 0.449 7.87 23.94 11.29
3/12/2021 10:15:00 AM 10.88 51.584 0.449 7.88 7.63 11.39
3/12/2021 10:30:00 AM 10.97 51.746 0.45 7.89 7.51 11.44
3/12/2021 10:45:00 AM 11.04 51.872 0.45 7.9 7.45 11.45
3/12/2021 11:00:00 AM 11.03 51.854 0.451 7.9 7.05 11.44
3/12/2021 11:15:00 AM 11.12 52.016 0.451 7.91 6.93 11.53
3/12/2021 11:30:00 AM 11.19 52.142 0.452 7.92 13.01 11.52
3/12/2021 11:45:00 AM 11.25 52.25 0.452 7.93 9.08 11.56
3/12/2021 12:00:00 PM 11.34 52.412 0.451 7.95 7.48 11.58
3/12/2021 12:15:00 PM 11.41 52.538 0.451 7.96 12.09 11.63
3/12/2021 12:30:00 PM 11.49 52.682 0.45 7.97 11.47 11.59
3/12/2021 12:45:00 PM 11.58 52.844 0.45 7.98 94.87 11.66
3/12/2021 1:00:00 PM 11.68 53.024 0.45 7.99 86.69 11.68
3/12/2021 1:15:00 PM 11.78 53.204 0.449 8 89.6 11.71
3/12/2021 1:30:00 PM 11.86 53.348 0.448 8.01 98.59 11.72
3/12/2021 1:45:00 PM 11.97 53.546 0.448 8.03 99.24 11.78
3/12/2021 2:00:00 PM 12.05 53.69 0.448 8.05 111.13 11.81
3/12/2021 2:15:00 PM 12.15 53.87 0.447 8.06 114.98 11.83
3/12/2021 2:30:00 PM 12.25 54.05 0.446 8.08 118.74 11.86
3/12/2021 2:45:00 PM 12.34 54.212 0.446 8.09 87.76 11.82
3/12/2021 3:00:00 PM 12.38 54.284 0.446 8.1 42.05 11.84
3/12/2021 3:15:00 PM 12.45 54.41 0.446 8.12 261.54 11.89
3/12/2021 3:30:00 PM 12.53 54.554 0.446 8.13 2000.36 11.92
3/12/2021 3:45:00 PM 12.59 54.662 0.446 8.14 1054.38 11.89
3/12/2021 4:00:00 PM 12.63 54.734 0.447 8.15 147.65 11.89
3/12/2021 4:15:00 PM 12.66 54.788 0.448 8.16 1101.84 11.88
3/12/2021 4:30:00 PM 12.69 54.842 0.449 8.17 9.21 11.85
3/12/2021 4:45:00 PM 12.71 54.878 0.45 8.17 6.14 11.8
3/12/2021 5:00:00 PM 12.72 54.896 0.449 8.17 1367.91 11.78
3/12/2021 5:15:00 PM 12.71 54.878 0.449 8.17 8.34 11.76
3/12/2021 5:30:00 PM 12.7 54.86 0.449 8.17 5.67 11.71
3/12/2021 5:45:00 PM 12.69 54.842 0.446 8.17 6.41 11.65
3/12/2021 6:00:00 PM 12.68 54.824 0.446 8.17 6.37 11.68
3/12/2021 6:15:00 PM 12.66 54.788 0.446 8.16 5.91 11.66
3/12/2021 6:30:00 PM 12.64 54.752 0.444 8.16 6.68 11.63
3/12/2021 6:45:00 PM 12.62 54.716 0.443 8.15 6.36 11.61
3/12/2021 7:00:00 PM 12.6 54.68 0.443 8.15 6.54 11.54
3/12/2021 7:15:00 PM 12.58 54.644 0.442 8.14 28.91 11.54
3/12/2021 7:30:00 PM 12.55 54.59 0.443 8.14 8.89 11.51
3/12/2021 7:45:00 PM 12.52 54.536 0.442 8.13 10.04 11.44
3/12/2021 8:00:00 PM 12.49 54.482 0.442 8.13 6.45 11.48
3/12/2021 8:15:00 PM 12.45 54.41 0.442 8.11 8.63 11.44
3/12/2021 8:30:00 PM 12.4 54.32 0.441 8.11 6.21 11.42
3/12/2021 8:45:00 PM 12.35 54.23 0.441 8.1 7.65 11.41
3/12/2021 9:00:00 PM 12.31 54.158 0.441 8.1 6.77 11.36
3/12/2021 9:15:00 PM 12.26 54.068 0.441 8.09 6.42 11.32
3/12/2021 9:30:00 PM 12.19 53.942 0.441 8.08 8.46 11.31
3/12/2021 9:45:00 PM 12.12 53.816 0.441 8.07 8.61 11.3
3/12/2021 10:00:00 PM 12.05 53.69 0.442 8.06 6.56 11.29
3/12/2021 10:15:00 PM 11.97 53.546 0.442 8.05 7.34 11.26
3/12/2021 10:30:00 PM 11.91 53.438 0.442 8.04 7.24 11.25
3/12/2021 10:45:00 PM 11.85 53.33 0.442 8.03 7.46 11.22
3/12/2021 11:00:00 PM 11.79 53.222 0.443 8.02 9.83 11.22
3/12/2021 11:15:00 PM 11.71 53.078 0.443 8.01 7.55 11.21
3/12/2021 11:30:00 PM 11.64 52.952 0.444 8.01 347.76 11.18
3/12/2021 11:45:00 PM 11.58 52.844 0.444 8 7.13 11.18
3/13/2021 12:00:00 AM 11.49 52.682 0.445 7.99 6.6 11.17
3/13/2021 12:15:00 AM 11.42 52.556 0.446 7.99 7.45 11.17
3/13/2021 12:30:00 AM 11.35 52.43 0.447 7.98 119.31 11.18
3/13/2021 12:45:00 AM 11.27 52.286 0.447 7.98 6.32 11.18
3/13/2021 1:00:00 AM 11.19 52.142 0.447 7.98 6.06 11.18
3/13/2021 1:15:00 AM 11.11 51.998 0.447 7.97 6.79 11.18
3/13/2021 1:30:00 AM 11.03 51.854 0.448 7.97 6.29 11.19
3/13/2021 1:45:00 AM 10.93 51.674 0.448 7.96 6.3 11.2
3/13/2021 2:00:00 AM 10.85 51.53 0.448 7.96 6.21 11.2
3/13/2021 2:15:00 AM 10.77 51.386 0.448 7.96 6.14 11.22
3/13/2021 2:30:00 AM 10.69 51.242 0.449 7.96 15.01 11.24
3/13/2021 2:45:00 AM 10.62 51.116 0.45 7.96 75.95 11.24
3/13/2021 3:00:00 AM 10.56 51.008 0.452 7.95 56.8 11.26
3/13/2021 3:15:00 AM 10.5 50.9 0.453 7.95 5.95 11.25
3/13/2021 3:30:00 AM 10.43 50.774 0.454 7.94 6.26 11.27
3/13/2021 3:45:00 AM 10.37 50.666 0.456 7.94 6.8 11.27
3/13/2021 4:00:00 AM 10.29 50.522 0.457 7.94 6.17 11.28
3/13/2021 4:15:00 AM 10.23 50.414 0.459 7.94 53.13 11.29
3/13/2021 4:30:00 AM 10.15 50.27 0.46 7.94 11.46 11.31
3/13/2021 4:45:00 AM 10.08 50.144 0.461 7.94 7.19 11.32
3/13/2021 5:00:00 AM 10 50 0.461 7.93 6.74 11.35
3/13/2021 5:15:00 AM 9.93 49.874 0.462 7.93 6.25 11.36
3/13/2021 5:30:00 AM 9.85 49.73 0.462 7.93 6.54 11.38
3/13/2021 5:45:00 AM 9.79 49.622 0.461 7.93 6.3 11.39
3/13/2021 6:00:00 AM 9.71 49.478 0.46 7.93 284.35 11.39
3/13/2021 6:15:00 AM 9.63 49.334 0.46 7.92 9.62 11.43
3/13/2021 6:30:00 AM 9.55 49.19 0.459 7.92 9.77 11.46
3/13/2021 6:45:00 AM 9.48 49.064 0.459 7.92 5.76 11.49
3/13/2021 7:00:00 AM 9.41 48.938 0.459 7.92 413.36 11.49
3/13/2021 7:15:00 AM 9.35 48.83 0.458 7.92 115.26 11.53
3/13/2021 7:30:00 AM 9.28 48.704 0.457 7.92 6.27 11.58
3/13/2021 7:45:00 AM 9.23 48.614 0.456 7.93 59.21 11.62
3/13/2021 8:00:00 AM 9.17 48.506 0.456 7.93 32.02 11.67
3/13/2021 8:15:00 AM 9.12 48.416 0.456 7.93 8.48 11.73
3/13/2021 8:30:00 AM 9.08 48.344 0.456 7.93 8.04 11.77
3/13/2021 8:45:00 AM 9.03 48.254 0.458 7.94 34.25 11.78
3/13/2021 9:00:00 AM 9 48.2 0.458 7.94 104.88 11.85
3/13/2021 9:15:00 AM 8.96 48.128 0.46 7.95 92.43 11.89
3/13/2021 9:30:00 AM 8.93 48.074 0.461 7.95 92.79 11.94
3/13/2021 9:45:00 AM 8.91 48.038 0.461 7.95 91.94 11.98
3/13/2021 10:00:00 AM 8.91 48.038 0.463 7.96 11.42 12.02
3/13/2021 10:15:00 AM 8.91 48.038 0.462 7.96 12.24 12.03
3/13/2021 10:30:00 AM 8.91 48.038 0.464 7.97 7.19 12.09
3/13/2021 10:45:00 AM 8.92 48.056 0.463 7.97 30.78 12.12
3/13/2021 11:00:00 AM 8.93 48.074 0.463 7.98 7.28 12.16
3/13/2021 11:15:00 AM 8.95 48.11 0.463 7.98 38.35 12.21
3/13/2021 11:30:00 AM 8.99 48.182 0.462 7.99 19.2 12.23
3/13/2021 11:45:00 AM 9.03 48.254 0.462 8 5.94 12.29
3/13/2021 12:00:00 PM 9.08 48.344 0.461 8.01 8.11 12.35
3/13/2021 12:15:00 PM 9.14 48.452 0.461 8.02 3.85 12.38
3/13/2021 12:30:00 PM 9.21 48.578 0.46 8.03 6.87 12.43
3/13/2021 12:45:00 PM 9.29 48.722 0.459 8.05 10.13 12.46
3/13/2021 1:00:00 PM 9.37 48.866 0.458 8.06 9.88 12.49
3/13/2021 1:15:00 PM 9.46 49.028 0.457 8.07 5.39 12.52
3/13/2021 1:30:00 PM 9.54 49.172 0.457 8.08 5.08 12.53
3/13/2021 1:45:00 PM 9.63 49.334 0.457 8.09 8.31 12.58
3/13/2021 2:00:00 PM 9.72 49.496 0.457 8.11 9.16 12.6
3/13/2021 2:15:00 PM 9.81 49.658 0.457 8.12 11.3 12.6
3/13/2021 2:30:00 PM 9.89 49.802 0.457 8.13 6.51 12.64
3/13/2021 2:45:00 PM 9.97 49.946 0.458 8.15 10.15 12.58
3/13/2021 3:00:00 PM 10.05 50.09 0.459 8.16 278.26 12.65
3/13/2021 3:15:00 PM 10.12 50.216 0.459 8.17 107.1 12.63
3/13/2021 3:30:00 PM 10.18 50.324 0.459 8.18 7.03 12.64
3/13/2021 3:45:00 PM 10.23 50.414 0.459 8.18 7.12 12.63
3/13/2021 4:00:00 PM 10.28 50.504 0.459 8.19 7.21 12.62
3/13/2021 4:15:00 PM 10.32 50.576 0.458 8.2 7.26 12.6
3/13/2021 4:30:00 PM 10.35 50.63 0.457 8.2 7.11 12.61
3/13/2021 4:45:00 PM 10.36 50.648 0.457 8.21 52.98 12.59
3/13/2021 5:00:00 PM 10.35 50.63 0.457 8.21 23.06 12.57
3/13/2021 5:15:00 PM 10.35 50.63 0.457 8.21 16.32 12.53
3/13/2021 5:30:00 PM 10.34 50.612 0.457 8.2 17.46 12.48
3/13/2021 5:45:00 PM 10.34 50.612 0.456 8.2 15.39 12.48
3/13/2021 6:00:00 PM 10.32 50.576 0.456 8.2 14.41 12.46
3/13/2021 6:15:00 PM 10.31 50.558 0.456 8.19 15.72 12.4
3/13/2021 6:30:00 PM 10.3 50.54 0.455 8.19 15.56 12.38
3/13/2021 6:45:00 PM 10.29 50.522 0.455 8.18 15.47 12.37
3/13/2021 7:00:00 PM 10.28 50.504 0.455 8.18 14.47 12.36
3/13/2021 7:15:00 PM 10.26 50.468 0.453 8.17 21.09 12.34
3/13/2021 7:30:00 PM 10.23 50.414 0.453 8.17 17.78 12.32
3/13/2021 7:45:00 PM 10.21 50.378 0.453 8.16 17.95 12.28
3/13/2021 8:00:00 PM 10.18 50.324 0.453 8.16 53.79 12.23
3/13/2021 8:15:00 PM 10.15 50.27 0.452 8.15 38.49 12.23
3/13/2021 8:30:00 PM 10.11 50.198 0.452 8.14 13.72 12.21
3/13/2021 8:45:00 PM 10.07 50.126 0.452 8.13 11.03 12.15
3/13/2021 9:00:00 PM 10.02 50.036 0.452 8.13 24.49 12.17
3/13/2021 9:15:00 PM 9.97 49.946 0.451 8.12 32.93 12.11
3/13/2021 9:30:00 PM 9.91 49.838 0.452 8.11 68.24 12.1
3/13/2021 9:45:00 PM 9.85 49.73 0.451 8.1 38.48 12.07
3/13/2021 10:00:00 PM 9.78 49.604 0.451 8.08 43.32 12.04
3/13/2021 10:15:00 PM 9.7 49.46 0.451 8.07 43.9 12.01
3/13/2021 10:30:00 PM 9.63 49.334 0.451 8.06 13.36 11.99
3/13/2021 10:45:00 PM 9.56 49.208 0.451 8.06 12.75 11.97
3/13/2021 11:00:00 PM 9.48 49.064 0.451 8.04 12.3 11.94
3/13/2021 11:15:00 PM 9.41 48.938 0.452 8.04 75.65 11.93
3/13/2021 11:30:00 PM 9.33 48.794 0.452 8.03 24.22 11.94
3/13/2021 11:45:00 PM 9.25 48.65 0.451 8.02 26 11.92
3/14/2021 12:00:00 AM 9.18 48.524 0.451 8.01 18.23 11.91
3/14/2021 12:15:00 AM 9.1 48.38 0.45 8 43.98 11.86
3/14/2021 12:30:00 AM 9.04 48.272 0.45 8 39.07 11.84
3/14/2021 12:45:00 AM 8.98 48.164 0.449 7.99 24.01 11.85
3/14/2021 1:00:00 AM 8.92 48.056 0.449 7.99 45.79 11.8
3/14/2021 1:15:00 AM 8.85 47.93 0.45 7.99 35.58 11.9
3/14/2021 1:30:00 AM 8.79 47.822 0.45 7.98 19.03 11.89
3/14/2021 1:45:00 AM 8.72 47.696 0.446 7.98 326.36 11.89
3/14/2021 3:00:00 AM 8.44 47.192 0.406 7.96 59.44 11.81
3/14/2021 4:15:00 AM 8.39 47.102 0.409 7.96 52 11.89
3/14/2021 4:30:00 AM 8.34 47.012 0.388 7.96 16.29 11.87
3/14/2021 4:45:00 AM 8.3 46.94 0.387 7.95 14.81 11.88
3/14/2021 5:00:00 AM 8.25 46.85 0.38 7.95 13.55 11.89
3/14/2021 5:15:00 AM 8.2 46.76 0.376 7.95 12.38 11.89
3/14/2021 5:30:00 AM 8.15 46.67 0.376 7.94 20.77 11.87
3/14/2021 5:45:00 AM 8.1 46.58 0.377 7.94 22.64 11.87
3/14/2021 6:00:00 AM 8.06 46.508 0.377 7.94 22.12 11.88
3/14/2021 6:15:00 AM 8.02 46.436 0.377 7.93 22.61 11.9
3/14/2021 6:30:00 AM 7.99 46.382 0.378 7.93 19.17 11.89
3/14/2021 6:45:00 AM 7.95 46.31 0.378 7.93 19.74 11.89
3/14/2021 7:00:00 AM 7.91 46.238 0.379 7.93 24.12 11.92
3/14/2021 7:15:00 AM 7.88 46.184 0.379 7.93 20.99 11.9
3/14/2021 7:30:00 AM 7.84 46.112 0.377 7.93 53.64 11.91
3/14/2021 7:45:00 AM 7.81 46.058 0.381 7.92 24.07 11.92
3/14/2021 8:00:00 AM 7.78 46.004 0.382 7.92 65 11.93
3/14/2021 8:15:00 AM 7.74 45.932 0.361 7.93 33.32 12
3/14/2021 8:30:00 AM 7.72 45.896 0.365 7.93 26.17 12.04
3/14/2021 8:45:00 AM 7.7 45.86 0.467 7.93 248.46 12.08
3/14/2021 9:00:00 AM 7.68 45.824 0.457 7.93 39.52 12.1
3/14/2021 9:15:00 AM 7.68 45.824 0.457 7.93 13.48 12.15
3/14/2021 9:30:00 AM 7.68 45.824 0.457 7.94 13.9 12.15
3/14/2021 9:45:00 AM 7.68 45.824 0.457 7.94 16.75 12.2
3/14/2021 10:00:00 AM 7.69 45.842 0.457 7.94 24.32 12.2
3/14/2021 10:15:00 AM 7.71 45.878 0.456 7.95 26.77 12.25
3/14/2021 10:30:00 AM 7.75 45.95 0.455 7.95 25.39 12.24
3/14/2021 10:45:00 AM 7.73 45.914 0.395 7.95 12.01 12.28
3/14/2021 11:00:00 AM 7.7 45.86 0.352 7.95 10.33 12.3
3/14/2021 11:15:00 AM 7.78 46.004 0.344 7.96 25.11 12.35
3/14/2021 11:30:00 AM 7.83 46.094 0.347 7.96 11.85 12.38
3/14/2021 11:45:00 AM 7.86 46.148 0.354 7.97 12.02 12.42
3/14/2021 12:00:00 PM 7.93 46.274 0.354 7.97 11.25 12.45
3/14/2021 12:15:00 PM 7.98 46.364 0.456 7.98 143.82 12.46
3/14/2021 12:30:00 PM 8.03 46.454 0.449 7.99 550.01 12.47
3/14/2021 12:45:00 PM 8.11 46.598 0.448 7.99 327.99 12.52
3/14/2021 1:00:00 PM 8.19 46.742 0.448 8.01 38.3 12.54
3/14/2021 1:15:00 PM 8.29 46.922 0.416 8.02 120.03 12.57
3/14/2021 1:30:00 PM 8.37 47.066 0.419 8.03 51.8 12.59
3/14/2021 1:45:00 PM 8.5 47.3 0.419 8.04 75.75 12.63
3/14/2021 2:00:00 PM 8.6 47.48 0.418 8.05 632.76 12.65
3/14/2021 2:15:00 PM 8.71 47.678 0.366 8.07 42.05 12.69
3/14/2021 2:30:00 PM 8.81 47.858 0.364 8.08 117.46 12.7
3/14/2021 2:45:00 PM 8.92 48.056 0.363 8.1 120.02 12.73
3/14/2021 3:00:00 PM 9.02 48.236 0.33 8.11 48.42 12.75
3/14/2021 3:15:00 PM 9.14 48.452 0.328 8.12 215.72 12.77
3/14/2021 3:30:00 PM 9.24 48.632 0.346 8.13 126.25 12.79
3/14/2021 3:45:00 PM 9.33 48.794 0.327 8.14 141.59 12.76
3/14/2021 4:00:00 PM 9.42 48.956 0.321 8.16 59.56 12.81
3/14/2021 4:15:00 PM 9.5 49.1 0.323 8.16 34.07 12.81
3/14/2021 4:30:00 PM 9.56 49.208 0.32 8.18 49.22 12.81
3/14/2021 4:45:00 PM 9.62 49.316 0.32 8.19 125.84 12.77
3/14/2021 5:00:00 PM 9.67 49.406 0.32 8.19 95.54 12.77
3/14/2021 5:15:00 PM 9.7 49.46 0.318 8.2 138.43 12.76
3/14/2021 5:30:00 PM 9.72 49.496 0.326 8.2 83.18 12.74
3/14/2021 5:45:00 PM 9.75 49.55 0.326 8.21 35.07 12.73
3/14/2021 6:00:00 PM 9.74 49.532 0.325 8.22 39.06 12.71
3/14/2021 6:15:00 PM 9.72 49.496 0.329 8.22 36.46 12.68
3/14/2021 6:30:00 PM 9.72 49.496 0.327 8.22 30.3 12.64
3/14/2021 6:45:00 PM 9.7 49.46 0.33 8.22 40.85 12.63
3/14/2021 7:00:00 PM 9.68 49.424 0.33 8.22 34.34 12.6
3/14/2021 7:15:00 PM 9.65 49.37 0.329 8.22 34.94 12.58
3/14/2021 7:30:00 PM 9.63 49.334 0.33 8.21 31.76 12.53
3/14/2021 7:45:00 PM 9.6 49.28 0.33 8.21 38.7 12.53
3/14/2021 8:00:00 PM 9.58 49.244 0.329 8.21 31.84 12.51
3/14/2021 8:15:00 PM 9.55 49.19 0.33 8.21 32.35 12.49
3/14/2021 8:30:00 PM 9.53 49.154 0.336 8.21 30.03 12.46
3/14/2021 8:45:00 PM 9.49 49.082 0.335 8.2 26.61 12.44
3/14/2021 9:00:00 PM 9.46 49.028 0.335 8.2 29.51 12.44
3/14/2021 9:15:00 PM 9.42 48.956 0.339 8.19 33.43 12.4
3/14/2021 9:30:00 PM 9.37 48.866 0.338 8.18 33.37 12.38
3/14/2021 9:45:00 PM 9.33 48.794 0.338 8.18 46.25 12.36
3/14/2021 10:00:00 PM 9.28 48.704 0.338 8.17 41.42 12.38
3/14/2021 10:15:00 PM 9.22 48.596 0.341 8.16 41.27 12.36
3/14/2021 10:30:00 PM 9.15 48.47 0.33 8.15 32.71 12.33
3/14/2021 10:45:00 PM 9.07 48.326 0.326 8.15 40.69 12.31
3/14/2021 11:00:00 PM 9 48.2 0.328 8.14 322.87 12.3
3/14/2021 11:15:00 PM 8.92 48.056 0.327 8.13 101.54 12.27
3/14/2021 11:30:00 PM 8.84 47.912 0.327 8.12 97.68 12.26
3/14/2021 11:45:00 PM 8.76 47.768 0.329 8.11 58.81 12.25
3/15/2021 12:00:00 AM 8.68 47.624 0.346 8.1 25.97 12.24
3/15/2021 12:15:00 AM 8.59 47.462 0.345 8.09 45.86 12.22
3/15/2021 12:30:00 AM 8.49 47.282 0.331 8.08 37.13 12.21
3/15/2021 12:45:00 AM 8.41 47.138 0.33 8.07 36.38 12.2
3/15/2021 1:00:00 AM 8.31 46.958 0.357 8.07 166.61 12.2
3/15/2021 1:15:00 AM 8.23 46.814 0.436 8.06 37.06 12.2
3/15/2021 1:30:00 AM 8.14 46.652 0.459 8.05 119.15 12.2
3/15/2021 1:45:00 AM 8.07 46.526 0.455 8.04 11.4 12.2
3/15/2021 2:00:00 AM 7.98 46.364 0.46 8.04 632.62 12.21
3/15/2021 2:15:00 AM 7.89 46.202 0.46 8.04 127.73 12.19
3/15/2021 2:30:00 AM 7.81 46.058 0.46 8.03 8.07 12.22
3/15/2021 2:45:00 AM 7.74 45.932 0.46 8.03 8.17 12.24
3/15/2021 3:00:00 AM 7.67 45.806 0.46 8.02 8.96 12.26
3/15/2021 3:15:00 AM 7.58 45.644 0.46 8.02 15.65 12.26
3/15/2021 3:30:00 AM 7.5 45.5 0.46 8.02 15.54 12.27
3/15/2021 3:45:00 AM 7.42 45.356 0.46 8.01 91.56 12.28
3/15/2021 4:00:00 AM 7.33 45.194 0.46 8.01 8.49 12.31
3/15/2021 4:15:00 AM 7.24 45.032 0.46 8.01 8.68 12.31
3/15/2021 4:30:00 AM 7.15 44.87 0.461 8 7.46 12.32
3/15/2021 4:45:00 AM 7.06 44.708 0.461 8 8 12.35
3/15/2021 5:00:00 AM 6.97 44.546 0.461 8 8.1 12.37
3/15/2021 5:15:00 AM 6.88 44.384 0.462 7.99 8.01 12.4
3/15/2021 5:30:00 AM 6.79 44.222 0.462 7.99 7.55 12.41
3/15/2021 5:45:00 AM 6.7 44.06 0.463 7.99 7.63 12.42
3/15/2021 6:00:00 AM 6.64 43.952 0.463 7.99 28.56 12.38
3/15/2021 6:15:00 AM 6.56 43.808 0.464 7.99 11.59 12.45
3/15/2021 6:30:00 AM 6.49 43.682 0.465 7.98 8.52 12.49
3/15/2021 6:45:00 AM 6.42 43.556 0.465 7.98 8.66 12.48
3/15/2021 7:00:00 AM 6.35 43.43 0.466 7.98 8.84 12.52
3/15/2021 7:15:00 AM 6.27 43.286 0.466 7.98 9.73 12.55
3/15/2021 7:30:00 AM 6.22 43.196 0.467 7.97 9.02 12.57
3/15/2021 7:45:00 AM 6.16 43.088 0.467 7.97 8.61 12.59
3/15/2021 8:00:00 AM 6.11 42.998 0.468 7.97 8.86 12.62
3/15/2021 8:15:00 AM 6.06 42.908 0.468 7.97 19.91 12.61
3/15/2021 8:30:00 AM 6.01 42.818 0.467 7.97 15.86 12.63
3/15/2021 8:45:00 AM 5.97 42.746 0.469 7.98 330.97 12.58
3/15/2021 9:00:00 AM 5.94 42.692 0.47 7.98 9.86 12.76
3/15/2021 9:15:00 AM 5.91 42.638 0.471 7.98 20.15 12.78
3/15/2021 9:30:00 AM 5.9 42.62 0.472 7.98 140.4 12.82
3/15/2021 9:45:00 AM 5.89 42.602 0.473 7.98 10.64 12.87
3/15/2021 10:00:00 AM 5.89 42.602 0.473 7.98 50.46 12.91
3/15/2021 10:15:00 AM 5.89 42.602 0.474 7.99 38.52 12.93
3/15/2021 10:30:00 AM 5.89 42.602 0.474 7.99 260.8 12.95
3/15/2021 10:45:00 AM 5.9 42.62 0.475 7.99 1484.89 12.98
3/15/2021 11:00:00 AM 5.91 42.638 0.475 7.99 76.27 13
3/15/2021 11:15:00 AM 5.92 42.656 0.475 8 141.38 13.04
3/15/2021 11:30:00 AM 5.96 42.728 0.476 8 490.12 13.06
3/15/2021 11:45:00 AM 5.98 42.764 0.476 8 1066.23 13.06
3/15/2021 12:00:00 PM 6.01 42.818 0.476 8.01 1017.41 13.08
3/15/2021 12:15:00 PM 6.05 42.89 0.477 8.01 1292.29 13.11
3/15/2021 12:30:00 PM 6.11 42.998 0.477 8.01 12.43 13.14
3/15/2021 12:45:00 PM 6.17 43.106 0.477 8.02 30.52 13.21
3/15/2021 1:00:00 PM 6.22 43.196 0.477 8.03 22.93 13.24
3/15/2021 1:15:00 PM 6.28 43.304 0.476 8.04 49.5 13.28
3/15/2021 1:30:00 PM 6.35 43.43 0.476 8.05 88.18 13.23
3/15/2021 1:45:00 PM 6.43 43.574 0.476 8.06 82.89 13.28
3/15/2021 2:00:00 PM 6.53 43.754 0.476 8.06 20.24 13.35
3/15/2021 2:15:00 PM 6.64 43.952 0.475 8.08 20.72 13.39
3/15/2021 2:30:00 PM 6.72 44.096 0.475 8.09 45.26 13.41
3/15/2021 2:45:00 PM 6.81 44.258 0.475 8.1 41.95 13.42
3/15/2021 3:00:00 PM 6.91 44.438 0.475 8.11 37.71 13.45
3/15/2021 3:15:00 PM 7.01 44.618 0.475 8.12 42.99 13.47
3/15/2021 3:30:00 PM 7.11 44.798 0.474 8.13 62.81 13.5
3/15/2021 3:45:00 PM 7.19 44.942 0.474 8.14 60.95 13.51
3/15/2021 4:00:00 PM 7.27 45.086 0.473 8.15 56.57 13.53
3/15/2021 4:15:00 PM 7.35 45.23 0.473 8.16 147.71 13.54
3/15/2021 4:30:00 PM 7.41 45.338 0.472 8.17 8.91 13.55
3/15/2021 4:45:00 PM 7.47 45.446 0.471 8.18 9.35 13.55
3/15/2021 5:00:00 PM 7.51 45.518 0.471 8.19 113.23 13.53
3/15/2021 5:15:00 PM 7.57 45.626 0.471 8.2 113.14 13.52
3/15/2021 5:30:00 PM 7.62 45.716 0.47 8.2 20.97 13.55
3/15/2021 5:45:00 PM 7.65 45.77 0.471 8.21 35.52 13.51
3/15/2021 6:00:00 PM 7.68 45.824 0.471 8.22 7021.66 13.53
3/15/2021 6:15:00 PM 7.69 45.842 0.471 8.22 169.7 13.48
3/15/2021 6:30:00 PM 7.69 45.842 0.471 8.22 4.96 13.45
3/15/2021 6:45:00 PM 7.7 45.86 0.468 8.22 10.87 13.43
3/15/2021 7:00:00 PM 7.69 45.842 0.472 8.22 10.98 13.41
3/15/2021 7:15:00 PM 7.69 45.842 0.475 8.22 13.71 13.38
3/15/2021 7:30:00 PM 7.69 45.842 0.475 8.22 25.89 13.36
3/15/2021 7:45:00 PM 7.68 45.824 0.474 8.22 57.19 13.34
3/15/2021 8:00:00 PM 7.68 45.824 0.474 8.22 7.03 13.33
3/15/2021 8:15:00 PM 7.68 45.824 0.474 8.22 16.65 13.32
3/15/2021 8:30:00 PM 7.67 45.806 0.472 8.21 17.77 13.3
3/15/2021 8:45:00 PM 7.65 45.77 0.473 8.21 21.18 13.28
3/15/2021 9:00:00 PM 7.65 45.77 0.472 8.2 21.1 13.24
3/15/2021 9:15:00 PM 7.64 45.752 0.471 8.2 21.12 13.18
3/15/2021 9:30:00 PM 7.62 45.716 0.47 8.2 20.77 13.19
3/15/2021 9:45:00 PM 7.61 45.698 0.469 8.19 21.83 13.16
3/15/2021 10:00:00 PM 7.6 45.68 0.468 8.19 95.04 13.12
3/15/2021 10:15:00 PM 7.58 45.644 0.468 8.18 34.03 13.12
3/15/2021 10:30:00 PM 7.55 45.59 0.467 8.17 80.5 13.09
3/15/2021 10:45:00 PM 7.52 45.536 0.467 8.16 66.49 13.05
3/15/2021 11:00:00 PM 7.48 45.464 0.467 8.15 23.9 13.03
3/15/2021 11:15:00 PM 7.44 45.392 0.467 8.14 18.67 12.99
3/15/2021 11:30:00 PM 7.4 45.32 0.467 8.13 21.5 12.95
3/15/2021 11:45:00 PM 7.36 45.248 0.467 8.12 18.03 12.9
3/16/2021 12:00:00 AM 7.32 45.176 0.467 8.11 15.41 12.89
3/16/2021 12:15:00 AM 7.27 45.086 0.466 8.1 10.3 12.87
3/16/2021 12:30:00 AM 7.22 44.996 0.466 8.09 71.2 12.82
3/16/2021 12:45:00 AM 7.18 44.924 0.465 8.08 38.13 12.79
3/16/2021 1:00:00 AM 7.12 44.816 0.465 8.07 34.46 12.78
3/16/2021 1:15:00 AM 7.07 44.726 0.464 8.06 16.5 12.77
3/16/2021 1:30:00 AM 7.02 44.636 0.464 8.05 16.1 12.75
3/16/2021 1:45:00 AM 6.97 44.546 0.464 8.04 15.86 12.74
3/16/2021 2:00:00 AM 6.92 44.456 0.463 8.04 15.93 12.71
3/16/2021 2:15:00 AM 6.88 44.384 0.463 8.03 15.03 12.71
3/16/2021 2:30:00 AM 6.83 44.294 0.464 8.03 14.89 12.7
3/16/2021 2:45:00 AM 6.77 44.186 0.464 8.02 15.23 12.71
3/16/2021 3:00:00 AM 6.74 44.132 0.464 8.02 15.19 12.69
3/16/2021 3:15:00 AM 6.71 44.078 0.464 8.01 14.11 12.68
3/16/2021 3:30:00 AM 6.67 44.006 0.465 8.01 16.55 12.66
3/16/2021 3:45:00 AM 6.63 43.934 0.465 8 16.89 12.66
3/16/2021 4:00:00 AM 6.6 43.88 0.465 8 8.68 12.67
3/16/2021 4:15:00 AM 6.57 43.826 0.466 7.99 21.37 12.67
3/16/2021 4:30:00 AM 6.53 43.754 0.466 7.99 22.54 12.67
3/16/2021 4:45:00 AM 6.5 43.7 0.467 7.99 14.83 12.64
3/16/2021 5:00:00 AM 6.47 43.646 0.468 7.99 39.64 12.66
3/16/2021 5:15:00 AM 6.45 43.61 0.468 7.98 16.25 12.65
3/16/2021 5:30:00 AM 6.43 43.574 0.469 7.98 18.32 12.66
3/16/2021 5:45:00 AM 6.4 43.52 0.47 7.97 16.85 12.64
3/16/2021 6:00:00 AM 6.38 43.484 0.471 7.97 14.72 12.66
3/16/2021 6:15:00 AM 6.36 43.448 0.472 7.97 13.65 12.65
3/16/2021 6:30:00 AM 6.34 43.412 0.473 7.97 14 12.63
3/16/2021 6:45:00 AM 6.32 43.376 0.475 7.96 14.66 12.63
3/16/2021 7:00:00 AM 6.3 43.34 0.476 7.96 14.48 12.64
3/16/2021 7:15:00 AM 6.29 43.322 0.478 7.96 14.29 12.63
3/16/2021 7:30:00 AM 6.27 43.286 0.479 7.96 14.02 12.62
3/16/2021 7:45:00 AM 6.26 43.268 0.48 7.95 25.08 12.63
3/16/2021 8:00:00 AM 6.25 43.25 0.481 7.95 17.83 12.63
3/16/2021 8:15:00 AM 6.24 43.232 0.482 7.95 12.31 12.64
3/16/2021 8:30:00 AM 6.22 43.196 0.482 7.95 12.37 12.63
3/16/2021 8:45:00 AM 6.22 43.196 0.483 7.96 12.65 12.65
3/16/2021 9:00:00 AM 6.22 43.196 0.483 7.95 12.17 12.69
3/16/2021 9:15:00 AM 6.21 43.178 0.483 7.96 12.67 12.71
3/16/2021 9:30:00 AM 6.2 43.16 0.483 7.95 12.52 12.7
3/16/2021 9:45:00 AM 6.2 43.16 0.483 7.96 14.2 12.74
3/16/2021 10:00:00 AM 6.2 43.16 0.483 7.96 12.1 12.78
3/16/2021 10:15:00 AM 6.2 43.16 0.483 7.96 12.29 12.76
3/16/2021 10:30:00 AM 6.19 43.142 0.484 7.96 12.19 12.77
3/16/2021 10:45:00 AM 6.19 43.142 0.484 7.96 14.93 12.77
3/16/2021 11:00:00 AM 6.18 43.124 0.485 7.96 12.12 12.8
3/16/2021 11:15:00 AM 6.18 43.124 0.485 7.97 12.2 12.82
3/16/2021 11:30:00 AM 6.18 43.124 0.485 7.97 12.15 12.85
3/16/2021 11:45:00 AM 6.18 43.124 0.485 7.97 12.33 12.89
3/16/2021 12:00:00 PM 6.19 43.142 0.485 7.98 12.33 12.92
3/16/2021 12:15:00 PM 6.19 43.142 0.485 7.98 13.2 12.93
3/16/2021 12:30:00 PM 6.21 43.178 0.484 7.98 12.2 12.95
3/16/2021 12:45:00 PM 6.2 43.16 0.484 7.98 12.18 12.95
3/16/2021 1:00:00 PM 6.22 43.196 0.483 7.99 43.94 12.98
3/16/2021 1:15:00 PM 6.23 43.214 0.482 7.99 9.96 13.03
3/16/2021 1:30:00 PM 6.22 43.196 0.481 8 88.95 13.01
3/16/2021 1:45:00 PM 6.21 43.178 0.481 8 44.87 13
3/16/2021 2:00:00 PM 6.2 43.16 0.48 8.01 448.94 13.01
3/16/2021 2:15:00 PM 6.2 43.16 0.479 8.01 38.43 13.05
3/16/2021 2:30:00 PM 6.21 43.178 0.478 8.02 7.18 13.09
3/16/2021 2:45:00 PM 6.2 43.16 0.478 8.03 77.74 13.14
3/16/2021 3:00:00 PM 6.19 43.142 0.477 8.03 1312.1 13.15
3/16/2021 3:15:00 PM 6.2 43.16 0.476 8.04 23.15 13.23
3/16/2021 3:30:00 PM 6.21 43.178 0.477 8.05 11720 13.27
3/16/2021 3:45:00 PM 6.22 43.196 0.477 8.07 60.36 13.34
3/16/2021 4:00:00 PM 6.24 43.232 0.477 8.07 23.05 13.38
3/16/2021 4:15:00 PM 6.26 43.268 0.477 8.08 32.89 13.41
3/16/2021 4:30:00 PM 6.28 43.304 0.477 8.09 25.08 13.42
3/16/2021 4:45:00 PM 6.3 43.34 0.477 8.1 67.9 13.45
3/16/2021 5:00:00 PM 6.31 43.358 0.476 8.11 162.97 13.44
3/16/2021 5:15:00 PM 6.33 43.394 0.475 8.11 5781.69 13.44
3/16/2021 5:30:00 PM 6.34 43.412 0.475 8.12 146.6 13.47
3/16/2021 5:45:00 PM 6.35 43.43 0.474 8.12 236.42 13.47
3/16/2021 6:00:00 PM 6.34 43.412 0.473 8.13 13.71 13.47
3/16/2021 6:15:00 PM 6.35 43.43 0.473 8.13 21.15 13.46
3/16/2021 6:30:00 PM 6.34 43.412 0.472 8.13 6.54 13.46
3/16/2021 6:45:00 PM 6.33 43.394 0.472 8.13 50.55 13.45
3/16/2021 7:00:00 PM 6.32 43.376 0.472 8.12 84.29 13.42
3/16/2021 7:15:00 PM 6.31 43.358 0.471 8.12 82.14 13.39
3/16/2021 7:30:00 PM 6.3 43.34 0.471 8.12 78.83 13.39
3/16/2021 7:45:00 PM 6.3 43.34 0.471 8.12 34.06 13.36
3/16/2021 8:00:00 PM 6.3 43.34 0.471 8.12 27.3 13.39
3/16/2021 8:15:00 PM 6.29 43.322 0.471 8.12 51.96 13.39
3/16/2021 8:30:00 PM 6.29 43.322 0.471 8.12 711.89 13.38
3/16/2021 8:45:00 PM 6.29 43.322 0.47 8.12 10.27 13.39
3/16/2021 9:00:00 PM 6.29 43.322 0.47 8.12 4.92 13.39
3/16/2021 9:15:00 PM 6.29 43.322 0.47 8.12 4.95 13.39
3/16/2021 9:30:00 PM 6.29 43.322 0.468 8.12 5.46 13.37
3/16/2021 9:45:00 PM 6.29 43.322 0.469 8.12 5.32 13.35
3/16/2021 10:00:00 PM 6.29 43.322 0.469 8.12 29.84 13.33
3/16/2021 10:15:00 PM 6.28 43.304 0.468 8.11 29.72 13.34
3/16/2021 10:30:00 PM 6.27 43.286 0.467 8.11 26.68 13.33
3/16/2021 10:45:00 PM 6.26 43.268 0.467 8.11 12.62 13.29
3/16/2021 11:00:00 PM 6.24 43.232 0.466 8.1 10.89 13.27
3/16/2021 11:15:00 PM 6.23 43.214 0.466 8.09 10.47 13.25
3/16/2021 11:30:00 PM 6.21 43.178 0.465 8.09 9.81 13.21
3/16/2021 11:45:00 PM 6.2 43.16 0.465 8.08 10.25 13.19
3/17/2021 12:00:00 AM 6.19 43.142 0.464 8.07 9.86 13.16
3/17/2021 12:15:00 AM 6.17 43.106 0.464 8.06 9.21 13.12
3/17/2021 12:30:00 AM 6.16 43.088 0.463 8.05 9.11 13.08
3/17/2021 12:45:00 AM 6.15 43.07 0.462 8.05 8.38 13.06
3/17/2021 1:00:00 AM 6.14 43.052 0.462 8.04 8.62 13.03
3/17/2021 1:15:00 AM 6.13 43.034 0.461 8.03 8.46 13.01
3/17/2021 1:30:00 AM 6.12 43.016 0.461 8.03 8.58 12.98
3/17/2021 1:45:00 AM 6.11 42.998 0.461 8.02 8.06 12.96
3/17/2021 2:00:00 AM 6.1 42.98 0.461 8.02 7.98 12.94
3/17/2021 2:15:00 AM 6.09 42.962 0.461 8.01 71.21 12.9
3/17/2021 2:30:00 AM 6.08 42.944 0.461 8.01 11.45 12.91
3/17/2021 2:45:00 AM 6.07 42.926 0.462 8.01 7.97 12.9
3/17/2021 3:00:00 AM 6.06 42.908 0.463 8 8.08 12.88
3/17/2021 3:15:00 AM 6.05 42.89 0.464 8 8.34 12.87
3/17/2021 3:30:00 AM 6.04 42.872 0.464 8 7.56 12.85
3/17/2021 3:45:00 AM 6.04 42.872 0.465 7.99 7.66 12.85
3/17/2021 4:00:00 AM 6.03 42.854 0.466 7.99 7.45 12.85
3/17/2021 4:15:00 AM 6.02 42.836 0.467 7.99 14.07 12.81
3/17/2021 4:30:00 AM 6.02 42.836 0.468 7.98 13.8 12.8
3/17/2021 4:45:00 AM 6.01 42.818 0.468 7.99 14.68 12.8
3/17/2021 5:00:00 AM 6 42.8 0.469 7.98 13.36 12.8
3/17/2021 5:15:00 AM 6 42.8 0.469 7.98 13.29 12.79
3/17/2021 5:30:00 AM 5.99 42.782 0.47 7.98 12.31 12.78
3/17/2021 5:45:00 AM 5.99 42.782 0.47 7.98 7.22 12.79
3/17/2021 6:00:00 AM 5.99 42.782 0.471 7.97 9.27 12.77
3/17/2021 6:15:00 AM 5.98 42.764 0.471 7.97 8.98 12.76
3/17/2021 6:30:00 AM 5.98 42.764 0.472 7.97 6.45 12.77
3/17/2021 6:45:00 AM 5.97 42.746 0.473 7.97 6.66 12.75
3/17/2021 7:00:00 AM 5.97 42.746 0.474 7.97 7.14 12.77
3/17/2021 7:15:00 AM 5.97 42.746 0.475 7.97 9.14 12.73
3/17/2021 7:30:00 AM 5.97 42.746 0.477 7.96 8.17 12.75
3/17/2021 7:45:00 AM 5.97 42.746 0.478 7.96 8.48 12.74
3/17/2021 8:00:00 AM 5.97 42.746 0.479 7.96 6.75 12.76
3/17/2021 8:15:00 AM 5.97 42.746 0.481 7.96 7.09 12.77
3/17/2021 8:30:00 AM 5.97 42.746 0.481 7.96 6.93 12.77
3/17/2021 8:45:00 AM 5.97 42.746 0.481 7.96 6.93 12.8
3/17/2021 9:00:00 AM 5.98 42.764 0.482 7.96 6.83 12.8
3/17/2021 9:15:00 AM 5.99 42.782 0.483 7.96 6.97 12.84
3/17/2021 9:30:00 AM 6 42.8 0.483 7.97 10.2 12.85
3/17/2021 9:45:00 AM 6.02 42.836 0.483 7.97 10.32 12.86
3/17/2021 10:00:00 AM 6.03 42.854 0.482 7.97 7.31 12.87
3/17/2021 10:15:00 AM 6.04 42.872 0.482 7.97 7.35 12.87
3/17/2021 10:30:00 AM 6.06 42.908 0.481 7.97 7.16 12.89
3/17/2021 10:45:00 AM 6.08 42.944 0.481 7.97 8.02 12.91
3/17/2021 11:00:00 AM 6.11 42.998 0.48 7.97 8.2 12.94
3/17/2021 11:15:00 AM 6.13 43.034 0.48 7.97 7.95 12.95
3/17/2021 11:30:00 AM 6.15 43.07 0.479 7.98 8 12.97
3/17/2021 11:45:00 AM 6.17 43.106 0.478 7.98 4033.4 12.97
3/17/2021 12:00:00 PM 6.2 43.16 0.478 7.99 228.05 13
3/17/2021 12:15:00 PM 6.24 43.232 0.478 7.99 189.13 13.02
3/17/2021 12:30:00 PM 6.27 43.286 0.477 7.99 19.35 13.02
3/17/2021 12:45:00 PM 6.3 43.34 0.477 8 5.77 13.06
3/17/2021 1:00:00 PM 6.32 43.376 0.477 8 7.77 13.05
3/17/2021 1:15:00 PM 6.35 43.43 0.477 8 10.31 13.06
3/17/2021 1:30:00 PM 6.39 43.502 0.476 8.01 9.05 13.12
3/17/2021 1:45:00 PM 6.42 43.556 0.476 8.02 9.08 13.15
3/17/2021 2:00:00 PM 6.45 43.61 0.476 8.02 1682.81 13.15
3/17/2021 2:15:00 PM 6.48 43.664 0.475 8.03 161.79 13.19
3/17/2021 2:30:00 PM 6.51 43.718 0.475 8.04 1252.13 13.22
3/17/2021 2:45:00 PM 6.55 43.79 0.474 8.05 579.63 13.25
3/17/2021 3:00:00 PM 6.58 43.844 0.473 8.06 274.94 13.3
3/17/2021 3:15:00 PM 6.61 43.898 0.473 8.07 407.14 13.3
3/17/2021 3:30:00 PM 6.64 43.952 0.472 8.07 108.32 13.3
3/17/2021 3:45:00 PM 6.68 44.024 0.472 8.09 160.09 13.36
3/17/2021 4:00:00 PM 6.73 44.114 0.473 8.1 144.31 13.43
3/17/2021 4:15:00 PM 6.77 44.186 0.472 8.11 162.16 13.46
3/17/2021 4:30:00 PM 6.81 44.258 0.472 8.12 372.61 13.46
3/17/2021 4:45:00 PM 6.86 44.348 0.472 8.13 192.66 13.51
3/17/2021 5:00:00 PM 6.89 44.402 0.471 8.14 76.5 13.5
3/17/2021 5:15:00 PM 6.93 44.474 0.471 8.14 376.68 13.49
3/17/2021 5:30:00 PM 6.97 44.546 0.471 8.16 131.64 13.5
3/17/2021 5:45:00 PM 7.01 44.618 0.471 8.16 49.02 13.49
3/17/2021 6:00:00 PM 7.04 44.672 0.47 8.16 9921.83 13.47
3/17/2021 6:15:00 PM 7.07 44.726 0.47 8.17 13.2 13.47
3/17/2021 6:30:00 PM 7.1 44.78 0.47 8.17 228.6 13.46
3/17/2021 6:45:00 PM 7.13 44.834 0.471 8.17 8.85 13.43
3/17/2021 7:00:00 PM 7.15 44.87 0.471 8.17 52.34 13.4
3/17/2021 7:15:00 PM 7.18 44.924 0.471 8.17 23.7 13.4
3/17/2021 7:30:00 PM 7.2 44.96 0.471 8.17 50.48 13.37
3/17/2021 7:45:00 PM 7.22 44.996 0.472 8.17 11.5 13.36
3/17/2021 8:00:00 PM 7.24 45.032 0.472 8.17 23.62 13.34
3/17/2021 8:15:00 PM 7.26 45.068 0.473 8.17 29.07 13.32
3/17/2021 8:30:00 PM 7.27 45.086 0.473 8.17 23.53 13.29
3/17/2021 8:45:00 PM 7.29 45.122 0.473 8.17 21.88 13.27
3/17/2021 9:00:00 PM 7.31 45.158 0.473 8.17 23.58 13.26
3/17/2021 9:15:00 PM 7.32 45.176 0.473 8.16 19.56 13.24
3/17/2021 9:30:00 PM 7.34 45.212 0.473 8.16 19.13 13.2
3/17/2021 9:45:00 PM 7.35 45.23 0.472 8.15 18.89 13.17
3/17/2021 10:00:00 PM 7.36 45.248 0.471 8.15 19.37 13.15
3/17/2021 10:15:00 PM 7.37 45.266 0.471 8.14 18.85 13.12
3/17/2021 10:30:00 PM 7.38 45.284 0.47 8.13 16.77 13.08
3/17/2021 10:45:00 PM 7.39 45.302 0.468 8.13 17 13.04
3/17/2021 11:00:00 PM 7.39 45.302 0.467 8.12 16.89 13.01
3/17/2021 11:15:00 PM 7.4 45.32 0.466 8.12 17.22 12.96
3/17/2021 11:30:00 PM 7.4 45.32 0.465 8.11 16.76 12.93
3/17/2021 11:45:00 PM 7.4 45.32 0.464 8.1 17.12 12.89
3/18/2021 12:00:00 AM 7.4 45.32 0.464 8.09 31.23 12.84
3/18/2021 12:15:00 AM 7.4 45.32 0.464 8.08 1485.41 12.79
3/18/2021 12:30:00 AM 7.4 45.32 0.463 8.07 48.02 12.76
3/18/2021 12:45:00 AM 7.39 45.302 0.463 8.06 12.74 12.73
3/18/2021 1:00:00 AM 7.39 45.302 0.462 8.05 12.82 12.7
3/18/2021 1:15:00 AM 7.38 45.284 0.462 8.05 12.48 12.66
3/18/2021 1:30:00 AM 7.38 45.284 0.462 8.04 12.63 12.64
3/18/2021 1:45:00 AM 7.38 45.284 0.462 8.04 18.11 12.61
3/18/2021 2:00:00 AM 7.38 45.284 0.461 8.03 18.46 12.59
3/18/2021 2:15:00 AM 7.38 45.284 0.461 8.02 17.86 12.56
3/18/2021 2:30:00 AM 7.38 45.284 0.461 8.01 17.09 12.53
3/18/2021 2:45:00 AM 7.38 45.284 0.461 8.01 17.61 12.51
3/18/2021 3:00:00 AM 7.38 45.284 0.461 8.01 17.14 12.49
3/18/2021 3:15:00 AM 7.38 45.284 0.46 8 17.42 12.47
3/18/2021 3:30:00 AM 7.39 45.302 0.46 8 17.16 12.45
3/18/2021 3:45:00 AM 7.39 45.302 0.46 7.99 17.17 12.43
3/18/2021 4:00:00 AM 7.39 45.302 0.46 7.99 17.79 12.42
3/18/2021 4:15:00 AM 7.4 45.32 0.461 7.98 16.86 12.4
3/18/2021 4:30:00 AM 7.4 45.32 0.461 7.98 17.06 12.38
3/18/2021 4:45:00 AM 7.4 45.32 0.462 7.98 17.07 12.37
3/18/2021 5:00:00 AM 7.4 45.32 0.463 7.97 17.08 12.35
3/18/2021 5:15:00 AM 7.41 45.338 0.463 7.97 17.23 12.34
3/18/2021 5:30:00 AM 7.41 45.338 0.464 7.97 17.42 12.32
3/18/2021 5:45:00 AM 7.42 45.356 0.465 7.97 17.62 12.31
3/18/2021 6:00:00 AM 7.42 45.356 0.466 7.96 17.81 12.3
3/18/2021 6:15:00 AM 7.42 45.356 0.467 7.96 18.11 12.29
3/18/2021 6:30:00 AM 7.43 45.374 0.467 7.96 18.01 12.28
3/18/2021 6:45:00 AM 7.43 45.374 0.468 7.96 18.12 12.26
3/18/2021 7:00:00 AM 7.44 45.392 0.469 7.96 17.65 12.25
3/18/2021 7:15:00 AM 7.45 45.41 0.47 7.96 619.21 12.22
3/18/2021 7:30:00 AM 7.45 45.41 0.47 7.95 459.12 12.22
3/18/2021 7:45:00 AM 7.46 45.428 0.471 7.96 17.12 12.23
3/18/2021 8:00:00 AM 7.47 45.446 0.473 7.95 39.84 12.23
3/18/2021 8:15:00 AM 7.48 45.464 0.472 7.95 238.05 12.2
3/18/2021 8:30:00 AM 7.49 45.482 0.474 7.95 1665.59 12.2
3/18/2021 8:45:00 AM 7.49 45.482 0.474 7.95 8110.94 12.19
3/18/2021 9:00:00 AM 7.5 45.5 0.475 7.95 14.39 12.21
3/18/2021 9:15:00 AM 7.52 45.536 0.475 7.95 14.87 12.21
3/18/2021 9:30:00 AM 7.53 45.554 0.475 7.95 14.32 12.21
3/18/2021 9:45:00 AM 7.54 45.572 0.474 7.95 14.56 12.23
3/18/2021 10:00:00 AM 7.55 45.59 0.474 7.95 14.78 12.2
3/18/2021 10:15:00 AM 7.56 45.608 0.474 7.95 14 12.21
3/18/2021 10:30:00 AM 7.57 45.626 0.474 7.95 14.7 12.21
3/18/2021 10:45:00 AM 7.58 45.644 0.474 7.94 12.37 12.19
3/18/2021 11:00:00 AM 7.59 45.662 0.474 7.94 22.67 12.18
3/18/2021 11:15:00 AM 7.6 45.68 0.475 7.94 21.31 12.19
3/18/2021 11:30:00 AM 7.61 45.698 0.475 7.94 137.63 12.21
3/18/2021 11:45:00 AM 7.62 45.716 0.475 7.94 202.91 12.21
3/18/2021 12:00:00 PM 7.64 45.752 0.475 7.95 133.9 12.22
3/18/2021 12:15:00 PM 7.65 45.77 0.475 7.95 120.22 12.24
3/18/2021 12:30:00 PM 7.67 45.806 0.475 7.95 9.05 12.26
3/18/2021 12:45:00 PM 7.68 45.824 0.475 7.95 11.47 12.24
3/18/2021 1:00:00 PM 7.69 45.842 0.475 7.95 9.09 12.24
3/18/2021 1:15:00 PM 7.72 45.896 0.475 7.95 9.32 12.28
3/18/2021 1:30:00 PM 7.73 45.914 0.474 7.95 27.97 12.27
3/18/2021 1:45:00 PM 7.75 45.95 0.473 7.95 134.06 12.27
3/18/2021 2:00:00 PM 7.76 45.968 0.472 7.95 122 12.27
3/18/2021 2:15:00 PM 7.78 46.004 0.47 7.95 96.89 12.28
3/18/2021 2:30:00 PM 7.79 46.022 0.469 7.95 123.12 12.29
3/18/2021 2:45:00 PM 7.81 46.058 0.467 7.96 136.14 12.31
3/18/2021 3:00:00 PM 7.83 46.094 0.468 7.96 240.47 12.33
3/18/2021 3:15:00 PM 7.85 46.13 0.468 7.97 163.33 12.35
3/18/2021 3:30:00 PM 7.88 46.184 0.468 7.97 53.69 12.38
3/18/2021 3:45:00 PM 7.9 46.22 0.468 7.98 221.16 12.39
3/18/2021 4:00:00 PM 7.92 46.256 0.467 7.98 31.84 12.39
3/18/2021 4:15:00 PM 7.95 46.31 0.464 7.99 106.87 12.46
3/18/2021 4:30:00 PM 7.95 46.31 0.462 7.99 193.2 12.44
3/18/2021 4:45:00 PM 7.96 46.328 0.459 7.99 534.65 12.45
3/18/2021 5:00:00 PM 7.98 46.364 0.457 8 169.28 12.5
3/18/2021 5:15:00 PM 7.99 46.382 0.454 8 32.76 12.49
3/18/2021 5:30:00 PM 7.99 46.382 0.451 7.99 1877.56 12.47
3/18/2021 5:45:00 PM 7.99 46.382 0.449 8 31.11 12.49
3/18/2021 6:00:00 PM 8 46.4 0.448 8 9.63 12.48
3/18/2021 6:15:00 PM 8 46.4 0.448 8 8.1 12.51
3/18/2021 6:30:00 PM 8 46.4 0.446 7.99 341.3 12.5
3/18/2021 6:45:00 PM 8.01 46.418 0.445 8 290.31 12.49
3/18/2021 7:00:00 PM 8.02 46.436 0.444 7.99 134.34 12.5
3/18/2021 7:15:00 PM 8.01 46.418 0.442 8 354.94 12.51
3/18/2021 7:30:00 PM 8.01 46.418 0.44 7.99 153.21 12.49
3/18/2021 7:45:00 PM 8 46.4 0.438 7.99 197.74 12.5
3/18/2021 8:00:00 PM 7.99 46.382 0.435 7.99 109.56 12.49
3/18/2021 8:15:00 PM 7.98 46.364 0.433 7.98 30.71 12.47
3/18/2021 8:30:00 PM 7.97 46.346 0.43 7.98 3906.79 12.46
3/18/2021 8:45:00 PM 7.96 46.328 0.427 7.97 85.57 12.44
3/18/2021 9:00:00 PM 7.94 46.292 0.424 7.95 74.8 12.42
3/18/2021 9:15:00 PM 7.93 46.274 0.421 7.94 49.52 12.4
3/18/2021 9:30:00 PM 7.92 46.256 0.417 7.93 90.24 12.39
3/18/2021 9:45:00 PM 7.91 46.238 0.413 7.91 46.05 12.37
3/18/2021 10:00:00 PM 7.91 46.238 0.408 7.9 1302.02 12.35
3/18/2021 10:15:00 PM 7.9 46.22 0.403 7.89 81.47 12.34
3/18/2021 10:30:00 PM 7.89 46.202 0.4 7.88 387.3 12.35
3/18/2021 10:45:00 PM 7.88 46.184 0.399 7.88 22.18 12.35
3/18/2021 11:00:00 PM 7.87 46.166 0.4 7.87 35.75 12.35
3/18/2021 11:15:00 PM 7.85 46.13 0.4 7.88 14.77 12.36
3/18/2021 11:30:00 PM 7.83 46.094 0.399 7.87 79.29 12.37
3/18/2021 11:45:00 PM 7.81 46.058 0.396 7.87 54.44 12.36
3/19/2021 12:00:00 AM 7.79 46.022 0.39 7.86 64.72 12.35
3/19/2021 12:15:00 AM 7.76 45.968 0.383 7.85 142.83 12.34
3/19/2021 12:30:00 AM 7.73 45.914 0.375 7.84 49.09 12.33
3/19/2021 12:45:00 AM 7.71 45.878 0.368 7.84 32.49 12.32
3/19/2021 1:00:00 AM 7.69 45.842 0.362 7.83 36.26 12.31
3/19/2021 1:15:00 AM 7.67 45.806 0.357 7.82 34.55 12.31
3/19/2021 1:30:00 AM 7.64 45.752 0.348 7.82 49.51 12.31
3/19/2021 1:45:00 AM 7.62 45.716 0.351 7.82 47.67 12.31
3/19/2021 2:00:00 AM 7.59 45.662 0.349 7.81 52.78 12.3
3/19/2021 2:15:00 AM 7.56 45.608 0.349 7.81 157.63 12.32
3/19/2021 2:30:00 AM 7.52 45.536 0.349 7.81 214.87 12.33
3/19/2021 2:45:00 AM 7.48 45.464 0.349 7.8 37.81 12.33
3/19/2021 3:00:00 AM 7.44 45.392 0.348 7.8 39.42 12.33
3/19/2021 3:15:00 AM 7.4 45.32 0.347 7.8 40.97 12.35
3/19/2021 3:30:00 AM 7.35 45.23 0.346 7.79 42.89 12.35
3/19/2021 3:45:00 AM 7.31 45.158 0.345 7.79 43.99 12.35
3/19/2021 4:00:00 AM 7.26 45.068 0.343 7.79 91.13 12.36
3/19/2021 4:15:00 AM 7.22 44.996 0.342 7.78 52.17 12.37
3/19/2021 4:30:00 AM 7.18 44.924 0.34 7.78 40.09 12.38
3/19/2021 4:45:00 AM 7.14 44.852 0.342 7.77 52.51 12.4
3/19/2021 5:00:00 AM 7.1 44.78 0.345 7.77 40.44 12.4
3/19/2021 5:15:00 AM 7.06 44.708 0.35 7.77 43.54 12.4
3/19/2021 5:30:00 AM 7.03 44.654 0.354 7.77 48.97 12.4
3/19/2021 5:45:00 AM 6.98 44.564 0.356 7.77 48.35 12.41
3/19/2021 6:00:00 AM 6.94 44.492 0.356 7.76 60.22 12.43
3/19/2021 6:15:00 AM 6.9 44.42 0.358 7.77 37.22 12.43
3/19/2021 6:30:00 AM 6.85 44.33 0.359 7.77 55.51 12.45
3/19/2021 6:45:00 AM 6.8 44.24 0.361 7.77 40.9 12.45
3/19/2021 7:00:00 AM 6.75 44.15 0.362 7.77 42.46 12.47
3/19/2021 7:15:00 AM 6.7 44.06 0.363 7.77 72.18 12.48
3/19/2021 7:30:00 AM 6.65 43.97 0.361 7.77 11005.35 12.48
3/19/2021 7:45:00 AM 6.6 43.88 0.361 7.77 167.59 12.5
3/19/2021 8:00:00 AM 6.56 43.808 0.361 7.77 36.02 12.52
3/19/2021 8:15:00 AM 6.51 43.718 0.361 7.77 58.31 12.54
3/19/2021 8:30:00 AM 6.47 43.646 0.362 7.77 54.92 12.57
3/19/2021 8:45:00 AM 6.44 43.592 0.363 7.77 132.14 12.58
3/19/2021 9:00:00 AM 6.42 43.556 0.364 7.77 123.44 12.58
3/19/2021 9:15:00 AM 6.41 43.538 0.365 7.77 331.21 12.59
3/19/2021 9:30:00 AM 6.39 43.502 0.365 7.78 36.45 12.61
3/19/2021 9:45:00 AM 6.36 43.448 0.363 7.78 39.78 12.62
3/19/2021 10:00:00 AM 6.36 43.448 0.363 7.78 99.51 12.66
3/19/2021 10:15:00 AM 6.36 43.448 0.362 7.78 84.02 12.67
3/19/2021 10:30:00 AM 6.36 43.448 0.363 7.79 83.47 12.68
3/19/2021 10:45:00 AM 6.39 43.502 0.365 7.79 77.43 12.7
3/19/2021 11:00:00 AM 6.39 43.502 0.365 7.8 77.04 12.71
3/19/2021 11:15:00 AM 6.42 43.556 0.364 7.8 67.25 12.73
3/19/2021 11:30:00 AM 6.48 43.664 0.364 7.81 65.32 12.75
3/19/2021 11:45:00 AM 6.51 43.718 0.365 7.81 63.07 12.75
3/19/2021 12:00:00 PM 6.56 43.808 0.365 7.82 79.51 12.77
3/19/2021 12:15:00 PM 6.62 43.916 0.366 7.83 31.54 12.79
3/19/2021 12:30:00 PM 6.7 44.06 0.367 7.84 31.97 12.81
3/19/2021 12:45:00 PM 6.78 44.204 0.368 7.85 31.18 12.84
3/19/2021 1:00:00 PM 6.86 44.348 0.369 7.85 37.14 12.85
3/19/2021 1:15:00 PM 6.96 44.528 0.369 7.86 43.84 12.87
3/19/2021 1:30:00 PM 7.05 44.69 0.368 7.87 23.62 12.88
3/19/2021 1:45:00 PM 7.16 44.888 0.368 7.88 33.59 12.89
3/19/2021 2:00:00 PM 7.27 45.086 0.367 7.89 25.07 12.91
3/19/2021 2:15:00 PM 7.37 45.266 0.367 7.9 2261.68 12.91
3/19/2021 2:30:00 PM 7.47 45.446 0.367 7.91 134.46 12.93
3/19/2021 2:45:00 PM 7.57 45.626 0.366 7.92 28.08 12.93
3/19/2021 3:00:00 PM 7.66 45.788 0.365 7.93 57.34 12.83
3/19/2021 3:15:00 PM 7.75 45.95 0.365 7.94 69.52 12.87
3/19/2021 3:30:00 PM 7.83 46.094 0.364 7.95 60.22 12.86
3/19/2021 3:45:00 PM 7.9 46.22 0.364 7.96 47.45 12.89
3/19/2021 4:00:00 PM 7.97 46.346 0.364 7.97 27.04 12.89
3/19/2021 4:15:00 PM 8.04 46.472 0.365 7.98 30.83 12.93
3/19/2021 4:30:00 PM 8.1 46.58 0.361 7.98 519.01 12.92
3/19/2021 4:45:00 PM 8.14 46.652 0.367 7.99 20.23 12.92
3/19/2021 5:00:00 PM 8.17 46.706 0.368 8 34.97 12.92
3/19/2021 5:15:00 PM 8.19 46.742 0.369 8 27.67 12.93
3/19/2021 5:30:00 PM 8.2 46.76 0.37 7.99 30.06 12.95
3/19/2021 5:45:00 PM 8.21 46.778 0.37 8 27.67 12.93
3/19/2021 6:00:00 PM 8.2 46.76 0.369 8 27.49 12.91
3/19/2021 6:15:00 PM 8.19 46.742 0.369 8 26.61 12.9
3/19/2021 6:30:00 PM 8.18 46.724 0.368 8 33.68 12.89
3/19/2021 6:45:00 PM 8.17 46.706 0.369 8.02 36.64 12.88
3/19/2021 7:00:00 PM 8.16 46.688 0.371 8.02 15.57 12.87
3/19/2021 7:15:00 PM 8.15 46.67 0.373 8.01 15.14 12.89
3/19/2021 7:30:00 PM 8.15 46.67 0.375 8.01 13.74 12.85
3/19/2021 7:45:00 PM 8.14 46.652 0.377 8.01 14.02 12.86
3/19/2021 8:00:00 PM 8.13 46.634 0.376 8.01 13.46 12.85
3/19/2021 8:15:00 PM 8.11 46.598 0.381 8.01 11.73 12.83
3/19/2021 8:30:00 PM 8.09 46.562 0.381 8.01 12.88 12.8
3/19/2021 8:45:00 PM 8.07 46.526 0.383 8 13.03 12.81
3/19/2021 9:00:00 PM 8.04 46.472 0.384 8 13.36 12.81
3/19/2021 9:15:00 PM 8.02 46.436 0.385 7.99 20.37 12.8
3/19/2021 9:30:00 PM 7.98 46.364 0.386 7.99 582.17 12.77
3/19/2021 9:45:00 PM 7.95 46.31 0.387 7.98 39.36 12.77
3/19/2021 10:00:00 PM 7.91 46.238 0.388 7.98 40.11 12.74
3/19/2021 10:15:00 PM 7.88 46.184 0.389 7.97 48.82 12.72
3/19/2021 10:30:00 PM 7.84 46.112 0.39 7.96 87.88 12.71
3/19/2021 10:45:00 PM 7.8 46.04 0.391 7.96 59.12 12.69
3/19/2021 11:00:00 PM 7.76 45.968 0.392 7.95 60.9 12.68
3/19/2021 11:15:00 PM 7.71 45.878 0.393 7.95 72.06 12.66
3/19/2021 11:30:00 PM 7.66 45.788 0.394 7.94 58.61 12.66
3/19/2021 11:45:00 PM 7.62 45.716 0.396 7.93 65.87 12.66
3/20/2021 12:00:00 AM 7.57 45.626 0.398 7.93 23.8 12.64
3/20/2021 12:15:00 AM 7.52 45.536 0.4 7.93 29.11 12.64
3/20/2021 12:30:00 AM 7.48 45.464 0.402 7.92 37.62 12.63
3/20/2021 12:45:00 AM 7.44 45.392 0.403 7.92 28.29 12.63
3/20/2021 1:00:00 AM 7.39 45.302 0.404 7.91 33.4 12.59
3/20/2021 1:15:00 AM 7.34 45.212 0.405 7.91 14.46 12.61
3/20/2021 1:30:00 AM 7.3 45.14 0.406 7.91 16.77 12.6
3/20/2021 1:45:00 AM 7.26 45.068 0.407 7.9 14.94 12.59
3/20/2021 2:00:00 AM 7.21 44.978 0.407 7.9 98.3 12.6
3/20/2021 2:15:00 AM 7.17 44.906 0.408 7.89 17.61 12.59
3/20/2021 2:30:00 AM 7.13 44.834 0.408 7.89 36.31 12.58
3/20/2021 2:45:00 AM 7.08 44.744 0.409 7.88 14.66 12.58
3/20/2021 3:00:00 AM 7.04 44.672 0.41 7.88 700.75 12.57
3/20/2021 3:15:00 AM 7 44.6 0.411 7.88 84.7 12.59
3/20/2021 3:30:00 AM 6.96 44.528 0.413 7.88 52.05 12.59
3/20/2021 3:45:00 AM 6.92 44.456 0.414 7.87 53.58 12.59
3/20/2021 4:00:00 AM 6.88 44.384 0.416 7.87 61.87 12.59
3/20/2021 4:15:00 AM 6.84 44.312 0.418 7.87 22.32 12.59
3/20/2021 4:30:00 AM 6.81 44.258 0.419 7.87 40.41 12.58
3/20/2021 4:45:00 AM 6.77 44.186 0.42 7.86 17.75 12.58
3/20/2021 5:00:00 AM 6.73 44.114 0.421 7.87 30.25 12.58
3/20/2021 5:15:00 AM 6.69 44.042 0.422 7.86 20.5 12.61
3/20/2021 5:30:00 AM 6.65 43.97 0.422 7.86 41.1 12.61
3/20/2021 5:45:00 AM 6.61 43.898 0.423 7.86 43.83 12.6
3/20/2021 6:00:00 AM 6.57 43.826 0.422 7.86 43.44 12.62
3/20/2021 6:15:00 AM 6.53 43.754 0.422 7.85 34.26 12.63
3/20/2021 6:30:00 AM 6.48 43.664 0.423 7.86 12.2 12.62
3/20/2021 6:45:00 AM 6.45 43.61 0.423 7.85 39.22 12.65
3/20/2021 7:00:00 AM 6.4 43.52 0.424 7.85 37.38 12.66
3/20/2021 7:15:00 AM 6.36 43.448 0.424 7.85 41.52 12.61
3/20/2021 7:30:00 AM 6.31 43.358 0.425 7.85 29.97 12.68
3/20/2021 7:45:00 AM 6.27 43.286 0.426 7.85 38.41 12.7
3/20/2021 8:00:00 AM 6.23 43.214 0.427 7.85 38.14 12.71
3/20/2021 8:15:00 AM 6.2 43.16 0.428 7.85 21.36 12.73
3/20/2021 8:30:00 AM 6.16 43.088 0.428 7.85 20.29 12.77
3/20/2021 8:45:00 AM 6.14 43.052 0.428 7.86 26.13 12.8
3/20/2021 9:00:00 AM 6.12 43.016 0.427 7.86 36.92 12.82
3/20/2021 9:15:00 AM 6.11 42.998 0.427 7.86 41.21 12.85
3/20/2021 9:30:00 AM 6.11 42.998 0.428 7.87 32.78 12.89
3/20/2021 9:45:00 AM 6.11 42.998 0.428 7.87 35.98 12.9
3/20/2021 10:00:00 AM 6.11 42.998 0.429 7.87 28.23 12.93
3/20/2021 10:15:00 AM 6.13 43.034 0.43 7.88 39.21 12.95
3/20/2021 10:30:00 AM 6.14 43.052 0.431 7.88 34.81 13
3/20/2021 10:45:00 AM 6.17 43.106 0.432 7.88 31.06 13.02
3/20/2021 11:00:00 AM 6.21 43.178 0.432 7.89 36.84 13.05
3/20/2021 11:15:00 AM 6.26 43.268 0.432 7.89 26.55 13.07
3/20/2021 11:30:00 AM -99999.99 -179968 -99999.99 -99999.99 -99999.99 -99999.99
3/20/2021 11:45:00 AM -99999.99 -179968 -99999.99 -99999.99 -99999.99 -99999.99
3/20/2021 12:00:00 PM -99999.99 -179968 -99999.99 -99999.99 -99999.99 -99999.99
3/20/2021 12:15:00 PM -99999.99 -179968 -99999.99 -99999.99 -99999.99 -99999.99
3/20/2021 12:30:00 PM 6.59 43.862 0.433 7.93 33.14 13.21
3/20/2021 12:45:00 PM -99999.99 -179968 -99999.99 -99999.99 -99999.99 -99999.99
3/20/2021 1:00:00 PM -99999.99 -179968 -99999.99 -99999.99 -99999.99 -99999.99
3/20/2021 1:15:00 PM 6.93 44.474 0.435 7.96 34.86 13.29
3/20/2021 1:30:00 PM 7.06 44.708 0.436 7.97 101.18 13.26
3/20/2021 1:45:00 PM 7.19 44.942 0.436 7.98 120.03 13.34
3/20/2021 2:00:00 PM 7.34 45.212 0.437 7.99 320.8 13.36
3/20/2021 2:15:00 PM 7.48 45.464 0.437 8.01 22.76 13.42
3/20/2021 2:30:00 PM 7.62 45.716 0.437 8.02 700.58 13.42
3/20/2021 2:45:00 PM 7.76 45.968 0.436 8.03 60.5 13.43
3/20/2021 3:00:00 PM 7.91 46.238 0.436 8.05 588.32 13.42
3/20/2021 3:15:00 PM 8.04 46.472 0.435 8.06 65.16 13.44
3/20/2021 3:30:00 PM 8.18 46.724 0.435 8.07 173.78 13.45
3/20/2021 3:45:00 PM 8.31 46.958 0.435 8.08 140.01 13.44
3/20/2021 4:00:00 PM 8.44 47.192 0.435 8.09 27.37 13.43
3/20/2021 4:15:00 PM -99999.99 -179968 -99999.99 -99999.99 -99999.99 -99999.99
3/20/2021 4:30:00 PM 8.67 47.606 0.435 8.13 17.79 13.42
3/20/2021 4:45:00 PM 8.77 47.786 0.436 8.14 26.87 13.42
3/20/2021 5:00:00 PM 8.86 47.948 0.437 8.15 18.43 13.39
3/20/2021 5:15:00 PM 8.93 48.074 0.437 8.15 29.37 13.35
3/20/2021 5:30:00 PM 8.99 48.182 0.437 8.16 14.58 13.27
3/20/2021 5:45:00 PM 9.04 48.272 0.438 8.16 16.45 13.28
3/20/2021 6:00:00 PM 9.07 48.326 0.438 8.17 26.53 13.24
3/20/2021 6:15:00 PM 9.1 48.38 0.438 8.17 13.95 13.23
3/20/2021 6:30:00 PM 9.11 48.398 0.437 8.17 29.57 13.22
3/20/2021 6:45:00 PM 9.13 48.434 0.437 8.17 14.79 13.18
3/20/2021 7:00:00 PM 9.15 48.47 0.437 8.17 13.6 13.15
3/20/2021 7:15:00 PM 9.17 48.506 0.437 8.16 13.04 13.06
3/20/2021 7:30:00 PM 9.18 48.524 0.436 8.16 13.79 13.1
3/20/2021 7:45:00 PM 9.19 48.542 0.435 8.16 13.44 13.03
3/20/2021 8:00:00 PM 9.19 48.542 0.435 8.15 13.17 13.05
3/20/2021 8:15:00 PM 9.2 48.56 0.434 8.15 16.64 13.01
3/20/2021 8:30:00 PM 9.2 48.56 0.433 8.15 36.55 12.96
3/20/2021 8:45:00 PM 9.19 48.542 0.432 8.14 28.94 12.95
3/20/2021 9:00:00 PM 9.19 48.542 0.432 8.14 34.65 12.92
3/20/2021 9:15:00 PM 9.18 48.524 0.432 8.13 23.9 12.88
3/20/2021 9:30:00 PM 9.16 48.488 0.432 8.12 38.32 12.85
3/20/2021 9:45:00 PM 9.13 48.434 0.433 8.12 41.16 12.84
3/20/2021 10:00:00 PM 9.1 48.38 0.433 8.11 42.53 12.78
3/20/2021 10:15:00 PM 9.06 48.308 0.434 8.1 38.35 12.76
3/20/2021 10:30:00 PM 9.02 48.236 0.435 8.09 41.05 12.73
3/20/2021 10:45:00 PM 8.97 48.146 0.435 8.08 37.42 12.71
3/20/2021 11:00:00 PM 8.92 48.056 0.436 8.07 38.39 12.67
3/20/2021 11:15:00 PM 8.86 47.948 0.436 8.06 41.08 12.64
3/20/2021 11:30:00 PM 8.8 47.84 0.436 8.04 34.97 12.61
3/20/2021 11:45:00 PM 8.75 47.75 0.436 8.03 35.33 12.57
3/21/2021 12:00:00 AM 8.68 47.624 0.436 8.02 80.14 12.54
3/21/2021 12:15:00 AM 8.62 47.516 0.435 8.01 673.38 12.54
3/21/2021 12:30:00 AM 8.55 47.39 0.435 8 17.19 12.52
3/21/2021 12:45:00 AM 8.49 47.282 0.436 8 17.27 12.48
3/21/2021 1:00:00 AM 8.42 47.156 0.436 7.99 19.7 12.49
3/21/2021 1:15:00 AM 8.36 47.048 0.436 7.98 20.23 12.48
3/21/2021 1:30:00 AM 8.29 46.922 0.437 7.98 20.81 12.47
3/21/2021 1:45:00 AM 8.22 46.796 0.437 7.97 21.01 12.47
3/21/2021 2:00:00 AM 8.15 46.67 0.437 7.97 20.4 12.46
3/21/2021 2:15:00 AM 8.09 46.562 0.438 7.96 20.62 12.48
3/21/2021 2:30:00 AM 8.03 46.454 0.438 7.96 20.53 12.47
3/21/2021 2:45:00 AM 7.97 46.346 0.438 7.95 20.39 12.45
3/21/2021 3:00:00 AM 7.91 46.238 0.439 7.95 21.8 12.44
3/21/2021 3:15:00 AM 7.85 46.13 0.439 7.94 161.22 12.43
3/21/2021 3:30:00 AM 7.79 46.022 0.44 7.94 14.9 12.44
3/21/2021 3:45:00 AM 7.74 45.932 0.441 7.93 14.87 12.45
3/21/2021 4:00:00 AM 7.68 45.824 0.441 7.93 16.04 12.45
3/21/2021 4:15:00 AM 7.63 45.734 0.438 7.93 22.05 12.46
3/21/2021 4:30:00 AM 7.57 45.626 0.443 7.92 28.62 12.44
3/21/2021 4:45:00 AM 7.52 45.536 0.443 7.92 33.53 12.46
3/21/2021 5:00:00 AM 7.46 45.428 0.444 7.91 24.89 12.46
3/21/2021 5:15:00 AM 7.42 45.356 0.445 7.91 22.36 12.46
3/21/2021 5:30:00 AM 7.37 45.266 0.445 7.9 22.13 12.46
3/21/2021 5:45:00 AM 7.32 45.176 0.446 7.9 23 12.46
3/21/2021 6:00:00 AM 7.28 45.104 0.447 7.9 22.93 12.46
3/21/2021 6:15:00 AM 7.23 45.014 0.448 7.9 22.49 12.46
3/21/2021 6:30:00 AM 7.19 44.942 0.45 7.89 22.08 12.46
3/21/2021 6:45:00 AM 7.14 44.852 0.451 7.89 173.51 12.47
3/21/2021 7:00:00 AM 7.09 44.762 0.452 7.89 13.56 12.48
3/21/2021 7:15:00 AM 7.05 44.69 0.453 7.89 13.71 12.49
3/21/2021 7:30:00 AM 7 44.6 0.453 7.88 13 12.52
3/21/2021 7:45:00 AM 6.97 44.546 0.454 7.88 13.02 12.53
3/21/2021 8:00:00 AM 6.94 44.492 0.454 7.88 12.94 12.54
3/21/2021 8:15:00 AM 6.91 44.438 0.453 7.88 12.84 12.56
3/21/2021 8:30:00 AM 6.89 44.402 0.453 7.88 13.48 12.59
3/21/2021 8:45:00 AM 6.87 44.366 0.453 7.88 13.32 12.62
3/21/2021 9:00:00 AM 6.86 44.348 0.453 7.89 13.31 12.67
3/21/2021 9:15:00 AM 6.86 44.348 0.453 7.89 13.41 12.7
3/21/2021 9:30:00 AM 6.87 44.366 0.453 7.89 13.84 12.73
3/21/2021 9:45:00 AM 6.88 44.384 0.454 7.9 13.48 12.75
3/21/2021 10:00:00 AM 6.9 44.42 0.455 7.9 13.89 12.76
3/21/2021 10:15:00 AM 6.92 44.456 0.455 7.91 14.59 12.77
3/21/2021 10:30:00 AM 6.95 44.51 0.456 7.91 13.33 12.81
3/21/2021 10:45:00 AM 6.99 44.582 0.456 7.91 13.07 12.83
3/21/2021 11:00:00 AM 7.03 44.654 0.456 7.92 12.88 12.85
3/21/2021 11:15:00 AM 7.09 44.762 0.456 7.92 13.4 12.81
3/21/2021 11:30:00 AM 7.14 44.852 0.455 7.93 13.98 12.89
3/21/2021 11:45:00 AM 7.2 44.96 0.455 7.93 137.62 12.92
3/21/2021 12:00:00 PM 7.26 45.068 0.454 7.94 153.98 12.95
3/21/2021 12:15:00 PM 7.33 45.194 0.454 7.94 99.29 12.97
3/21/2021 12:30:00 PM 7.42 45.356 0.453 7.95 19.38 13.01
3/21/2021 12:45:00 PM 7.53 45.554 0.453 7.96 19.87 13.02
3/21/2021 1:00:00 PM 7.62 45.716 0.452 7.97 20.44 13.06
3/21/2021 1:15:00 PM 7.74 45.932 0.452 7.98 19.72 13.05
3/21/2021 1:30:00 PM 7.87 46.166 0.451 7.99 20.33 13.11
3/21/2021 1:45:00 PM 8.02 46.436 0.45 8.01 31.84 13.12
3/21/2021 2:00:00 PM 8.17 46.706 0.449 8.02 29.32 13.17
3/21/2021 2:15:00 PM 8.33 46.994 0.448 8.03 26.7 13.19
3/21/2021 2:30:00 PM 8.49 47.282 0.448 8.05 19.24 13.21
3/21/2021 2:45:00 PM 8.65 47.57 0.448 8.06 205.93 13.24
3/21/2021 3:00:00 PM 8.8 47.84 0.448 8.07 242.36 13.24
3/21/2021 3:15:00 PM 8.94 48.092 0.448 8.09 221.54 13.25
3/21/2021 3:30:00 PM 9.11 48.398 0.449 8.1 141.37 13.24
3/21/2021 3:45:00 PM 9.25 48.65 0.449 8.11 138.98 13.26
3/21/2021 4:00:00 PM 9.38 48.884 0.449 8.12 7.99 13.27
3/21/2021 4:15:00 PM 9.52 49.136 0.449 8.14 11.69 13.24
3/21/2021 4:30:00 PM 9.64 49.352 0.449 8.15 11.37 13.23
3/21/2021 4:45:00 PM 9.75 49.55 0.448 8.17 10.29 13.21
3/21/2021 5:00:00 PM 9.85 49.73 0.448 8.18 10.03 13.21
3/21/2021 5:15:00 PM 9.95 49.91 0.448 8.19 9.85 13.14
3/21/2021 5:30:00 PM 10.03 50.054 0.447 8.2 10.06 13.17
3/21/2021 5:45:00 PM 10.1 50.18 0.447 8.21 10.09 13.13
3/21/2021 6:00:00 PM 10.15 50.27 0.447 8.21 9.88 13.11
3/21/2021 6:15:00 PM 10.19 50.342 0.447 8.22 10.66 13.04
3/21/2021 6:30:00 PM 10.22 50.396 0.447 8.22 10.06 13.02
3/21/2021 6:45:00 PM 10.24 50.432 0.447 8.22 10.23 13
3/21/2021 7:00:00 PM 10.27 50.486 0.447 8.22 9.97 12.95
3/21/2021 7:15:00 PM 10.28 50.504 0.447 8.22 10.01 12.89
3/21/2021 7:30:00 PM 10.3 50.54 0.447 8.22 9.99 12.82
3/21/2021 7:45:00 PM 10.31 50.558 0.446 8.22 10.64 12.85
3/21/2021 8:00:00 PM 10.32 50.576 0.446 8.22 9.05 12.82
3/21/2021 8:15:00 PM 10.34 50.612 0.445 8.21 10.96 12.79
3/21/2021 8:30:00 PM 10.34 50.612 0.446 8.21 11.39 12.77
3/21/2021 8:45:00 PM 10.34 50.612 0.445 8.21 67.92 12.74
3/21/2021 9:00:00 PM -99999.99 -179968 -99999.99 -99999.99 -99999.99 -99999.99
3/21/2021 9:15:00 PM 10.33 50.594 0.444 8.2 10.24 12.67
3/21/2021 9:30:00 PM 10.32 50.576 0.444 8.19 10.31 12.61
3/21/2021 9:45:00 PM 10.3 50.54 0.444 8.18 10.59 12.59
3/21/2021 10:00:00 PM 10.28 50.504 0.444 8.17 10.22 12.55
3/21/2021 10:15:00 PM 10.25 50.45 0.442 8.17 10.82 12.51
3/21/2021 10:30:00 PM 10.22 50.396 0.441 8.16 10.59 12.5
3/21/2021 10:45:00 PM 10.17 50.306 0.441 8.15 11.68 12.45
3/21/2021 11:00:00 PM 10.12 50.216 0.442 8.14 11.19 12.42
3/21/2021 11:15:00 PM 10.07 50.126 0.442 8.12 11.26 12.38
3/21/2021 11:30:00 PM 10.02 50.036 0.444 8.11 12.04 12.33
3/21/2021 11:45:00 PM 9.96 49.928 0.443 8.1 63.59 12.32
3/22/2021 12:00:00 AM 9.89 49.802 0.443 8.09 8.72 12.28
3/22/2021 12:15:00 AM 9.82 49.676 0.444 8.08 8.78 12.24
3/22/2021 12:30:00 AM 9.75 49.55 0.443 8.07 8.82 12.21
3/22/2021 12:45:00 AM 9.68 49.424 0.443 8.05 8.68 12.18
3/22/2021 1:00:00 AM 9.6 49.28 0.442 8.04 8.64 12.17
3/22/2021 1:15:00 AM 9.54 49.172 0.442 8.03 9.11 12.14
3/22/2021 1:30:00 AM 9.46 49.028 0.442 8.03 9.01 12.13
3/22/2021 1:45:00 AM 9.39 48.902 0.442 8.02 9.31 12.09
3/22/2021 2:00:00 AM 9.32 48.776 0.442 8.01 9.17 12.12
3/22/2021 2:15:00 AM 9.25 48.65 0.443 8.01 9.48 12.11
3/22/2021 2:30:00 AM 9.19 48.542 0.444 8 8.97 12.09
3/22/2021 2:45:00 AM 9.12 48.416 0.447 7.99 9.27 12.07
3/22/2021 3:00:00 AM 9.05 48.29 0.448 7.99 294.24 12.08
3/22/2021 3:15:00 AM 8.98 48.164 0.448 7.98 18.58 12.07
3/22/2021 3:30:00 AM 8.91 48.038 0.449 7.98 18.04 12.08
3/22/2021 3:45:00 AM 8.85 47.93 0.45 7.97 16.52 12.08
3/22/2021 4:00:00 AM 8.78 47.804 0.45 7.97 15.27 12.08
3/22/2021 4:15:00 AM 8.72 47.696 0.45 7.96 15.66 12.08
3/22/2021 4:30:00 AM 8.66 47.588 0.451 7.96 14.85 12.09
3/22/2021 4:45:00 AM 8.6 47.48 0.452 7.95 27.78 12.08
3/22/2021 5:00:00 AM 8.54 47.372 0.453 7.95 47.33 12.08
3/22/2021 5:15:00 AM 8.49 47.282 0.453 7.94 292.11 12.03
3/22/2021 5:30:00 AM 8.44 47.192 0.454 7.94 19.34 12.08
3/22/2021 5:45:00 AM 8.38 47.084 0.454 7.93 17.4 12.08
3/22/2021 6:00:00 AM 8.33 46.994 0.455 7.93 9.84 12.08
3/22/2021 6:15:00 AM 8.29 46.922 0.455 7.93 14.93 12.04
3/22/2021 6:30:00 AM 8.23 46.814 0.455 7.93 21 12.09
3/22/2021 6:45:00 AM 8.18 46.724 0.456 7.92 14.83 12.1
3/22/2021 7:00:00 AM 8.13 46.634 0.456 7.92 10.43 12.1
3/22/2021 7:15:00 AM 8.09 46.562 0.456 7.92 33.22 12.13
3/22/2021 7:30:00 AM 8.04 46.472 0.457 7.91 39.01 12.14
3/22/2021 7:45:00 AM 8 46.4 0.458 7.91 33.78 12.17
3/22/2021 8:00:00 AM 7.96 46.328 0.458 7.91 33.43 12.18
3/22/2021 8:15:00 AM 7.93 46.274 0.459 7.91 33.97 12.19
3/22/2021 8:30:00 AM 7.9 46.22 0.459 7.91 33.66 12.22
3/22/2021 8:45:00 AM 7.88 46.184 0.46 7.92 26.36 12.26
3/22/2021 9:00:00 AM 7.87 46.166 0.459 7.92 29.39 12.3
3/22/2021 9:15:00 AM 7.88 46.184 0.459 7.92 23.5 12.32
3/22/2021 9:30:00 AM 7.89 46.202 0.459 7.92 35.75 12.34
3/22/2021 9:45:00 AM 7.92 46.256 0.459 7.92 27.72 12.38
3/22/2021 10:00:00 AM 7.94 46.292 0.458 7.93 29.89 12.42
3/22/2021 10:15:00 AM 7.96 46.328 0.458 7.94 29.78 12.45
3/22/2021 10:30:00 AM 7.99 46.382 0.458 7.94 32.79 12.48
3/22/2021 10:45:00 AM 8.03 46.454 0.457 7.94 45.8 12.51
3/22/2021 11:00:00 AM 8.06 46.508 0.457 7.94 37.75 12.54
3/22/2021 11:15:00 AM 8.12 46.616 0.457 7.95 38.21 12.56
3/22/2021 11:30:00 AM 8.16 46.688 0.457 7.95 34.79 12.57
3/22/2021 11:45:00 AM 8.22 46.796 0.457 7.96 6.7 12.59
3/22/2021 12:00:00 PM 8.28 46.904 0.457 7.96 7.5 12.62
3/22/2021 12:15:00 PM 8.34 47.012 0.457 7.97 7.26 12.65
3/22/2021 12:30:00 PM 8.41 47.138 0.456 7.98 7.55 12.68
3/22/2021 12:45:00 PM 8.5 47.3 0.456 7.98 54.99 12.7
3/22/2021 1:00:00 PM 8.58 47.444 0.456 7.99 35.94 12.74
3/22/2021 1:15:00 PM 8.69 47.642 0.456 8 27.37 12.79
3/22/2021 1:30:00 PM 8.82 47.876 0.456 8.02 228.13 12.8
3/22/2021 1:45:00 PM 8.95 48.11 0.455 8.03 187.12 12.85
3/22/2021 2:00:00 PM 9.1 48.38 0.455 8.04 165.83 12.86
3/22/2021 2:15:00 PM 9.26 48.668 0.455 8.06 3738.74 12.9
3/22/2021 2:30:00 PM 9.41 48.938 0.455 8.07 106.43 12.93
3/22/2021 2:45:00 PM 9.55 49.19 0.454 8.09 8.53 12.95
3/22/2021 3:00:00 PM 9.7 49.46 0.454 8.1 36.94 12.97
3/22/2021 3:15:00 PM 9.84 49.712 0.454 8.12 27.56 12.99
3/22/2021 3:30:00 PM 9.98 49.964 0.453 8.14 30.7 13.02
3/22/2021 3:45:00 PM 10.12 50.216 0.453 8.16 46.94 13.03
3/22/2021 4:00:00 PM 10.24 50.432 0.453 8.18 67.96 13.02
3/22/2021 4:15:00 PM 10.36 50.648 0.453 8.19 32.35 13.03
3/22/2021 4:30:00 PM 10.47 50.846 0.453 8.21 31.02 13.04
3/22/2021 4:45:00 PM 10.58 51.044 0.454 8.22 28.8 13.04
3/22/2021 5:00:00 PM 10.68 51.224 0.453 8.24 28.15 13.03
3/22/2021 5:15:00 PM 10.77 51.386 0.453 8.25 22.87 12.97
3/22/2021 5:30:00 PM 10.84 51.512 0.453 8.26 14.61 12.99
3/22/2021 5:45:00 PM 10.91 51.638 0.453 8.27 12.59 12.97
3/22/2021 6:00:00 PM 10.96 51.728 0.452 8.27 10.26 12.92
3/22/2021 6:15:00 PM 11 51.8 0.451 8.28 10.51 12.89
3/22/2021 6:30:00 PM 11.02 51.836 0.451 8.29 10.5 12.87
3/22/2021 6:45:00 PM 11.05 51.89 0.451 8.29 9.28 12.83
3/22/2021 7:00:00 PM 11.07 51.926 0.451 8.3 9.82 12.8
3/22/2021 7:15:00 PM 11.09 51.962 0.451 8.3 2174.81 12.77
3/22/2021 7:30:00 PM 11.11 51.998 0.452 8.29 7.91 12.74
3/22/2021 7:45:00 PM 11.12 52.016 0.452 8.29 10.61 12.72
3/22/2021 8:00:00 PM 11.13 52.034 0.452 8.29 30.63 12.7
3/22/2021 8:15:00 PM 11.14 52.052 0.452 8.29 25.65 12.67
3/22/2021 8:30:00 PM 11.14 52.052 0.452 8.29 19.49 12.65
3/22/2021 8:45:00 PM 11.13 52.034 0.452 8.28 17.48 12.61
3/22/2021 9:00:00 PM 11.13 52.034 0.452 8.28 17.6 12.58
3/22/2021 9:15:00 PM 11.12 52.016 0.451 8.27 18.47 12.55
3/22/2021 9:30:00 PM 11.1 51.98 0.452 8.27 18.45 12.51
3/22/2021 9:45:00 PM 11.08 51.944 0.45 8.27 14.13 12.48
3/22/2021 10:00:00 PM 11.05 51.89 0.449 8.26 26.39 12.43
3/22/2021 10:15:00 PM 11.02 51.836 0.448 8.25 33.87 12.39
3/22/2021 10:30:00 PM 10.99 51.782 0.447 8.24 34.24 12.35
3/22/2021 10:45:00 PM 10.94 51.692 0.446 8.22 37.26 12.31
3/22/2021 11:00:00 PM 10.89 51.602 0.445 8.21 29.49 12.27
3/22/2021 11:15:00 PM 10.84 51.512 0.443 8.2 29.1 12.22
3/22/2021 11:30:00 PM 10.77 51.386 0.444 8.18 14.28 12.17
3/22/2021 11:45:00 PM 10.7 51.26 0.44 8.17 29.7 12.14
3/23/2021 12:00:00 AM 10.64 51.152 0.44 8.15 29.11 12.11
3/23/2021 12:15:00 AM 10.57 51.026 0.44 8.14 29.73 12.08
3/23/2021 12:30:00 AM 10.49 50.882 0.44 8.12 29.28 12.04
3/23/2021 12:45:00 AM 10.42 50.756 0.44 8.11 28.62 12.01
3/23/2021 1:00:00 AM 10.34 50.612 0.441 8.1 22.36 11.97
3/23/2021 1:15:00 AM 10.27 50.486 0.441 8.09 21.67 11.96
3/23/2021 1:30:00 AM 10.19 50.342 0.443 8.08 19.79 11.94
3/23/2021 1:45:00 AM 10.11 50.198 0.442 8.07 20.14 11.92
3/23/2021 2:00:00 AM 10.04 50.072 0.442 8.06 34.65 11.91
3/23/2021 2:15:00 AM 9.96 49.928 0.444 8.05 43.45 11.91
3/23/2021 2:30:00 AM 9.88 49.784 0.444 8.04 48.31 11.9
3/23/2021 2:45:00 AM 9.81 49.658 0.444 8.03 50.81 11.89
3/23/2021 3:00:00 AM 9.73 49.514 0.444 8.03 47.27 11.87
3/23/2021 3:15:00 AM 9.66 49.388 0.444 8.02 43.14 11.87
3/23/2021 3:30:00 AM 9.59 49.262 0.444 8.02 41.42 11.88
3/23/2021 3:45:00 AM 9.52 49.136 0.444 8.01 42.69 11.87
3/23/2021 4:00:00 AM 9.45 49.01 0.445 8 39.87 11.86
3/23/2021 4:15:00 AM 9.39 48.902 0.444 8 29.69 11.86
3/23/2021 4:30:00 AM 9.33 48.794 0.445 7.99 30.54 11.85
3/23/2021 4:45:00 AM 9.26 48.668 0.446 7.99 30.02 11.85
3/23/2021 5:00:00 AM 9.2 48.56 0.443 7.98 24.07 11.85
3/23/2021 5:15:00 AM 9.14 48.452 0.444 7.98 30 11.85
3/23/2021 5:30:00 AM 9.08 48.344 0.446 7.97 28.69 11.83
3/23/2021 5:45:00 AM 9.02 48.236 0.448 7.97 33.56 11.85
3/23/2021 6:00:00 AM 8.97 48.146 0.45 7.96 32.44 11.86
3/23/2021 6:15:00 AM 8.92 48.056 0.451 7.96 32.75 11.85
3/23/2021 6:30:00 AM 8.87 47.966 0.453 7.95 31.28 11.86
3/23/2021 6:45:00 AM 8.82 47.876 0.455 7.95 30.74 11.86
3/23/2021 7:00:00 AM 8.78 47.804 0.456 7.94 31.51 11.87
3/23/2021 7:15:00 AM 8.73 47.714 0.457 7.94 31.7 11.88
3/23/2021 7:30:00 AM 8.69 47.642 0.458 7.94 31.03 11.91
3/23/2021 7:45:00 AM 8.65 47.57 0.459 7.94 23.72 11.94
3/23/2021 8:00:00 AM 8.61 47.498 0.46 7.94 33.61 11.95
3/23/2021 8:15:00 AM 8.59 47.462 0.46 7.94 31.01 11.97
3/23/2021 8:30:00 AM 8.57 47.426 0.459 7.94 30.28 12.01
3/23/2021 8:45:00 AM 8.56 47.408 0.46 7.94 31.01 12.04
3/23/2021 9:00:00 AM 8.56 47.408 0.461 7.94 11.91 12.08
3/23/2021 9:15:00 AM 8.56 47.408 0.462 7.94 11.43 12.12
3/23/2021 9:30:00 AM 8.57 47.426 0.461 7.95 12.81 12.14
3/23/2021 9:45:00 AM 8.59 47.462 0.46 7.95 12.17 12.16
3/23/2021 10:00:00 AM 8.63 47.534 0.46 7.96 11.44 12.22
3/23/2021 10:15:00 AM 8.67 47.606 0.46 7.96 12.13 12.25
3/23/2021 10:30:00 AM 8.69 47.642 0.459 7.96 10.69 12.27
3/23/2021 10:45:00 AM 8.73 47.714 0.458 7.97 11.03 12.3
3/23/2021 11:00:00 AM 8.77 47.786 0.458 7.97 11.86 12.31
3/23/2021 11:15:00 AM 8.79 47.822 0.457 7.97 11.13 12.32
3/23/2021 11:30:00 AM 8.86 47.948 0.458 7.98 11.28 12.36
3/23/2021 11:45:00 AM 8.92 48.056 0.458 7.98 13.11 12.38
3/23/2021 12:00:00 PM 8.99 48.182 0.458 7.99 13.66 12.42
3/23/2021 12:15:00 PM 9.05 48.29 0.458 7.99 13.75 12.44
3/23/2021 12:30:00 PM 9.13 48.434 0.459 8 12.48 12.46
3/23/2021 12:45:00 PM 9.2 48.56 0.459 8 12.95 12.5
3/23/2021 1:00:00 PM 9.27 48.686 0.46 8.01 13.08 12.54
3/23/2021 1:15:00 PM 9.33 48.794 0.46 8.02 12.72 12.55
3/23/2021 1:30:00 PM 9.46 49.028 0.46 8.04 13.61 12.63
3/23/2021 1:45:00 PM 9.6 49.28 0.461 8.05 13.21 12.68
3/23/2021 2:00:00 PM 9.73 49.514 0.461 8.07 13.16 12.71
3/23/2021 2:15:00 PM 9.84 49.712 0.461 8.08 12.08 12.75
3/23/2021 2:30:00 PM 9.94 49.892 0.461 8.1 11.73 12.78
3/23/2021 2:45:00 PM 10.07 50.126 0.463 8.12 11.16 12.82
3/23/2021 3:00:00 PM 10.17 50.306 0.46 8.13 10.82 12.86
3/23/2021 3:15:00 PM 10.3 50.54 0.459 8.15 11.29 12.89
3/23/2021 3:30:00 PM 10.44 50.792 0.461 8.17 12.42 12.92
3/23/2021 3:45:00 PM 10.61 51.098 0.46 8.2 10.93 12.99
3/23/2021 4:00:00 PM 10.7 51.26 0.459 8.21 7.67 12.97
3/23/2021 4:15:00 PM 10.75 51.35 0.458 8.23 260.58 12.93
3/23/2021 4:30:00 PM 10.87 51.566 0.457 8.25 7.72 13
3/23/2021 4:45:00 PM 10.97 51.746 0.456 8.26 261.62 12.98
3/23/2021 5:00:00 PM 11.08 51.944 0.456 8.28 263.78 13.01
3/23/2021 5:15:00 PM 11.16 52.088 0.456 8.29 12.59 12.98
3/23/2021 5:30:00 PM 11.23 52.214 0.456 8.3 12.07 12.93
3/23/2021 5:45:00 PM 11.3 52.34 0.456 8.31 27.71 12.93
3/23/2021 6:00:00 PM 11.37 52.466 0.456 8.32 8.42 12.89
3/23/2021 6:15:00 PM 11.44 52.592 0.456 8.34 13.81 12.87
3/23/2021 6:30:00 PM 11.51 52.718 0.456 8.34 8.34 12.86
3/23/2021 6:45:00 PM 11.56 52.808 0.456 8.35 7.98 12.84
3/23/2021 7:00:00 PM 11.62 52.916 0.456 8.36 9.03 12.8
3/23/2021 7:15:00 PM 11.66 52.988 0.456 8.36 9.32 12.76
3/23/2021 7:30:00 PM 11.69 53.042 0.455 8.37 9.37 12.74
3/23/2021 7:45:00 PM 11.72 53.096 0.455 8.37 9.53 12.7
3/23/2021 8:00:00 PM 11.75 53.15 0.455 8.37 7.43 12.7
3/23/2021 8:15:00 PM 11.77 53.186 0.444 8.37 8.95 12.68
3/23/2021 8:30:00 PM 11.79 53.222 0.454 8.37 8.67 12.65
3/23/2021 8:45:00 PM 11.8 53.24 0.453 8.37 166.91 12.62
3/23/2021 9:00:00 PM 11.81 53.258 0.453 8.37 15.67 12.59
3/23/2021 9:15:00 PM 11.81 53.258 0.452 8.37 15.92 12.56
3/23/2021 9:30:00 PM 11.82 53.276 0.452 8.37 14.69 12.52
3/23/2021 9:45:00 PM 11.81 53.258 0.451 8.36 18.5 12.49
3/23/2021 10:00:00 PM 11.8 53.24 0.451 8.36 9.62 12.45
3/23/2021 10:15:00 PM 11.79 53.222 0.45 8.36 11.16 12.39
3/23/2021 10:30:00 PM 11.77 53.186 0.449 8.35 10 12.33
3/23/2021 10:45:00 PM 11.75 53.15 0.449 8.34 13.35 12.29
3/23/2021 11:00:00 PM 11.72 53.096 0.449 8.33 8.74 12.22
3/23/2021 11:15:00 PM 11.68 53.024 0.448 8.31 9.82 12.17
3/23/2021 11:30:00 PM 11.64 52.952 0.447 8.29 9.46 12.12
3/23/2021 11:45:00 PM 11.6 52.88 0.447 8.27 10.1 12.05
3/24/2021 12:00:00 AM 11.55 52.79 0.446 8.25 9.95 11.99
3/24/2021 12:15:00 AM 11.51 52.718 0.444 8.23 10.77 11.94
3/24/2021 12:30:00 AM 11.47 52.646 0.444 8.21 10.7 11.9
3/24/2021 12:45:00 AM 11.43 52.574 0.437 8.2 15.24 11.85
3/24/2021 1:00:00 AM 11.39 52.502 0.444 8.18 15.61 11.78
3/24/2021 1:15:00 AM 11.35 52.43 0.444 8.17 12.32 11.75
3/24/2021 1:30:00 AM 11.31 52.358 0.444 8.15 12.79 11.72
3/24/2021 1:45:00 AM 11.27 52.286 0.444 8.14 12.76 11.69
3/24/2021 2:00:00 AM 11.23 52.214 0.444 8.13 10.5 11.67
3/24/2021 2:15:00 AM 11.19 52.142 0.444 8.12 13.03 11.63
3/24/2021 2:30:00 AM 11.15 52.07 0.444 8.11 10.11 11.6
3/24/2021 2:45:00 AM 11.11 51.998 0.444 8.11 105.81 11.6
3/24/2021 3:00:00 AM 11.07 51.926 0.444 8.1 102.31 11.57
3/24/2021 3:15:00 AM 11.04 51.872 0.444 8.09 104.16 11.54
3/24/2021 3:30:00 AM 11 51.8 0.444 8.08 116.15 11.52
3/24/2021 3:45:00 AM 10.97 51.746 0.444 8.07 105.9 11.42
3/24/2021 4:00:00 AM 10.94 51.692 0.444 8.07 98.84 11.45
3/24/2021 4:15:00 AM 10.91 51.638 0.444 8.06 121.73 11.44
3/24/2021 4:30:00 AM 10.88 51.584 0.444 8.05 108.35 11.41
3/24/2021 4:45:00 AM 10.85 51.53 0.444 8.05 115.81 11.41
3/24/2021 5:00:00 AM 10.83 51.494 0.445 8.04 93.46 11.41
3/24/2021 5:15:00 AM 10.81 51.458 0.446 8.03 113.19 11.43
3/24/2021 5:30:00 AM 10.79 51.422 0.446 8.03 755.67 11.21
3/24/2021 5:45:00 AM 10.77 51.386 0.447 8.02 500.08 11.27
3/24/2021 6:00:00 AM 10.76 51.368 0.448 8.02 2889.32 11.25
3/24/2021 6:15:00 AM 10.75 51.35 0.449 8.01 62.68 11.36
3/24/2021 6:30:00 AM 10.74 51.332 0.45 8 64.62 11.34
3/24/2021 6:45:00 AM 10.73 51.314 0.451 8 62.17 11.34
3/24/2021 7:00:00 AM 10.73 51.314 0.452 7.99 81.45 11.32
3/24/2021 7:15:00 AM 10.72 51.296 0.453 7.99 118.32 11.31
3/24/2021 7:30:00 AM 10.72 51.296 0.454 7.98 60.92 11.31
3/24/2021 7:45:00 AM 10.72 51.296 0.455 7.98 73.56 11.3
3/24/2021 8:00:00 AM 10.72 51.296 0.454 7.97 57.6 11.29
3/24/2021 8:15:00 AM 10.72 51.296 0.455 7.97 65.99 11.29
3/24/2021 8:30:00 AM 10.73 51.314 0.455 7.96 67.17 11.29
3/24/2021 8:45:00 AM 10.73 51.314 0.455 7.96 110.66 11.28
3/24/2021 9:00:00 AM 10.74 51.332 0.456 7.96 15.98 11.29
3/24/2021 9:15:00 AM 10.74 51.332 0.456 7.95 17.47 11.28
3/24/2021 9:30:00 AM 10.75 51.35 0.457 7.95 28.1 11.27
3/24/2021 9:45:00 AM 10.75 51.35 0.457 7.95 3023.77 11.2
3/24/2021 10:00:00 AM 10.76 51.368 0.458 7.94 3717.16 11.25
3/24/2021 10:15:00 AM 10.77 51.386 0.458 7.94 3331.1 11.2
3/24/2021 10:30:00 AM 10.78 51.404 0.458 7.94 3190.12 11.28
3/24/2021 10:45:00 AM 10.79 51.422 0.458 7.94 414.95 11.32
3/24/2021 11:00:00 AM 10.81 51.458 0.458 7.94 326.89 11.35
3/24/2021 11:15:00 AM 10.82 51.476 0.458 7.94 272.09 11.31
3/24/2021 11:30:00 AM 10.82 51.476 0.457 7.93 181.24 11.31
3/24/2021 11:45:00 AM 10.84 51.512 0.455 7.93 40.81 11.25
3/24/2021 12:00:00 PM 10.85 51.53 0.454 7.94 26.19 11.21
3/24/2021 12:15:00 PM 10.85 51.53 0.453 7.93 29.82 11.19
3/24/2021 12:30:00 PM 10.86 51.548 0.455 7.92 28.84 11.24
3/24/2021 12:45:00 PM 10.87 51.566 0.452 7.93 79.59 11.34
3/24/2021 1:00:00 PM 10.88 51.584 0.451 7.93 66.36 11.34
3/24/2021 1:15:00 PM 10.88 51.584 0.452 7.93 32.04 11.32
3/24/2021 1:30:00 PM 10.89 51.602 0.451 7.93 4312.59 11.39
3/24/2021 1:45:00 PM 10.9 51.62 0.45 7.93 1180.24 11.41
3/24/2021 2:00:00 PM 10.9 51.62 0.45 7.93 4017.72 11.44
3/24/2021 2:15:00 PM 10.92 51.656 0.449 7.94 1597.79 11.49
3/24/2021 2:30:00 PM 10.93 51.674 0.449 7.94 9.04 11.5
3/24/2021 2:45:00 PM 10.94 51.692 0.449 7.95 7.53 11.53
3/24/2021 3:00:00 PM 10.96 51.728 0.448 7.95 7.23 11.57
3/24/2021 3:15:00 PM 10.98 51.764 0.447 7.95 8.04 11.59
3/24/2021 3:30:00 PM 10.99 51.782 0.442 7.94 10.21 11.59
3/24/2021 3:45:00 PM 11.01 51.818 0.44 7.95 11.72 11.6
3/24/2021 4:00:00 PM 11.03 51.854 0.442 7.95 11.38 11.64
3/24/2021 4:15:00 PM 11.05 51.89 0.438 7.95 35.76 11.66
3/24/2021 4:30:00 PM 11.08 51.944 0.437 7.95 23.63 11.68
3/24/2021 4:45:00 PM 11.11 51.998 0.428 7.93 21.8 11.67
3/24/2021 5:00:00 PM 11.14 52.052 0.419 7.92 23.98 11.69
3/24/2021 5:15:00 PM 11.17 52.106 0.416 7.93 27.12 11.72
3/24/2021 5:30:00 PM 11.18 52.124 0.41 7.94 12.49 11.74
3/24/2021 5:45:00 PM 11.18 52.124 0.398 7.93 14.52 11.73
3/24/2021 6:00:00 PM 11.17 52.106 0.405 7.92 118.73 11.74
3/24/2021 6:15:00 PM 11.15 52.07 0.401 7.91 49.84 11.73
3/24/2021 6:30:00 PM 11.13 52.034 0.398 7.92 29.66 11.74
3/24/2021 6:45:00 PM 11.12 52.016 0.394 7.91 31.49 11.76
3/24/2021 7:00:00 PM 11.1 51.98 0.378 7.91 20.96 11.79
3/24/2021 7:15:00 PM 11.07 51.926 0.385 7.91 19.18 11.79
3/24/2021 7:30:00 PM 11.06 51.908 0.385 7.89 23.94 11.76
3/24/2021 7:45:00 PM 11.06 51.908 0.377 7.88 29.62 11.71
3/24/2021 8:00:00 PM 11.1 51.98 0.365 7.86 30.3 11.65
3/24/2021 8:15:00 PM 11.17 52.106 0.346 7.83 35.18 11.56
3/24/2021 8:30:00 PM 11.25 52.25 0.324 7.81 48.36 11.5
3/24/2021 8:45:00 PM 11.29 52.322 0.308 7.8 54.2 11.46
3/24/2021 9:00:00 PM 11.28 52.304 0.299 7.78 44.86 11.46
3/24/2021 9:15:00 PM 11.22 52.196 0.294 7.77 53.51 11.49
3/24/2021 9:30:00 PM 11.14 52.052 0.29 7.76 68.49 11.52
3/24/2021 9:45:00 PM 11.06 51.908 0.283 7.75 117.2 11.53
3/24/2021 10:00:00 PM 10.98 51.764 0.276 7.74 85.88 11.54
3/24/2021 10:15:00 PM 10.91 51.638 0.272 7.71 96.16 11.55
3/24/2021 10:30:00 PM 10.86 51.548 0.269 7.72 89.13 11.55
3/24/2021 10:45:00 PM 10.83 51.494 0.266 7.7 111.82 11.54
3/24/2021 11:00:00 PM 10.81 51.458 0.262 7.69 110.06 11.52
3/24/2021 11:15:00 PM 10.8 51.44 0.262 7.69 119.68 11.5
3/24/2021 11:30:00 PM 10.79 51.422 0.265 7.68 107.93 11.48
3/24/2021 11:45:00 PM 10.79 51.422 0.267 7.67 125.09 11.47
3/25/2021 12:00:00 AM 10.78 51.404 0.267 7.67 102.62 11.47
3/25/2021 12:15:00 AM 10.78 51.404 0.267 7.67 99.96 11.47
3/25/2021 12:30:00 AM 10.78 51.404 0.267 7.67 124.3 11.47
3/25/2021 12:45:00 AM 10.77 51.386 0.268 7.66 102.41 11.48
3/25/2021 1:00:00 AM 10.77 51.386 0.272 7.65 95.1 11.48
3/25/2021 1:15:00 AM 10.76 51.368 0.276 7.64 94.85 11.48
3/25/2021 1:30:00 AM 10.76 51.368 0.28 7.64 82.7 11.49
3/25/2021 1:45:00 AM 10.75 51.35 0.282 7.64 73.68 11.47
3/25/2021 2:00:00 AM 10.75 51.35 0.284 7.63 83.51 11.45
3/25/2021 2:15:00 AM 10.74 51.332 0.285 7.63 109.45 11.43
3/25/2021 2:30:00 AM 10.74 51.332 0.289 7.63 75.05 11.42
3/25/2021 2:45:00 AM 10.74 51.332 0.292 7.63 72.58 11.41
3/25/2021 3:00:00 AM 10.74 51.332 0.292 7.64 64.65 11.4
3/25/2021 3:15:00 AM 10.74 51.332 0.294 7.64 74.7 11.4
3/25/2021 3:30:00 AM 10.73 51.314 0.293 7.64 69.44 11.4
3/25/2021 3:45:00 AM 10.73 51.314 0.294 7.64 59.28 11.41
3/25/2021 4:00:00 AM 10.72 51.296 0.295 7.64 78.87 11.41
3/25/2021 4:15:00 AM 10.71 51.278 0.297 7.65 69.83 11.43
3/25/2021 4:30:00 AM 10.7 51.26 0.3 7.64 64.76 11.44
3/25/2021 4:45:00 AM 10.7 51.26 0.303 7.64 52.61 11.44
3/25/2021 5:00:00 AM 10.69 51.242 0.305 7.65 60.51 11.44
3/25/2021 5:15:00 AM 10.67 51.206 0.306 7.64 50.32 11.46
3/25/2021 5:30:00 AM 10.66 51.188 0.306 7.64 48.85 11.47
3/25/2021 5:45:00 AM 10.65 51.17 0.305 7.65 48.75 11.48
3/25/2021 6:00:00 AM 10.63 51.134 0.304 7.65 44.66 11.49
3/25/2021 6:15:00 AM 10.62 51.116 0.304 7.65 48.94 11.5
3/25/2021 6:30:00 AM 10.61 51.098 0.303 7.65 41.49 11.5
3/25/2021 6:45:00 AM 10.59 51.062 0.306 7.64 40.52 11.51
3/25/2021 7:00:00 AM 10.58 51.044 0.307 7.65 41.52 11.52
3/25/2021 7:15:00 AM 10.57 51.026 0.306 7.64 30.71 11.52
3/25/2021 7:30:00 AM 10.56 51.008 0.306 7.64 36.1 11.53
3/25/2021 7:45:00 AM 10.55 50.99 0.304 7.65 35.73 11.54
3/25/2021 8:00:00 AM 10.54 50.972 0.304 7.64 33.83 11.55
3/25/2021 8:15:00 AM 10.54 50.972 0.304 7.65 30.93 11.55
3/25/2021 8:30:00 AM 10.54 50.972 0.306 7.66 31.34 11.57
3/25/2021 8:45:00 AM 10.54 50.972 0.309 7.66 30.42 11.57
3/25/2021 9:00:00 AM 10.54 50.972 0.312 7.66 30.15 11.57
3/25/2021 9:15:00 AM 10.55 50.99 0.314 7.66 28.38 11.57
3/25/2021 9:30:00 AM 10.56 51.008 0.315 7.67 27.19 11.57
3/25/2021 9:45:00 AM 10.58 51.044 0.315 7.67 26.8 11.57
3/25/2021 10:00:00 AM 10.6 51.08 0.315 7.68 26.42 11.58
3/25/2021 10:15:00 AM 10.61 51.098 0.315 7.68 24.7 11.58
3/25/2021 10:30:00 AM 10.62 51.116 0.315 7.68 27.64 11.57
3/25/2021 10:45:00 AM 10.64 51.152 0.316 7.69 23.15 11.58
3/25/2021 11:00:00 AM 10.66 51.188 0.318 7.69 22.6 11.59
3/25/2021 11:15:00 AM 10.69 51.242 0.319 7.69 20.99 11.6
3/25/2021 11:30:00 AM 10.72 51.296 0.319 7.7 20.99 11.6
3/25/2021 11:45:00 AM 10.75 51.35 0.319 7.71 19.88 11.61
3/25/2021 12:00:00 PM 10.8 51.44 0.32 7.72 20.21 11.63
3/25/2021 12:15:00 PM 10.85 51.53 0.321 7.72 19.08 11.64
3/25/2021 12:30:00 PM 10.9 51.62 0.324 7.72 27.15 11.63
3/25/2021 12:45:00 PM 10.95 51.71 0.326 7.73 16.97 11.62
3/25/2021 1:00:00 PM 11 51.8 0.329 7.74 17.75 11.64
3/25/2021 1:15:00 PM 11.04 51.872 0.33 7.74 17.44 11.64
3/25/2021 1:30:00 PM 11.09 51.962 0.331 7.75 15.44 11.65
3/25/2021 1:45:00 PM 11.16 52.088 0.332 7.76 15.49 11.67
3/25/2021 2:00:00 PM 11.22 52.196 0.334 7.77 14.33 11.67
3/25/2021 2:15:00 PM 11.3 52.34 0.334 7.78 14.12 11.69
3/25/2021 2:30:00 PM 11.36 52.448 0.335 7.79 13.22 11.69
3/25/2021 2:45:00 PM 11.43 52.574 0.336 7.8 15.05 11.7
3/25/2021 3:00:00 PM 11.51 52.718 0.338 7.81 13.41 11.73
3/25/2021 3:15:00 PM 11.57 52.826 0.338 7.82 13.01 11.73
3/25/2021 3:30:00 PM 11.64 52.952 0.339 7.83 12.57 11.72
3/25/2021 3:45:00 PM 11.72 53.096 0.34 7.84 12.15 11.72
3/25/2021 4:00:00 PM 11.77 53.186 0.342 7.85 11.67 11.72
3/25/2021 4:15:00 PM 11.83 53.294 0.345 7.85 12.56 11.74
3/25/2021 4:30:00 PM 11.88 53.384 0.345 7.86 11.4 11.72
3/25/2021 4:45:00 PM 11.92 53.456 0.347 7.87 11.43 11.71
3/25/2021 5:00:00 PM 11.97 53.546 0.346 7.88 10.95 11.71
3/25/2021 5:15:00 PM 12.02 53.636 0.347 7.88 10.63 11.71
3/25/2021 5:30:00 PM 12.06 53.708 0.347 7.89 10.85 11.71
3/25/2021 5:45:00 PM 12.11 53.798 0.348 7.9 10.57 11.69
3/25/2021 6:00:00 PM 12.15 53.87 0.349 7.9 9.79 11.69
3/25/2021 6:15:00 PM 12.18 53.924 0.35 7.91 9.82 11.66
3/25/2021 6:30:00 PM 12.21 53.978 0.352 7.91 9.92 11.68
3/25/2021 6:45:00 PM 12.24 54.032 0.353 7.91 9.4 11.32
3/25/2021 7:00:00 PM 12.25 54.05 0.355 7.92 9.34 11.64
3/25/2021 7:15:00 PM 12.26 54.068 0.357 7.92 8.78 11.62
3/25/2021 7:30:00 PM 12.26 54.068 0.358 7.92 9.3 11.59
3/25/2021 7:45:00 PM 12.26 54.068 0.36 7.91 8.16 11.57
3/25/2021 8:00:00 PM 12.26 54.068 0.362 7.91 8.65 11.56
3/25/2021 8:15:00 PM 12.26 54.068 0.364 7.91 9.06 11.55
3/25/2021 8:30:00 PM 12.27 54.086 0.366 7.91 8.36 11.53
3/25/2021 8:45:00 PM 12.27 54.086 0.368 7.91 7.77 11.49
3/25/2021 9:00:00 PM 12.27 54.086 0.369 7.9 8.58 11.49
3/25/2021 9:15:00 PM 12.26 54.068 0.369 7.9 7.76 11.45
3/25/2021 9:30:00 PM 12.26 54.068 0.37 7.89 7.35 11.43
3/25/2021 9:45:00 PM 12.25 54.05 0.37 7.89 7.27 11.4
3/25/2021 10:00:00 PM 12.24 54.032 0.371 7.88 7.36 11.38
3/25/2021 10:15:00 PM 12.23 54.014 0.373 7.87 7.43 11.34
3/25/2021 10:30:00 PM 12.22 53.996 0.375 7.87 7.09 11.3
3/25/2021 10:45:00 PM 12.22 53.996 0.377 7.86 7.28 11.31
3/25/2021 11:00:00 PM 12.21 53.978 0.379 7.86 7.27 11.27
3/25/2021 11:15:00 PM 12.21 53.978 0.38 7.85 6.98 11.24
3/25/2021 11:30:00 PM 12.2 53.96 0.381 7.85 6.91 11.24
3/25/2021 11:45:00 PM 12.2 53.96 0.382 7.84 7.31 11.22
3/26/2021 12:00:00 AM 12.2 53.96 0.382 7.84 6.71 11.2
3/26/2021 12:15:00 AM 12.2 53.96 0.384 7.84 7.21 11.18
3/26/2021 12:30:00 AM 12.2 53.96 0.384 7.84 6.93 11.16
3/26/2021 12:45:00 AM 12.2 53.96 0.384 7.83 6.87 11.15
3/26/2021 1:00:00 AM 12.2 53.96 0.384 7.83 6.75 11.11
3/26/2021 1:15:00 AM 12.2 53.96 0.385 7.83 7.04 11.12
3/26/2021 1:30:00 AM 12.2 53.96 0.387 7.82 6.8 11.1
3/26/2021 1:45:00 AM 12.2 53.96 0.389 7.82 6.93 11.08
3/26/2021 2:00:00 AM 12.2 53.96 0.39 7.82 6.78 11.07
3/26/2021 2:15:00 AM 12.2 53.96 0.39 7.81 6.5 11.04
3/26/2021 2:30:00 AM 12.2 53.96 0.391 7.81 6.43 11.03
3/26/2021 2:45:00 AM 12.21 53.978 0.392 7.81 6.53 11.03
3/26/2021 3:00:00 AM 12.21 53.978 0.392 7.81 6.43 11.02
3/26/2021 3:15:00 AM 12.21 53.978 0.393 7.81 6.54 11
3/26/2021 3:30:00 AM 12.21 53.978 0.393 7.8 6.31 11
3/26/2021 3:45:00 AM 12.22 53.996 0.393 7.8 6.35 10.97
3/26/2021 4:00:00 AM 12.22 53.996 0.393 7.8 5.89 10.95
3/26/2021 4:15:00 AM 12.22 53.996 0.394 7.8 5.93 10.95
3/26/2021 4:30:00 AM 12.23 54.014 0.397 7.8 5.99 10.93
3/26/2021 4:45:00 AM 12.24 54.032 0.397 7.8 6.71 10.92
3/26/2021 5:00:00 AM 12.24 54.032 0.398 7.8 6.45 10.92
3/26/2021 5:15:00 AM 12.24 54.032 0.398 7.8 6.2 10.93
3/26/2021 5:30:00 AM 12.24 54.032 0.398 7.79 5.96 10.88
3/26/2021 5:45:00 AM 12.24 54.032 0.397 7.79 6.18 10.92
3/26/2021 6:00:00 AM 12.23 54.014 0.396 7.79 5.87 10.91
3/26/2021 6:15:00 AM 12.23 54.014 0.395 7.79 5.87 10.9
3/26/2021 6:30:00 AM 12.23 54.014 0.394 7.79 5.81 10.91
3/26/2021 6:45:00 AM 12.24 54.032 0.393 7.79 5.73 10.9
3/26/2021 7:00:00 AM 12.24 54.032 0.394 7.79 6 10.9
3/26/2021 7:15:00 AM 12.24 54.032 0.395 7.79 5.86 10.9
3/26/2021 7:30:00 AM 12.25 54.05 0.396 7.79 6.02 10.9
3/26/2021 7:45:00 AM 12.25 54.05 0.398 7.79 6.21 10.92
3/26/2021 8:00:00 AM 12.26 54.068 0.399 7.79 6.39 10.91
3/26/2021 8:15:00 AM 12.26 54.068 0.398 7.79 6.12 10.92
3/26/2021 8:30:00 AM 12.28 54.104 0.397 7.8 6.5 10.93
3/26/2021 8:45:00 AM 12.3 54.14 0.398 7.8 6.07 10.97
3/26/2021 9:00:00 AM 12.34 54.212 0.397 7.8 5.95 10.99
3/26/2021 9:15:00 AM 12.37 54.266 0.397 7.81 5.46 10.99
3/26/2021 9:30:00 AM 12.4 54.32 0.397 7.81 5.42 10.99
3/26/2021 9:45:00 AM 12.44 54.392 0.396 7.81 5.41 11
3/26/2021 10:00:00 AM 12.51 54.518 0.397 7.82 5.32 11.02
3/26/2021 10:15:00 AM 12.59 54.662 0.397 7.83 5.39 11.05
3/26/2021 10:30:00 AM 12.7 54.86 0.398 7.83 5.27 11.07
3/26/2021 10:45:00 AM 12.8 55.04 0.397 7.84 11.39 11.09
3/26/2021 11:00:00 AM 12.89 55.202 0.397 7.85 5.16 11.09
3/26/2021 11:15:00 AM 12.98 55.364 0.397 7.87 5.27 11.13
3/26/2021 11:30:00 AM 13.07 55.526 0.397 7.88 5.01 11.14
3/26/2021 11:45:00 AM 13.18 55.724 0.396 7.89 5 11.18
3/26/2021 12:00:00 PM 13.29 55.922 0.396 7.9 4.88 11.16
3/26/2021 12:15:00 PM 13.43 56.174 0.397 7.92 4.73 11.2
3/26/2021 12:30:00 PM 13.55 56.39 0.397 7.93 4.52 11.22
3/26/2021 12:45:00 PM 13.7 56.66 0.397 7.95 4.85 11.28
3/26/2021 1:00:00 PM 13.87 56.966 0.398 7.97 4.72 11.33
3/26/2021 1:15:00 PM 14.01 57.218 0.399 7.99 4.45 11.32
3/26/2021 1:30:00 PM 14.18 57.524 0.399 8 4.7 11.36
3/26/2021 1:45:00 PM 14.32 57.776 0.399 8.02 4.91 11.34
3/26/2021 2:00:00 PM 14.49 58.082 0.398 8.04 4.75 11.4
3/26/2021 2:15:00 PM 14.67 58.406 0.397 8.06 5.16 11.42
3/26/2021 2:30:00 PM 14.79 58.622 0.396 8.07 4.37 11.37
3/26/2021 2:45:00 PM 14.9 58.82 0.395 8.08 4.23 11.37
3/26/2021 3:00:00 PM 15.01 59.018 0.394 8.1 4.07 11.43
3/26/2021 3:15:00 PM 15.14 59.252 0.394 8.12 4.04 11.41
3/26/2021 3:30:00 PM 15.23 59.414 0.394 8.14 3.75 11.46
3/26/2021 3:45:00 PM 15.31 59.558 0.394 8.15 3.87 11.43
3/26/2021 4:00:00 PM 15.4 59.72 0.395 8.16 3.94 11.44
3/26/2021 4:15:00 PM 15.49 59.882 0.395 8.18 4.07 11.45
3/26/2021 4:30:00 PM 15.56 60.008 0.395 8.19 4.09 11.44
3/26/2021 4:45:00 PM 15.62 60.116 0.394 8.2 3.66 11.42
3/26/2021 5:00:00 PM 15.67 60.206 0.393 8.21 4.04 11.41
3/26/2021 5:15:00 PM 15.69 60.242 0.392 8.22 4.06 11.36
3/26/2021 5:30:00 PM 15.7 60.26 0.392 8.22 4.22 11.38
3/26/2021 5:45:00 PM 15.7 60.26 0.392 8.23 3.77 11.35
3/26/2021 6:00:00 PM 15.68 60.224 0.391 8.23 4.73 11.34
3/26/2021 6:15:00 PM 15.65 60.17 0.391 8.23 4.03 11.31
3/26/2021 6:30:00 PM 15.62 60.116 0.391 8.22 3.84 11.27
3/26/2021 6:45:00 PM 15.57 60.026 0.392 8.22 3.92 11.25
3/26/2021 7:00:00 PM 15.52 59.936 0.393 8.21 4.21 11.24
3/26/2021 7:15:00 PM 15.49 59.882 0.389 8.21 4.83 11.21
3/26/2021 7:30:00 PM 15.46 59.828 0.39 8.2 3.59 11.19
3/26/2021 7:45:00 PM 15.42 59.756 0.391 8.2 3.7 11.17
3/26/2021 8:00:00 PM 15.38 59.684 0.391 8.19 3.76 11.13
3/26/2021 8:15:00 PM 15.33 59.594 0.392 8.19 3.83 11.11
3/26/2021 8:30:00 PM 15.27 59.486 0.392 8.18 4.14 11.1
3/26/2021 8:45:00 PM 15.22 59.396 0.394 8.17 4.36 11.1
3/26/2021 9:00:00 PM 15.16 59.288 0.395 8.16 4.09 11.06
3/26/2021 9:15:00 PM 15.09 59.162 0.395 8.15 4.23 11.06
3/26/2021 9:30:00 PM 15.03 59.054 0.396 8.14 4.16 11.04
3/26/2021 9:45:00 PM 14.96 58.928 0.396 8.13 4.15 11.02
3/26/2021 10:00:00 PM 14.89 58.802 0.396 8.12 4.27 10.98
3/26/2021 10:15:00 PM 14.83 58.694 0.396 8.11 4.6 10.96
3/26/2021 10:30:00 PM 14.77 58.586 0.395 8.09 4.16 10.91
3/26/2021 10:45:00 PM 14.69 58.442 0.396 8.08 4.21 10.89
3/26/2021 11:00:00 PM 14.62 58.316 0.395 8.07 4.25 10.89
3/26/2021 11:15:00 PM 14.54 58.172 0.396 8.06 4.31 10.87
3/26/2021 11:30:00 PM 14.48 58.064 0.396 8.05 4.22 10.84
3/26/2021 11:45:00 PM 14.41 57.938 0.399 8.03 4.12 10.84
3/27/2021 12:00:00 AM 14.34 57.812 0.4 8.02 4.38 10.81
3/27/2021 12:15:00 AM 14.28 57.704 0.404 8.02 4.03 10.81
3/27/2021 12:30:00 AM 14.22 57.596 0.405 8.01 4.35 10.79
3/27/2021 12:45:00 AM 14.15 57.47 0.407 7.99 4.35 10.79
3/27/2021 1:00:00 AM 14.09 57.362 0.409 7.98 4.78 10.78
3/27/2021 1:15:00 AM 14.04 57.272 0.41 7.98 4.61 10.76
3/27/2021 1:30:00 AM 13.98 57.164 0.412 7.96 4.71 10.77
3/27/2021 1:45:00 AM 13.91 57.038 0.413 7.95 3.78 10.75
3/27/2021 2:00:00 AM 13.85 56.93 0.412 7.94 4.19 10.73
3/27/2021 2:15:00 AM 13.79 56.822 0.412 7.93 3.99 10.73
3/27/2021 2:30:00 AM 13.73 56.714 0.413 7.92 3.89 10.73
3/27/2021 2:45:00 AM 13.67 56.606 0.412 7.91 3.65 10.72
3/27/2021 3:00:00 AM 13.61 56.498 0.413 7.91 3.94 10.71
3/27/2021 3:15:00 AM 13.56 56.408 0.414 7.9 4.08 10.71
3/27/2021 3:30:00 AM 13.5 56.3 0.414 7.89 3.93 10.68
3/27/2021 3:45:00 AM 13.45 56.21 0.415 7.88 4.26 10.67
3/27/2021 4:00:00 AM 13.4 56.12 0.415 7.88 4.1 10.7
3/27/2021 4:15:00 AM 13.36 56.048 0.414 7.87 4.27 10.69
3/27/2021 4:30:00 AM 13.31 55.958 0.414 7.87 4.09 10.7
3/27/2021 4:45:00 AM 13.25 55.85 0.413 7.86 4.34 10.7
3/27/2021 5:00:00 AM 13.2 55.76 0.414 7.86 4.19 10.71
3/27/2021 5:15:00 AM 13.14 55.652 0.413 7.85 4.64 10.71
3/27/2021 5:30:00 AM 13.09 55.562 0.413 7.84 4.06 10.72
3/27/2021 5:45:00 AM 13.03 55.454 0.413 7.84 3.88 10.72
3/27/2021 6:00:00 AM 12.97 55.346 0.414 7.84 4.39 10.74
3/27/2021 6:15:00 AM 12.91 55.238 0.414 7.83 4.16 10.72
3/27/2021 6:30:00 AM 12.85 55.13 0.415 7.83 4.37 10.74
3/27/2021 6:45:00 AM 12.79 55.022 0.415 7.83 5.32 10.75
3/27/2021 7:00:00 AM 12.72 54.896 0.415 7.82 5.17 10.78
3/27/2021 7:15:00 AM 12.65 54.77 0.415 7.82 5.31 10.81
3/27/2021 7:30:00 AM 12.59 54.662 0.416 7.82 5.14 10.83
3/27/2021 7:45:00 AM 12.53 54.554 0.416 7.82 5.04 10.85
3/27/2021 8:00:00 AM 12.47 54.446 0.415 7.83 4.83 10.88
3/27/2021 8:15:00 AM 12.42 54.356 0.415 7.83 4.98 10.92
3/27/2021 8:30:00 AM 12.38 54.284 0.415 7.83 4.67 10.97
3/27/2021 8:45:00 AM 12.34 54.212 0.415 7.83 4.66 10.97
3/27/2021 9:00:00 AM 12.3 54.14 0.415 7.84 4.48 11.04
3/27/2021 9:15:00 AM 12.27 54.086 0.415 7.84 4.48 11.06
3/27/2021 9:30:00 AM 12.24 54.032 0.417 7.84 4.44 11.11
3/27/2021 9:45:00 AM 12.23 54.014 0.416 7.85 4.06 11.15
3/27/2021 10:00:00 AM 12.23 54.014 0.417 7.85 4.89 11.19
3/27/2021 10:15:00 AM 12.24 54.032 0.417 7.86 4.46 11.2
3/27/2021 10:30:00 AM 12.26 54.068 0.417 7.86 4.57 11.26
3/27/2021 10:45:00 AM 12.29 54.122 0.416 7.87 4.57 11.31
3/27/2021 11:00:00 AM 12.33 54.194 0.416 7.88 4.31 11.33
3/27/2021 11:15:00 AM 12.35 54.23 0.415 7.88 4.29 11.38
3/27/2021 11:30:00 AM 12.4 54.32 0.415 7.89 4.21 11.44
3/27/2021 11:45:00 AM 12.45 54.41 0.415 7.91 4.35 11.47
3/27/2021 12:00:00 PM 12.51 54.518 0.414 7.92 4.14 11.53
3/27/2021 12:15:00 PM 12.58 54.644 0.414 7.93 4.1 11.57
3/27/2021 12:30:00 PM 12.66 54.788 0.415 7.95 4.18 11.63
3/27/2021 12:45:00 PM 12.76 54.968 0.415 7.96 3.94 11.69
3/27/2021 1:00:00 PM 12.86 55.148 0.414 7.98 4.02 11.73
3/27/2021 1:15:00 PM 12.98 55.364 0.415 8 4 11.77
3/27/2021 1:30:00 PM 13.11 55.598 0.415 8.02 3.97 11.82
3/27/2021 1:45:00 PM 13.23 55.814 0.415 8.04 3.76 11.85
3/27/2021 2:00:00 PM 13.35 56.03 0.414 8.05 3.76 11.9
3/27/2021 2:15:00 PM 13.48 56.264 0.415 8.07 3.67 11.92
3/27/2021 2:30:00 PM 13.6 56.48 0.414 8.1 3.8 11.94
3/27/2021 2:45:00 PM 13.72 56.696 0.416 8.12 3.71 11.98
3/27/2021 3:00:00 PM 13.84 56.912 0.415 8.14 3.76 12.02
3/27/2021 3:15:00 PM 13.95 57.11 0.416 8.15 3.57 12.01
3/27/2021 3:30:00 PM 14.06 57.308 0.419 8.17 5.35 12.03
3/27/2021 3:45:00 PM 14.14 57.452 0.419 8.19 3.44 12
3/27/2021 4:00:00 PM 14.22 57.596 0.417 8.2 3.7 12.01
3/27/2021 4:15:00 PM 14.29 57.722 0.416 8.22 3.24 12.01
3/27/2021 4:30:00 PM 14.36 57.848 0.415 8.23 3.24 11.98
3/27/2021 4:45:00 PM 14.42 57.956 0.41 8.25 3.4 11.96
3/27/2021 5:00:00 PM 14.47 58.046 0.408 8.26 3.54 11.97
3/27/2021 5:15:00 PM 14.51 58.118 0.408 8.27 3.42 11.97
3/27/2021 5:30:00 PM 14.55 58.19 0.409 8.29 3.38 11.95
3/27/2021 5:45:00 PM 14.58 58.244 0.412 8.29 3.52 11.92
3/27/2021 6:00:00 PM 14.6 58.28 0.412 8.3 3.6 11.92
3/27/2021 6:15:00 PM 14.62 58.316 0.409 8.31 4.02 11.88
3/27/2021 6:30:00 PM 14.63 58.334 0.412 8.31 3.42 11.87
3/27/2021 6:45:00 PM 14.63 58.334 0.412 8.32 4.4 11.85
3/27/2021 7:00:00 PM 14.63 58.334 0.412 8.32 4.45 11.81
3/27/2021 7:15:00 PM 14.62 58.316 0.411 8.32 3.61 11.77
3/27/2021 7:30:00 PM 14.6 58.28 0.411 8.32 3.52 11.77
3/27/2021 7:45:00 PM 14.58 58.244 0.411 8.32 3.44 11.75
3/27/2021 8:00:00 PM 14.56 58.208 0.41 8.31 3.57 11.69
3/27/2021 8:15:00 PM 14.53 58.154 0.409 8.31 3.65 11.67
3/27/2021 8:30:00 PM 14.49 58.082 0.408 8.3 3.49 11.65
3/27/2021 8:45:00 PM 14.45 58.01 0.408 8.29 3.39 11.6
3/27/2021 9:00:00 PM 14.4 57.92 0.407 8.28 3.43 11.58
3/27/2021 9:15:00 PM 14.36 57.848 0.407 8.27 3.49 11.54
3/27/2021 9:30:00 PM 14.31 57.758 0.407 8.26 3.17 11.5
3/27/2021 9:45:00 PM 14.26 57.668 0.406 8.25 3.1 11.45
3/27/2021 10:00:00 PM 14.2 57.56 0.406 8.23 3.5 11.39
3/27/2021 10:15:00 PM 14.15 57.47 0.406 8.22 3.6 11.35
3/27/2021 10:30:00 PM 14.09 57.362 0.406 8.21 3.43 11.33
3/27/2021 10:45:00 PM 14.03 57.254 0.407 8.2 3.5 11.29
3/27/2021 11:00:00 PM 13.98 57.164 0.408 8.18 3.6 11.24
3/27/2021 11:15:00 PM 13.92 57.056 0.406 8.16 3.64 11.22
3/27/2021 11:30:00 PM 13.86 56.948 0.407 8.15 3.47 11.17
3/27/2021 11:45:00 PM 13.8 56.84 0.407 8.13 3.41 11.14
3/28/2021 12:00:00 AM 13.75 56.75 0.408 8.12 3.37 11.13
3/28/2021 12:15:00 AM 13.7 56.66 0.407 8.1 3.04 11.09
3/28/2021 12:30:00 AM 13.64 56.552 0.407 8.09 3.21 11.06
3/28/2021 12:45:00 AM 13.6 56.48 0.407 8.07 2.96 11.05
3/28/2021 1:00:00 AM 13.55 56.39 0.407 8.06 3.03 11
3/28/2021 1:15:00 AM 13.5 56.3 0.407 8.05 2.91 10.98
3/28/2021 1:30:00 AM 13.46 56.228 0.408 8.03 3.04 10.96
3/28/2021 1:45:00 AM 13.41 56.138 0.41 8.02 3.1 10.95
3/28/2021 2:00:00 AM 13.37 56.066 0.413 8.02 3.02 10.9
3/28/2021 2:15:00 AM 13.33 55.994 0.415 8 2.95 10.89
3/28/2021 2:30:00 AM 13.29 55.922 0.415 7.99 3.03 10.89
3/28/2021 2:45:00 AM 13.26 55.868 0.417 7.98 3.04 10.87
3/28/2021 3:00:00 AM 13.22 55.796 0.417 7.97 3.11 10.85
3/28/2021 3:15:00 AM 13.18 55.724 0.418 7.96 2.84 10.81
3/28/2021 3:30:00 AM 13.15 55.67 0.418 7.95 2.57 10.82
3/28/2021 3:45:00 AM 13.12 55.616 0.418 7.94 2.86 10.81
3/28/2021 4:00:00 AM 13.09 55.562 0.419 7.93 2.93 10.79
3/28/2021 4:15:00 AM 13.06 55.508 0.42 7.93 2.95 10.79
3/28/2021 4:30:00 AM 13.04 55.472 0.42 7.92 3.05 10.78
3/28/2021 4:45:00 AM 13.01 55.418 0.421 7.91 3.29 10.76
3/28/2021 5:00:00 AM 12.99 55.382 0.419 7.9 3.24 10.76
3/28/2021 5:15:00 AM 12.97 55.346 0.423 7.9 3.16 10.77
3/28/2021 5:30:00 AM 12.96 55.328 0.424 7.89 3.26 10.74
3/28/2021 5:45:00 AM 12.94 55.292 0.425 7.89 3.11 10.71
3/28/2021 6:00:00 AM 12.91 55.238 0.426 7.88 10.64 10.72
3/28/2021 6:15:00 AM 12.89 55.202 0.427 7.88 3.36 10.73
3/28/2021 6:30:00 AM 12.87 55.166 0.428 7.87 3.32 10.69
3/28/2021 6:45:00 AM 12.85 55.13 0.428 7.87 3.2 10.7
3/28/2021 7:00:00 AM 12.83 55.094 0.429 7.87 3.07 10.72
3/28/2021 7:15:00 AM 12.81 55.058 0.43 7.87 3.38 10.7
3/28/2021 7:30:00 AM 12.79 55.022 0.431 7.86 3.13 10.71
3/28/2021 7:45:00 AM 12.77 54.986 0.431 7.86 3.06 10.72
3/28/2021 8:00:00 AM 12.75 54.95 0.432 7.86 2.95 10.73
3/28/2021 8:15:00 AM 12.73 54.914 0.432 7.86 2.81 10.73
3/28/2021 8:30:00 AM 12.72 54.896 0.432 7.86 2.97 10.73
3/28/2021 8:45:00 AM 12.7 54.86 0.431 7.85 2.76 10.74
3/28/2021 9:00:00 AM 12.69 54.842 0.43 7.86 2.86 10.77
3/28/2021 9:15:00 AM 12.68 54.824 0.428 7.85 2.84 10.78
3/28/2021 9:30:00 AM 12.66 54.788 0.428 7.85 2.51 10.79
3/28/2021 9:45:00 AM 12.64 54.752 0.427 7.85 2.92 10.78
3/28/2021 10:00:00 AM 12.63 54.734 0.426 7.85 2.45 10.78
3/28/2021 10:15:00 AM 12.61 54.698 0.425 7.85 2.68 10.78
3/28/2021 10:30:00 AM 12.59 54.662 0.425 7.85 2.61 10.81
3/28/2021 10:45:00 AM 12.58 54.644 0.425 7.85 2.66 10.79
3/28/2021 11:00:00 AM 12.56 54.608 0.425 7.85 2.6 10.85
3/28/2021 11:15:00 AM 12.55 54.59 0.425 7.85 2.82 10.84
3/28/2021 11:30:00 AM 12.53 54.554 0.423 7.85 3.04 10.84
3/28/2021 11:45:00 AM 12.52 54.536 0.423 7.85 2.72 10.85
3/28/2021 12:00:00 PM 12.51 54.518 0.421 7.85 2.73 10.88
3/28/2021 12:15:00 PM 12.51 54.518 0.42 7.85 2.66 10.91
3/28/2021 12:30:00 PM 12.51 54.518 0.42 7.86 2.96 10.96
3/28/2021 12:45:00 PM 12.49 54.482 0.42 7.86 3.08 10.93
3/28/2021 1:00:00 PM 12.48 54.464 0.421 7.86 3.01 10.97
3/28/2021 1:15:00 PM 12.48 54.464 0.42 7.86 3.26 11.01
3/28/2021 1:30:00 PM 12.47 54.446 0.419 7.87 3.28 11.01
3/28/2021 1:45:00 PM 12.47 54.446 0.42 7.87 3.11 11.07
3/28/2021 2:00:00 PM 12.48 54.464 0.42 7.88 3.81 11.09
3/28/2021 2:15:00 PM 12.49 54.482 0.417 7.88 3.57 11.11
3/28/2021 2:30:00 PM 12.5 54.5 0.415 7.88 3.26 11.14
3/28/2021 2:45:00 PM 12.53 54.554 0.415 7.89 3.53 11.18
3/28/2021 3:00:00 PM 12.56 54.608 0.414 7.9 3.29 11.2
3/28/2021 3:15:00 PM 12.58 54.644 0.414 7.91 3.79 11.25
3/28/2021 3:30:00 PM 12.6 54.68 0.414 7.91 3.38 11.25
3/28/2021 3:45:00 PM 12.62 54.716 0.412 7.91 3.64 11.23
3/28/2021 4:00:00 PM 12.64 54.752 0.409 7.92 3.49 11.28
3/28/2021 4:15:00 PM 12.66 54.788 0.406 7.93 3.47 11.31
3/28/2021 4:30:00 PM 12.69 54.842 0.405 7.94 3.71 11.36
3/28/2021 4:45:00 PM 12.71 54.878 0.403 7.94 3.91 11.34
3/28/2021 5:00:00 PM 12.74 54.932 0.402 7.95 4.33 11.36
3/28/2021 5:15:00 PM 12.77 54.986 0.401 7.97 4.44 11.4
3/28/2021 5:30:00 PM 12.79 55.022 0.4 7.98 4.36 11.43
3/28/2021 5:45:00 PM 12.8 55.04 0.397 7.99 4.57 11.46
3/28/2021 6:00:00 PM 12.8 55.04 0.396 8 4.57 11.47
3/28/2021 6:15:00 PM 12.81 55.058 0.394 8 4.86 11.51
3/28/2021 6:30:00 PM 12.8 55.04 0.392 8 4.59 11.49
3/28/2021 6:45:00 PM 12.79 55.022 0.388 7.99 5.17 11.47
3/28/2021 7:00:00 PM 12.78 55.004 0.384 7.98 4.79 11.44
3/28/2021 7:15:00 PM 12.76 54.968 0.381 7.96 5.07 11.42
3/28/2021 7:30:00 PM 12.73 54.914 0.377 7.94 6.45 11.37
3/28/2021 7:45:00 PM 12.7 54.86 0.373 7.92 6.97 11.35
3/28/2021 8:00:00 PM 12.66 54.788 0.368 7.91 7.04 11.33
3/28/2021 8:15:00 PM 12.61 54.698 0.363 7.9 7.32 11.31
3/28/2021 8:30:00 PM 12.56 54.608 0.362 7.89 7.32 11.3
3/28/2021 8:45:00 PM 12.51 54.518 0.363 7.88 7.78 11.29
3/28/2021 9:00:00 PM 12.46 54.428 0.363 7.88 8.27 11.28
3/28/2021 9:15:00 PM 12.4 54.32 0.361 7.87 8.9 11.28
3/28/2021 9:30:00 PM 12.35 54.23 0.357 7.86 9.76 11.27
3/28/2021 9:45:00 PM 12.28 54.104 0.353 7.85 10.21 11.26
3/28/2021 10:00:00 PM 12.22 53.996 0.35 7.84 11.07 11.26
3/28/2021 10:15:00 PM 12.14 53.852 0.349 7.83 11.24 11.27
3/28/2021 10:30:00 PM 12.07 53.726 0.347 7.83 11.39 11.27
3/28/2021 10:45:00 PM 12 53.6 0.344 7.82 12.59 11.28
3/28/2021 11:00:00 PM 11.93 53.474 0.34 7.81 13.01 11.28
3/28/2021 11:15:00 PM 11.86 53.348 0.336 7.8 13.98 11.29
3/28/2021 11:30:00 PM 11.79 53.222 0.333 7.8 12.3 11.3
3/28/2021 11:45:00 PM 11.7 53.06 0.33 7.79 14.12 11.31
3/29/2021 12:00:00 AM 11.63 52.934 0.33 7.79 15.93 11.31
3/29/2021 12:15:00 AM 11.55 52.79 0.331 7.78 16.96 11.33
3/29/2021 12:30:00 AM 11.49 52.682 0.333 7.77 19.52 11.32
3/29/2021 12:45:00 AM 11.43 52.574 0.334 7.77 19.44 11.33
3/29/2021 1:00:00 AM 11.36 52.448 0.333 7.76 20.18 11.35
3/29/2021 1:15:00 AM 11.3 52.34 0.332 7.76 23.39 11.37
3/29/2021 1:30:00 AM 11.23 52.214 0.331 7.76 23.57 11.38
3/29/2021 1:45:00 AM 11.18 52.124 0.329 7.76 24.24 11.39
3/29/2021 2:00:00 AM 11.15 52.07 0.325 7.75 23.57 11.38
3/29/2021 2:15:00 AM 11.12 52.016 0.323 7.75 25.49 11.38
3/29/2021 2:30:00 AM 11.07 51.926 0.324 7.75 26.34 11.39
3/29/2021 2:45:00 AM 11.01 51.818 0.327 7.75 26.98 11.4
3/29/2021 3:00:00 AM 10.96 51.728 0.329 7.75 27.49 11.4
3/29/2021 3:15:00 AM 10.9 51.62 0.329 7.75 27.75 11.43
3/29/2021 3:30:00 AM 10.84 51.512 0.329 7.75 27.64 11.44
3/29/2021 3:45:00 AM 10.78 51.404 0.329 7.74 28.16 11.47
3/29/2021 4:00:00 AM 10.73 51.314 0.327 7.75 28.23 11.5
3/29/2021 4:15:00 AM 10.67 51.206 0.325 7.75 29.14 11.53
3/29/2021 4:30:00 AM 10.62 51.116 0.323 7.75 29.71 11.55
3/29/2021 4:45:00 AM 10.56 51.008 0.319 7.74 30.29 11.58
3/29/2021 5:00:00 AM 10.5 50.9 0.32 7.74 31.15 11.61
3/29/2021 5:15:00 AM 10.44 50.792 0.318 7.74 32.35 11.62
3/29/2021 5:30:00 AM 10.38 50.684 0.315 7.75 28.14 11.64
3/29/2021 5:45:00 AM 10.32 50.576 0.313 7.75 33.2 11.66
3/29/2021 6:00:00 AM 10.26 50.468 0.31 7.75 32.73 11.68
3/29/2021 6:15:00 AM 10.2 50.36 0.309 7.75 32.05 11.7
3/29/2021 6:30:00 AM 10.14 50.252 0.308 7.75 29.98 11.71
3/29/2021 6:45:00 AM 10.08 50.144 0.307 7.74 33.47 11.72
3/29/2021 7:00:00 AM 10.03 50.054 0.306 7.74 32.62 11.74
3/29/2021 7:15:00 AM 9.97 49.946 0.306 7.74 32.97 11.76
3/29/2021 7:30:00 AM 9.91 49.838 0.305 7.74 32.98 11.77
3/29/2021 7:45:00 AM 9.86 49.748 0.306 7.75 32.03 11.79
3/29/2021 8:00:00 AM 9.8 49.64 0.308 7.75 31.74 11.8
3/29/2021 8:15:00 AM 9.75 49.55 0.311 7.75 27.87 11.81
3/29/2021 8:30:00 AM 9.7 49.46 0.314 7.75 31.38 11.83
3/29/2021 8:45:00 AM 9.66 49.388 0.315 7.75 29.78 11.85
3/29/2021 9:00:00 AM 9.63 49.334 0.316 7.75 29.03 11.86
3/29/2021 9:15:00 AM 9.59 49.262 0.316 7.76 29.19 11.88
3/29/2021 9:30:00 AM 9.54 49.172 0.316 7.76 27.93 11.91
3/29/2021 9:45:00 AM 9.52 49.136 0.317 7.76 27.27 11.93
3/29/2021 10:00:00 AM 9.51 49.118 0.318 7.77 23.55 11.94
3/29/2021 10:15:00 AM 9.51 49.118 0.32 7.77 25.8 11.96
3/29/2021 10:30:00 AM 9.52 49.136 0.322 7.77 25.19 11.98
3/29/2021 10:45:00 AM 9.52 49.136 0.323 7.78 24.99 12.01
3/29/2021 11:00:00 AM 9.53 49.154 0.324 7.78 24.11 12.02
3/29/2021 11:15:00 AM 9.57 49.226 0.326 7.79 23.86 12.04
3/29/2021 11:30:00 AM 9.58 49.244 0.327 7.79 23.13 12.03
3/29/2021 11:45:00 AM 9.6 49.28 0.329 7.79 22.41 12.08
3/29/2021 12:00:00 PM 9.69 49.442 0.331 7.8 21.83 12.1
3/29/2021 12:15:00 PM 9.76 49.568 0.333 7.81 20.63 12.11
3/29/2021 12:30:00 PM 9.85 49.73 0.335 7.82 20.56 12.14
3/29/2021 12:45:00 PM 9.96 49.928 0.336 7.83 19.9 12.16
3/29/2021 1:00:00 PM 10.06 50.108 0.337 7.84 19.08 12.19
3/29/2021 1:15:00 PM 10.14 50.252 0.337 7.86 18.28 12.2
3/29/2021 1:30:00 PM 10.25 50.45 0.337 7.87 18.17 12.23
3/29/2021 1:45:00 PM 10.36 50.648 0.338 7.88 17.82 12.23
3/29/2021 2:00:00 PM 10.46 50.828 0.339 7.89 17.27 12.26
3/29/2021 2:15:00 PM 10.58 51.044 0.339 7.91 16.78 12.28
3/29/2021 2:30:00 PM 10.69 51.242 0.339 7.92 16.3 12.3
3/29/2021 2:45:00 PM 10.79 51.422 0.339 7.94 15.14 12.31
3/29/2021 3:00:00 PM 10.89 51.602 0.339 7.95 15.31 12.34
3/29/2021 3:15:00 PM 10.98 51.764 0.338 7.97 13.99 12.35
3/29/2021 3:30:00 PM 11.06 51.908 0.339 7.98 13.55 12.37
3/29/2021 3:45:00 PM 11.14 52.052 0.34 7.99 13.23 12.41
3/29/2021 4:00:00 PM 11.2 52.16 0.341 8.01 12.48 12.42
3/29/2021 4:15:00 PM 11.26 52.268 0.341 8.02 12.01 12.43
3/29/2021 4:30:00 PM 11.31 52.358 0.342 8.04 11.65 12.45
3/29/2021 4:45:00 PM 11.34 52.412 0.342 8.04 11.66 12.45
3/29/2021 5:00:00 PM 11.36 52.448 0.341 8.06 11.02 12.45
3/29/2021 5:15:00 PM 11.37 52.466 0.341 8.06 10.19 12.47
3/29/2021 5:30:00 PM 11.37 52.466 0.34 8.07 9.77 12.45
3/29/2021 5:45:00 PM 11.37 52.466 0.34 8.08 9.35 12.44
3/29/2021 6:00:00 PM 11.36 52.448 0.341 8.08 9.1 12.44
3/29/2021 6:15:00 PM 11.35 52.43 0.341 8.08 9.22 12.43
3/29/2021 6:30:00 PM 11.34 52.412 0.342 8.09 8.92 12.42
3/29/2021 6:45:00 PM 11.31 52.358 0.344 8.09 8.75 12.42
3/29/2021 7:00:00 PM 11.3 52.34 0.346 8.09 8.25 12.4
3/29/2021 7:15:00 PM 11.28 52.304 0.348 8.09 8.46 12.39
3/29/2021 7:30:00 PM 11.26 52.268 0.349 8.09 8.1 12.38
3/29/2021 7:45:00 PM 11.23 52.214 0.35 8.08 7.85 12.36
3/29/2021 8:00:00 PM 11.21 52.178 0.351 8.07 7.74 12.35
3/29/2021 8:15:00 PM 11.19 52.142 0.352 8.07 7.57 12.33
3/29/2021 8:30:00 PM 11.17 52.106 0.354 8.06 7.07 12.32
3/29/2021 8:45:00 PM 11.15 52.07 0.354 8.05 7.31 12.29
3/29/2021 9:00:00 PM 11.13 52.034 0.354 8.05 6.93 12.27
3/29/2021 9:15:00 PM 11.1 51.98 0.355 8.04 6.85 12.24
3/29/2021 9:30:00 PM 11.07 51.926 0.355 8.03 6.76 12.21
3/29/2021 9:45:00 PM 11.04 51.872 0.356 8.02 6.72 12.18
3/29/2021 10:00:00 PM 11.01 51.818 0.357 8.01 6.62 12.14
3/29/2021 10:15:00 PM 10.97 51.746 0.358 8 6.28 12.12
3/29/2021 10:30:00 PM 10.92 51.656 0.36 7.99 6.41 12.09
3/29/2021 10:45:00 PM 10.88 51.584 0.363 7.98 6.24 12.07
3/29/2021 11:00:00 PM 10.84 51.512 0.364 7.97 6.16 12.06
3/29/2021 11:15:00 PM 10.79 51.422 0.365 7.96 6.1 12.03
3/29/2021 11:30:00 PM 10.74 51.332 0.366 7.95 6.09 12.01
3/29/2021 11:45:00 PM 10.7 51.26 0.367 7.94 5.96 12
3/30/2021 12:00:00 AM 10.65 51.17 0.368 7.93 6.01 11.98
3/30/2021 12:15:00 AM 10.6 51.08 0.369 7.92 5.82 11.97
3/30/2021 12:30:00 AM 10.55 50.99 0.369 7.92 5.85 11.96
3/30/2021 12:45:00 AM 10.49 50.882 0.37 7.91 5.71 11.94
3/30/2021 1:00:00 AM 10.45 50.81 0.37 7.9 5.66 11.93
3/30/2021 1:15:00 AM 10.4 50.72 0.372 7.89 5.61 11.91
3/30/2021 1:30:00 AM 10.35 50.63 0.373 7.88 5.58 11.89
3/30/2021 1:45:00 AM 10.31 50.558 0.375 7.87 5.65 11.88
3/30/2021 2:00:00 AM 10.26 50.468 0.376 7.87 5.54 11.88
3/30/2021 2:15:00 AM 10.23 50.414 0.378 7.86 5.48 11.88
3/30/2021 2:30:00 AM 10.19 50.342 0.378 7.86 5.66 11.87
3/30/2021 2:45:00 AM 10.14 50.252 0.379 7.85 5.54 11.86
3/30/2021 3:00:00 AM 10.1 50.18 0.381 7.85 5.48 11.86
3/30/2021 3:15:00 AM 10.06 50.108 0.382 7.84 5.28 11.86
3/30/2021 3:30:00 AM 10.02 50.036 0.382 7.84 5.35 11.86
3/30/2021 3:45:00 AM 9.98 49.964 0.383 7.83 5.51 11.86
3/30/2021 4:00:00 AM 9.93 49.874 0.384 7.83 5.25 11.86
3/30/2021 4:15:00 AM 9.89 49.802 0.385 7.83 5.55 11.86
3/30/2021 4:30:00 AM 9.85 49.73 0.387 7.83 5.17 11.86
3/30/2021 4:45:00 AM 9.8 49.64 0.388 7.83 5.38 11.86
3/30/2021 5:00:00 AM 9.76 49.568 0.39 7.82 5.27 11.87
3/30/2021 5:15:00 AM 9.71 49.478 0.391 7.82 5.3 11.87
3/30/2021 5:30:00 AM 9.66 49.388 0.391 7.82 5.23 11.88
3/30/2021 5:45:00 AM 9.61 49.298 0.391 7.82 5.09 11.89
3/30/2021 6:00:00 AM 9.56 49.208 0.391 7.82 5.3 11.91
3/30/2021 6:15:00 AM 9.51 49.118 0.39 7.82 5.2 11.91
3/30/2021 6:30:00 AM 9.46 49.028 0.389 7.81 5.04 11.93
3/30/2021 6:45:00 AM 9.41 48.938 0.389 7.81 5.21 11.95
3/30/2021 7:00:00 AM 9.35 48.83 0.388 7.81 5.08 11.97
3/30/2021 7:15:00 AM 9.3 48.74 0.389 7.81 5.09 11.99
3/30/2021 7:30:00 AM 9.25 48.65 0.39 7.81 5.07 12.01
3/30/2021 7:45:00 AM 9.2 48.56 0.391 7.81 5.06 12.03
3/30/2021 8:00:00 AM 9.15 48.47 0.392 7.82 5.12 12.04
3/30/2021 8:15:00 AM 9.11 48.398 0.393 7.82 5.03 12.06
3/30/2021 8:30:00 AM 9.08 48.344 0.394 7.82 4.98 12.09
3/30/2021 8:45:00 AM 9.05 48.29 0.394 7.82 4.92 12.13
3/30/2021 9:00:00 AM 9.04 48.272 0.395 7.83 5 12.17
3/30/2021 9:15:00 AM 9.03 48.254 0.395 7.83 5.06 12.2
3/30/2021 9:30:00 AM 9.04 48.272 0.395 7.83 4.99 12.21
3/30/2021 9:45:00 AM 9.04 48.272 0.396 7.84 4.96 12.26
3/30/2021 10:00:00 AM 9.06 48.308 0.395 7.85 4.95 12.28
3/30/2021 10:15:00 AM 9.1 48.38 0.396 7.85 5.18 12.31
3/30/2021 10:30:00 AM 9.14 48.452 0.397 7.86 5.18 12.34
3/30/2021 10:45:00 AM 9.19 48.542 0.398 7.86 5.25 12.38
3/30/2021 11:00:00 AM 9.25 48.65 0.398 7.87 4.97 12.43
3/30/2021 11:15:00 AM 9.32 48.776 0.398 7.88 5.41 12.46
3/30/2021 11:30:00 AM 9.41 48.938 0.398 7.89 5.04 12.5
3/30/2021 11:45:00 AM 9.5 49.1 0.397 7.9 4.97 12.52
3/30/2021 12:00:00 PM 9.61 49.298 0.397 7.92 4.85 12.56
3/30/2021 12:15:00 PM 9.72 49.496 0.397 7.93 4.84 12.59
3/30/2021 12:30:00 PM 9.86 49.748 0.396 7.95 4.89 12.63
3/30/2021 12:45:00 PM 10.01 50.018 0.396 7.96 4.83 12.66
3/30/2021 1:00:00 PM 10.16 50.288 0.397 7.98 4.89 12.69
3/30/2021 1:15:00 PM 10.32 50.576 0.398 8 4.76 12.7
3/30/2021 1:30:00 PM 10.47 50.846 0.399 8.02 4.72 12.72
3/30/2021 1:45:00 PM 10.64 51.152 0.399 8.04 4.57 12.75
3/30/2021 2:00:00 PM 10.79 51.422 0.398 8.06 4.67 12.77
3/30/2021 2:15:00 PM 10.95 51.71 0.398 8.08 4.67 12.77
3/30/2021 2:30:00 PM 11.11 51.998 0.397 8.1 4.68 12.79
3/30/2021 2:45:00 PM 11.26 52.268 0.396 8.11 4.59 12.81
3/30/2021 3:00:00 PM 11.42 52.556 0.396 8.13 4.46 12.8
3/30/2021 3:15:00 PM 11.57 52.826 0.394 8.15 4.29 12.79
3/30/2021 3:30:00 PM 11.72 53.096 0.394 8.17 4.4 12.8
3/30/2021 3:45:00 PM 11.86 53.348 0.392 8.19 4.12 12.81
3/30/2021 4:00:00 PM 11.97 53.546 0.393 8.2 4.17 12.8
3/30/2021 4:15:00 PM 12.08 53.744 0.393 8.22 4.44 12.79
3/30/2021 4:30:00 PM 12.17 53.906 0.394 8.23 4.56 12.76
3/30/2021 4:45:00 PM 12.25 54.05 0.394 8.24 4.58 12.75
3/30/2021 5:00:00 PM 12.32 54.176 0.393 8.25 4.65 12.74
3/30/2021 5:15:00 PM 12.35 54.23 0.393 8.26 4.28 12.72
3/30/2021 5:30:00 PM 12.38 54.284 0.392 8.27 4.1 12.69
3/30/2021 5:45:00 PM 12.39 54.302 0.391 8.28 3.71 12.65
3/30/2021 6:00:00 PM 12.41 54.338 0.39 8.29 3.63 12.66
3/30/2021 6:15:00 PM 12.41 54.338 0.39 8.29 3.46 12.6
3/30/2021 6:30:00 PM 12.41 54.338 0.389 8.29 3.56 12.57
3/30/2021 6:45:00 PM 12.41 54.338 0.389 8.29 3.52 12.55
3/30/2021 7:00:00 PM 12.41 54.338 0.39 8.29 3.55 12.51
3/30/2021 7:15:00 PM 12.4 54.32 0.39 8.28 3.89 12.48
3/30/2021 7:30:00 PM 12.4 54.32 0.39 8.28 3.83 12.44
3/30/2021 7:45:00 PM 12.38 54.284 0.39 8.28 3.95 12.4
3/30/2021 8:00:00 PM 12.37 54.266 0.389 8.27 3.92 12.36
3/30/2021 8:15:00 PM 12.36 54.248 0.39 8.26 3.89 12.34
3/30/2021 8:30:00 PM 12.34 54.212 0.39 8.26 3.86 12.3
3/30/2021 8:45:00 PM 12.31 54.158 0.39 8.25 4.24 12.27
3/30/2021 9:00:00 PM 12.29 54.122 0.391 8.24 3.67 12.23
3/30/2021 9:15:00 PM 12.26 54.068 0.392 8.23 3.74 12.19
3/30/2021 9:30:00 PM 12.23 54.014 0.393 8.22 3.7 12.15
3/30/2021 9:45:00 PM 12.19 53.942 0.394 8.21 3.7 12.11
3/30/2021 10:00:00 PM 12.16 53.888 0.395 8.19 3.67 12.06
3/30/2021 10:15:00 PM 12.12 53.816 0.395 8.18 3.8 12.04
3/30/2021 10:30:00 PM 12.08 53.744 0.395 8.16 3.85 11.99
3/30/2021 10:45:00 PM 12.05 53.69 0.395 8.14 3.89 11.95
3/30/2021 11:00:00 PM 12.01 53.618 0.395 8.13 3.98 11.9
3/30/2021 11:15:00 PM 11.97 53.546 0.395 8.11 3.83 11.86
3/30/2021 11:30:00 PM 11.94 53.492 0.395 8.1 3.9 11.83
3/30/2021 11:45:00 PM 11.9 53.42 0.395 8.08 3.88 11.78
3/31/2021 12:00:00 AM 11.87 53.366 0.397 8.07 3.93 11.77
3/31/2021 12:15:00 AM 11.83 53.294 0.399 8.05 4.05 11.72
3/31/2021 12:30:00 AM 11.8 53.24 0.402 8.04 4.34 11.71
3/31/2021 12:45:00 AM 11.77 53.186 0.404 8.03 4.25 11.69
3/31/2021 1:00:00 AM 11.74 53.132 0.406 8.01 4.35 11.66
3/31/2021 1:15:00 AM 11.71 53.078 0.409 8 4 11.64
3/31/2021 1:30:00 AM 11.69 53.042 0.411 7.99 4.06 11.61
3/31/2021 1:45:00 AM 11.67 53.006 0.413 7.98 4.31 11.58
3/31/2021 2:00:00 AM 11.64 52.952 0.415 7.96 3.97 11.54
3/31/2021 2:15:00 AM 11.63 52.934 0.416 7.95 3.91 11.5
3/31/2021 2:30:00 AM 11.61 52.898 0.416 7.94 4.13 11.48
3/31/2021 2:45:00 AM 11.59 52.862 0.417 7.93 4.17 11.46
3/31/2021 3:00:00 AM 11.58 52.844 0.418 7.92 3.95 11.44
3/31/2021 3:15:00 AM 11.57 52.826 0.419 7.91 3.89 11.42
3/31/2021 3:30:00 AM 11.55 52.79 0.419 7.91 3.8 11.4
3/31/2021 3:45:00 AM 11.55 52.79 0.419 7.9 3.79 11.38
3/31/2021 4:00:00 AM 11.54 52.772 0.419 7.9 3.84 11.35
3/31/2021 4:15:00 AM 11.53 52.754 0.418 7.89 3.78 11.35
3/31/2021 4:30:00 AM 11.52 52.736 0.417 7.88 3.85 11.33
3/31/2021 4:45:00 AM 11.51 52.718 0.415 7.88 4.2 11.33
3/31/2021 5:00:00 AM 11.5 52.7 0.414 7.87 4.15 11.32
3/31/2021 5:15:00 AM 11.48 52.664 0.413 7.87 4.52 11.3
3/31/2021 5:30:00 AM 11.47 52.646 0.412 7.86 4.29 11.3
3/31/2021 5:45:00 AM 11.46 52.628 0.412 7.86 4.42 11.3
3/31/2021 6:00:00 AM 11.44 52.592 0.412 7.85 3.99 11.3
3/31/2021 6:15:00 AM 11.43 52.574 0.412 7.85 4.19 11.29
3/31/2021 6:30:00 AM 11.41 52.538 0.412 7.85 4.28 11.29
3/31/2021 6:45:00 AM 11.39 52.502 0.412 7.84 4.01 11.28
3/31/2021 7:00:00 AM 11.37 52.466 0.412 7.84 4.12 11.28
3/31/2021 7:15:00 AM 11.35 52.43 0.411 7.84 4.32 11.29
3/31/2021 7:30:00 AM 11.34 52.412 0.411 7.84 4.24 11.31
3/31/2021 7:45:00 AM 11.33 52.394 0.41 7.84 4.21 11.33
3/31/2021 8:00:00 AM 11.32 52.376 0.41 7.84 4.07 11.32
3/31/2021 8:15:00 AM 11.31 52.358 0.409 7.84 3.92 11.35
3/31/2021 8:30:00 AM 11.31 52.358 0.408 7.84 3.98 11.36
3/31/2021 8:45:00 AM 11.3 52.34 0.409 7.84 4.02 11.38
3/31/2021 9:00:00 AM 11.29 52.322 0.409 7.84 4.27 11.37
3/31/2021 9:15:00 AM 11.29 52.322 0.409 7.84 4.28 11.39
3/31/2021 9:30:00 AM 11.29 52.322 0.409 7.84 4.45 11.4
3/31/2021 9:45:00 AM 11.28 52.304 0.409 7.84 4.32 11.39
3/31/2021 10:00:00 AM 11.29 52.322 0.409 7.84 4.52 11.43
3/31/2021 10:15:00 AM 11.31 52.358 0.409 7.85 4.41 11.49
3/31/2021 10:30:00 AM 11.34 52.412 0.408 7.86 4.64 11.52
3/31/2021 10:45:00 AM 11.35 52.43 0.408 7.86 4.38 11.5
3/31/2021 11:00:00 AM 11.38